<?xml version="1.0" encoding="UTF-8" standalone="no" ?>
<gpx xmlns="http://www.topografix.com/GPX/1/1" xmlns:xsi="http://www.w3.org/2001/XMLSchema-instance" xsi:schemaLocation="http://www.topografix.com/GPX/1/1 http://www.topografix.com/GPX/1/1/gpx.xsd" version="1.1" creator="VisuGPX - https://www.visugpx.com">
  <metadata>
    <name>VTT Turriers/Garcinets/Crête de la Scie</name>
    <desc><![CDATA[Beau petit circuit sur petites routes et pistes forestières avec au bout de la montagne russe de la crête de la scie un court sentier sur une lame de couteau donnant accès à une vue extraordinaire (attention à ne pas s\'approcher du bord du précipice !!!)]]></desc>
  </metadata>
  <trk>
    <name><![CDATA[Crête de la scie]]></name>
    <trkseg>
      <trkpt lat="44.39801" lon="6.17137">
        <ele>986.449951</ele>
        <time>2011-10-09T07:41:35Z</time>
      </trkpt>
      <trkpt lat="44.39799" lon="6.17136">
        <ele>990.29541</ele>
        <time>2011-10-09T07:42:11Z</time>
      </trkpt>
      <trkpt lat="44.39798" lon="6.17135">
        <ele>993.179199</ele>
        <time>2011-10-09T07:42:15Z</time>
      </trkpt>
      <trkpt lat="44.39798" lon="6.17135">
        <ele>996.543945</ele>
        <time>2011-10-09T07:42:20Z</time>
      </trkpt>
      <trkpt lat="44.39798" lon="6.17135">
        <ele>999.908447</ele>
        <time>2011-10-09T07:42:25Z</time>
      </trkpt>
      <trkpt lat="44.39797" lon="6.17134">
        <ele>1002.792236</ele>
        <time>2011-10-09T07:42:32Z</time>
      </trkpt>
      <trkpt lat="44.39797" lon="6.17134">
        <ele>1006.156982</ele>
        <time>2011-10-09T07:42:40Z</time>
      </trkpt>
      <trkpt lat="44.39796" lon="6.17133">
        <ele>1009.041016</ele>
        <time>2011-10-09T07:42:49Z</time>
      </trkpt>
      <trkpt lat="44.39793" lon="6.1713">
        <ele>1011.925049</ele>
        <time>2011-10-09T07:43:13Z</time>
      </trkpt>
      <trkpt lat="44.39793" lon="6.17129">
        <ele>1012.88623</ele>
        <time>2011-10-09T07:44:29Z</time>
      </trkpt>
      <trkpt lat="44.39784" lon="6.17141">
        <ele>1011.925049</ele>
        <time>2011-10-09T07:44:33Z</time>
      </trkpt>
      <trkpt lat="44.39769" lon="6.17166">
        <ele>1010.002197</ele>
        <time>2011-10-09T07:44:42Z</time>
      </trkpt>
      <trkpt lat="44.39769" lon="6.17166">
        <ele>1008.560303</ele>
        <time>2011-10-09T07:44:55Z</time>
      </trkpt>
      <trkpt lat="44.39769" lon="6.17166">
        <ele>1011.444336</ele>
        <time>2011-10-09T07:44:56Z</time>
      </trkpt>
      <trkpt lat="44.39769" lon="6.17166">
        <ele>1011.444336</ele>
        <time>2011-10-09T07:44:57Z</time>
      </trkpt>
      <trkpt lat="44.39769" lon="6.17166">
        <ele>1010.002197</ele>
        <time>2011-10-09T07:44:59Z</time>
      </trkpt>
      <trkpt lat="44.39767" lon="6.1717">
        <ele>1010.48291</ele>
        <time>2011-10-09T07:45:03Z</time>
      </trkpt>
      <trkpt lat="44.39764" lon="6.17179">
        <ele>1010.002197</ele>
        <time>2011-10-09T07:45:06Z</time>
      </trkpt>
      <trkpt lat="44.39733" lon="6.1726">
        <ele>1007.118408</ele>
        <time>2011-10-09T07:45:18Z</time>
      </trkpt>
      <trkpt lat="44.3972" lon="6.17279">
        <ele>1005.195801</ele>
        <time>2011-10-09T07:45:21Z</time>
      </trkpt>
      <trkpt lat="44.39702" lon="6.17294">
        <ele>1004.234619</ele>
        <time>2011-10-09T07:45:24Z</time>
      </trkpt>
      <trkpt lat="44.39689" lon="6.17304">
        <ele>1003.272949</ele>
        <time>2011-10-09T07:45:26Z</time>
      </trkpt>
      <trkpt lat="44.39678" lon="6.17316">
        <ele>1002.311523</ele>
        <time>2011-10-09T07:45:28Z</time>
      </trkpt>
      <trkpt lat="44.39661" lon="6.17351">
        <ele>1001.350342</ele>
        <time>2011-10-09T07:45:33Z</time>
      </trkpt>
      <trkpt lat="44.39655" lon="6.17365">
        <ele>1000.38916</ele>
        <time>2011-10-09T07:45:35Z</time>
      </trkpt>
      <trkpt lat="44.39643" lon="6.17378">
        <ele>999.908447</ele>
        <time>2011-10-09T07:45:39Z</time>
      </trkpt>
      <trkpt lat="44.39611" lon="6.17332">
        <ele>1001.350342</ele>
        <time>2011-10-09T07:45:51Z</time>
      </trkpt>
      <trkpt lat="44.39597" lon="6.1732">
        <ele>1002.792236</ele>
        <time>2011-10-09T07:45:59Z</time>
      </trkpt>
      <trkpt lat="44.3957" lon="6.17333">
        <ele>1006.156982</ele>
        <time>2011-10-09T07:46:15Z</time>
      </trkpt>
      <trkpt lat="44.39559" lon="6.17342">
        <ele>1008.560303</ele>
        <time>2011-10-09T07:46:24Z</time>
      </trkpt>
      <trkpt lat="44.39535" lon="6.17361">
        <ele>1011.925049</ele>
        <time>2011-10-09T07:46:42Z</time>
      </trkpt>
      <trkpt lat="44.39532" lon="6.17363">
        <ele>1011.925049</ele>
        <time>2011-10-09T07:46:44Z</time>
      </trkpt>
      <trkpt lat="44.39509" lon="6.1738">
        <ele>1013.847412</ele>
        <time>2011-10-09T07:47:00Z</time>
      </trkpt>
      <trkpt lat="44.39465" lon="6.17421">
        <ele>1014.808838</ele>
        <time>2011-10-09T07:47:22Z</time>
      </trkpt>
      <trkpt lat="44.39412" lon="6.17445">
        <ele>1016.250732</ele>
        <time>2011-10-09T07:47:45Z</time>
      </trkpt>
      <trkpt lat="44.39384" lon="6.17481">
        <ele>1017.212158</ele>
        <time>2011-10-09T07:48:01Z</time>
      </trkpt>
      <trkpt lat="44.39373" lon="6.17531">
        <ele>1017.692627</ele>
        <time>2011-10-09T07:48:19Z</time>
      </trkpt>
      <trkpt lat="44.39393" lon="6.17558">
        <ele>1018.654053</ele>
        <time>2011-10-09T07:48:32Z</time>
      </trkpt>
      <trkpt lat="44.39433" lon="6.17582">
        <ele>1019.615479</ele>
        <time>2011-10-09T07:48:48Z</time>
      </trkpt>
      <trkpt lat="44.39457" lon="6.17636">
        <ele>1020.096191</ele>
        <time>2011-10-09T07:49:05Z</time>
      </trkpt>
      <trkpt lat="44.39478" lon="6.17715">
        <ele>1021.057617</ele>
        <time>2011-10-09T07:49:28Z</time>
      </trkpt>
      <trkpt lat="44.39489" lon="6.17798">
        <ele>1021.538086</ele>
        <time>2011-10-09T07:49:49Z</time>
      </trkpt>
      <trkpt lat="44.39508" lon="6.17878">
        <ele>1023.460938</ele>
        <time>2011-10-09T07:50:12Z</time>
      </trkpt>
      <trkpt lat="44.39536" lon="6.17954">
        <ele>1023.941406</ele>
        <time>2011-10-09T07:50:33Z</time>
      </trkpt>
      <trkpt lat="44.39566" lon="6.18029">
        <ele>1025.383301</ele>
        <time>2011-10-09T07:50:54Z</time>
      </trkpt>
      <trkpt lat="44.39592" lon="6.18112">
        <ele>1025.864014</ele>
        <time>2011-10-09T07:51:16Z</time>
      </trkpt>
      <trkpt lat="44.39584" lon="6.18194">
        <ele>1027.306152</ele>
        <time>2011-10-09T07:51:36Z</time>
      </trkpt>
      <trkpt lat="44.39557" lon="6.18252">
        <ele>1027.786621</ele>
        <time>2011-10-09T07:51:54Z</time>
      </trkpt>
      <trkpt lat="44.39518" lon="6.18302">
        <ele>1028.748047</ele>
        <time>2011-10-09T07:52:12Z</time>
      </trkpt>
      <trkpt lat="44.3952" lon="6.18355">
        <ele>1028.748047</ele>
        <time>2011-10-09T07:52:25Z</time>
      </trkpt>
      <trkpt lat="44.39559" lon="6.18434">
        <ele>1028.748047</ele>
        <time>2011-10-09T07:52:44Z</time>
      </trkpt>
      <trkpt lat="44.39617" lon="6.18463">
        <ele>1030.189941</ele>
        <time>2011-10-09T07:53:04Z</time>
      </trkpt>
      <trkpt lat="44.39673" lon="6.18493">
        <ele>1032.112549</ele>
        <time>2011-10-09T07:53:27Z</time>
      </trkpt>
      <trkpt lat="44.39686" lon="6.18528">
        <ele>1034.996582</ele>
        <time>2011-10-09T07:53:42Z</time>
      </trkpt>
      <trkpt lat="44.39687" lon="6.18576">
        <ele>1038.361328</ele>
        <time>2011-10-09T07:54:01Z</time>
      </trkpt>
      <trkpt lat="44.39698" lon="6.18629">
        <ele>1040.764404</ele>
        <time>2011-10-09T07:54:24Z</time>
      </trkpt>
      <trkpt lat="44.39711" lon="6.18664">
        <ele>1043.648438</ele>
        <time>2011-10-09T07:54:41Z</time>
      </trkpt>
      <trkpt lat="44.39717" lon="6.18712">
        <ele>1046.051758</ele>
        <time>2011-10-09T07:55:00Z</time>
      </trkpt>
      <trkpt lat="44.39699" lon="6.18756">
        <ele>1047.493652</ele>
        <time>2011-10-09T07:55:18Z</time>
      </trkpt>
      <trkpt lat="44.39681" lon="6.18799">
        <ele>1049.896973</ele>
        <time>2011-10-09T07:55:37Z</time>
      </trkpt>
      <trkpt lat="44.39663" lon="6.18859">
        <ele>1052.300293</ele>
        <time>2011-10-09T07:56:01Z</time>
      </trkpt>
      <trkpt lat="44.39647" lon="6.18924">
        <ele>1055.184326</ele>
        <time>2011-10-09T07:56:26Z</time>
      </trkpt>
      <trkpt lat="44.39646" lon="6.18973">
        <ele>1056.626221</ele>
        <time>2011-10-09T07:56:45Z</time>
      </trkpt>
      <trkpt lat="44.3967" lon="6.19015">
        <ele>1059.990723</ele>
        <time>2011-10-09T07:57:06Z</time>
      </trkpt>
      <trkpt lat="44.39699" lon="6.19045">
        <ele>1061.913574</ele>
        <time>2011-10-09T07:57:26Z</time>
      </trkpt>
      <trkpt lat="44.3974" lon="6.19062">
        <ele>1064.31665</ele>
        <time>2011-10-09T07:57:48Z</time>
      </trkpt>
      <trkpt lat="44.39777" lon="6.19115">
        <ele>1063.835938</ele>
        <time>2011-10-09T07:58:07Z</time>
      </trkpt>
      <trkpt lat="44.39821" lon="6.1918">
        <ele>1063.355469</ele>
        <time>2011-10-09T07:58:26Z</time>
      </trkpt>
      <trkpt lat="44.39854" lon="6.19263">
        <ele>1062.874756</ele>
        <time>2011-10-09T07:58:46Z</time>
      </trkpt>
      <trkpt lat="44.39837" lon="6.19326">
        <ele>1062.394043</ele>
        <time>2011-10-09T07:58:58Z</time>
      </trkpt>
      <trkpt lat="44.39839" lon="6.19417">
        <ele>1061.432861</ele>
        <time>2011-10-09T07:59:14Z</time>
      </trkpt>
      <trkpt lat="44.39835" lon="6.1947">
        <ele>1060.471436</ele>
        <time>2011-10-09T07:59:22Z</time>
      </trkpt>
      <trkpt lat="44.3984" lon="6.19494">
        <ele>1059.510254</ele>
        <time>2011-10-09T07:59:26Z</time>
      </trkpt>
      <trkpt lat="44.39843" lon="6.19507">
        <ele>1059.510254</ele>
        <time>2011-10-09T07:59:28Z</time>
      </trkpt>
      <trkpt lat="44.39843" lon="6.1954">
        <ele>1059.510254</ele>
        <time>2011-10-09T07:59:33Z</time>
      </trkpt>
      <trkpt lat="44.39828" lon="6.19678">
        <ele>1059.029541</ele>
        <time>2011-10-09T07:59:54Z</time>
      </trkpt>
      <trkpt lat="44.39827" lon="6.19741">
        <ele>1059.029541</ele>
        <time>2011-10-09T08:00:04Z</time>
      </trkpt>
      <trkpt lat="44.39832" lon="6.19868">
        <ele>1058.548828</ele>
        <time>2011-10-09T08:00:24Z</time>
      </trkpt>
      <trkpt lat="44.39806" lon="6.19974">
        <ele>1057.587646</ele>
        <time>2011-10-09T08:00:42Z</time>
      </trkpt>
      <trkpt lat="44.398" lon="6.20059">
        <ele>1057.587646</ele>
        <time>2011-10-09T08:00:56Z</time>
      </trkpt>
      <trkpt lat="44.39786" lon="6.20148">
        <ele>1057.587646</ele>
        <time>2011-10-09T08:01:10Z</time>
      </trkpt>
      <trkpt lat="44.3978" lon="6.20165">
        <ele>1057.587646</ele>
        <time>2011-10-09T08:01:13Z</time>
      </trkpt>
      <trkpt lat="44.39716" lon="6.20243">
        <ele>1057.106934</ele>
        <time>2011-10-09T08:01:32Z</time>
      </trkpt>
      <trkpt lat="44.39664" lon="6.2033">
        <ele>1057.106934</ele>
        <time>2011-10-09T08:01:51Z</time>
      </trkpt>
      <trkpt lat="44.39658" lon="6.20348">
        <ele>1057.106934</ele>
        <time>2011-10-09T08:01:54Z</time>
      </trkpt>
      <trkpt lat="44.39648" lon="6.20389">
        <ele>1056.626221</ele>
        <time>2011-10-09T08:02:01Z</time>
      </trkpt>
      <trkpt lat="44.39657" lon="6.20451">
        <ele>1056.626221</ele>
        <time>2011-10-09T08:02:11Z</time>
      </trkpt>
      <trkpt lat="44.39638" lon="6.20508">
        <ele>1055.665039</ele>
        <time>2011-10-09T08:02:21Z</time>
      </trkpt>
      <trkpt lat="44.39565" lon="6.20544">
        <ele>1055.184326</ele>
        <time>2011-10-09T08:02:37Z</time>
      </trkpt>
      <trkpt lat="44.39544" lon="6.20556">
        <ele>1055.665039</ele>
        <time>2011-10-09T08:02:42Z</time>
      </trkpt>
      <trkpt lat="44.39489" lon="6.20641">
        <ele>1056.145508</ele>
        <time>2011-10-09T08:03:00Z</time>
      </trkpt>
      <trkpt lat="44.39451" lon="6.20751">
        <ele>1055.184326</ele>
        <time>2011-10-09T08:03:19Z</time>
      </trkpt>
      <trkpt lat="44.39442" lon="6.20798">
        <ele>1055.184326</ele>
        <time>2011-10-09T08:03:27Z</time>
      </trkpt>
      <trkpt lat="44.39431" lon="6.20835">
        <ele>1054.703613</ele>
        <time>2011-10-09T08:03:33Z</time>
      </trkpt>
      <trkpt lat="44.39394" lon="6.20849">
        <ele>1054.703613</ele>
        <time>2011-10-09T08:03:42Z</time>
      </trkpt>
      <trkpt lat="44.39345" lon="6.20823">
        <ele>1053.742432</ele>
        <time>2011-10-09T08:03:53Z</time>
      </trkpt>
      <trkpt lat="44.39317" lon="6.2082">
        <ele>1054.223145</ele>
        <time>2011-10-09T08:03:59Z</time>
      </trkpt>
      <trkpt lat="44.39293" lon="6.20857">
        <ele>1052.781006</ele>
        <time>2011-10-09T08:04:08Z</time>
      </trkpt>
      <trkpt lat="44.39307" lon="6.20882">
        <ele>1052.781006</ele>
        <time>2011-10-09T08:04:14Z</time>
      </trkpt>
      <trkpt lat="44.39327" lon="6.20891">
        <ele>1052.781006</ele>
        <time>2011-10-09T08:04:18Z</time>
      </trkpt>
      <trkpt lat="44.39344" lon="6.20917">
        <ele>1052.300293</ele>
        <time>2011-10-09T08:04:22Z</time>
      </trkpt>
      <trkpt lat="44.39346" lon="6.2093">
        <ele>1052.781006</ele>
        <time>2011-10-09T08:04:24Z</time>
      </trkpt>
      <trkpt lat="44.39365" lon="6.20959">
        <ele>1052.300293</ele>
        <time>2011-10-09T08:04:31Z</time>
      </trkpt>
      <trkpt lat="44.3938" lon="6.20963">
        <ele>1052.300293</ele>
        <time>2011-10-09T08:04:34Z</time>
      </trkpt>
      <trkpt lat="44.39394" lon="6.20983">
        <ele>1052.781006</ele>
        <time>2011-10-09T08:04:38Z</time>
      </trkpt>
      <trkpt lat="44.394" lon="6.20993">
        <ele>1052.781006</ele>
        <time>2011-10-09T08:04:40Z</time>
      </trkpt>
      <trkpt lat="44.39415" lon="6.21009">
        <ele>1052.781006</ele>
        <time>2011-10-09T08:04:44Z</time>
      </trkpt>
      <trkpt lat="44.39433" lon="6.21019">
        <ele>1052.300293</ele>
        <time>2011-10-09T08:04:48Z</time>
      </trkpt>
      <trkpt lat="44.39443" lon="6.21023">
        <ele>1052.300293</ele>
        <time>2011-10-09T08:04:50Z</time>
      </trkpt>
      <trkpt lat="44.39469" lon="6.21035">
        <ele>1051.81958</ele>
        <time>2011-10-09T08:04:55Z</time>
      </trkpt>
      <trkpt lat="44.39526" lon="6.21102">
        <ele>1051.81958</ele>
        <time>2011-10-09T08:05:11Z</time>
      </trkpt>
      <trkpt lat="44.39557" lon="6.21168">
        <ele>1052.300293</ele>
        <time>2011-10-09T08:05:27Z</time>
      </trkpt>
      <trkpt lat="44.39566" lon="6.2124">
        <ele>1053.261719</ele>
        <time>2011-10-09T08:05:42Z</time>
      </trkpt>
      <trkpt lat="44.39565" lon="6.21246">
        <ele>1053.261719</ele>
        <time>2011-10-09T08:05:43Z</time>
      </trkpt>
      <trkpt lat="44.39582" lon="6.21315">
        <ele>1053.742432</ele>
        <time>2011-10-09T08:05:57Z</time>
      </trkpt>
      <trkpt lat="44.39614" lon="6.21365">
        <ele>1053.742432</ele>
        <time>2011-10-09T08:06:09Z</time>
      </trkpt>
      <trkpt lat="44.39623" lon="6.21386">
        <ele>1053.261719</ele>
        <time>2011-10-09T08:06:13Z</time>
      </trkpt>
      <trkpt lat="44.39637" lon="6.21474">
        <ele>1054.223145</ele>
        <time>2011-10-09T08:06:29Z</time>
      </trkpt>
      <trkpt lat="44.39653" lon="6.2158">
        <ele>1054.223145</ele>
        <time>2011-10-09T08:06:49Z</time>
      </trkpt>
      <trkpt lat="44.39644" lon="6.21673">
        <ele>1054.223145</ele>
        <time>2011-10-09T08:07:07Z</time>
      </trkpt>
      <trkpt lat="44.396" lon="6.21727">
        <ele>1055.184326</ele>
        <time>2011-10-09T08:07:22Z</time>
      </trkpt>
      <trkpt lat="44.39545" lon="6.21742">
        <ele>1055.665039</ele>
        <time>2011-10-09T08:07:37Z</time>
      </trkpt>
      <trkpt lat="44.39518" lon="6.21732">
        <ele>1056.145508</ele>
        <time>2011-10-09T08:07:44Z</time>
      </trkpt>
      <trkpt lat="44.39501" lon="6.21732">
        <ele>1055.184326</ele>
        <time>2011-10-09T08:07:48Z</time>
      </trkpt>
      <trkpt lat="44.39484" lon="6.21763">
        <ele>1054.223145</ele>
        <time>2011-10-09T08:07:56Z</time>
      </trkpt>
      <trkpt lat="44.39486" lon="6.21769">
        <ele>1054.223145</ele>
        <time>2011-10-09T08:07:57Z</time>
      </trkpt>
      <trkpt lat="44.39515" lon="6.21798">
        <ele>1054.703613</ele>
        <time>2011-10-09T08:08:09Z</time>
      </trkpt>
      <trkpt lat="44.39553" lon="6.2183">
        <ele>1057.106934</ele>
        <time>2011-10-09T08:08:26Z</time>
      </trkpt>
      <trkpt lat="44.39587" lon="6.2183">
        <ele>1058.548828</ele>
        <time>2011-10-09T08:08:41Z</time>
      </trkpt>
      <trkpt lat="44.39638" lon="6.21829">
        <ele>1060.952148</ele>
        <time>2011-10-09T08:09:03Z</time>
      </trkpt>
      <trkpt lat="44.3967" lon="6.21861">
        <ele>1062.394043</ele>
        <time>2011-10-09T08:09:20Z</time>
      </trkpt>
      <trkpt lat="44.39695" lon="6.21925">
        <ele>1064.31665</ele>
        <time>2011-10-09T08:09:43Z</time>
      </trkpt>
      <trkpt lat="44.39723" lon="6.21995">
        <ele>1067.200684</ele>
        <time>2011-10-09T08:10:09Z</time>
      </trkpt>
      <trkpt lat="44.39746" lon="6.22051">
        <ele>1069.604248</ele>
        <time>2011-10-09T08:10:30Z</time>
      </trkpt>
      <trkpt lat="44.39774" lon="6.22118">
        <ele>1072.007324</ele>
        <time>2011-10-09T08:10:56Z</time>
      </trkpt>
      <trkpt lat="44.39801" lon="6.2219">
        <ele>1073.929932</ele>
        <time>2011-10-09T08:11:22Z</time>
      </trkpt>
      <trkpt lat="44.39807" lon="6.22272">
        <ele>1074.410645</ele>
        <time>2011-10-09T08:11:44Z</time>
      </trkpt>
      <trkpt lat="44.39807" lon="6.22352">
        <ele>1075.852539</ele>
        <time>2011-10-09T08:12:05Z</time>
      </trkpt>
      <trkpt lat="44.39785" lon="6.22402">
        <ele>1077.294678</ele>
        <time>2011-10-09T08:12:22Z</time>
      </trkpt>
      <trkpt lat="44.39764" lon="6.22467">
        <ele>1079.217041</ele>
        <time>2011-10-09T08:12:43Z</time>
      </trkpt>
      <trkpt lat="44.3976" lon="6.2254">
        <ele>1081.620361</ele>
        <time>2011-10-09T08:13:05Z</time>
      </trkpt>
      <trkpt lat="44.39775" lon="6.2256">
        <ele>1081.620361</ele>
        <time>2011-10-09T08:13:15Z</time>
      </trkpt>
      <trkpt lat="44.39833" lon="6.2256">
        <ele>1084.023926</ele>
        <time>2011-10-09T08:13:38Z</time>
      </trkpt>
      <trkpt lat="44.39864" lon="6.22507">
        <ele>1084.985352</ele>
        <time>2011-10-09T08:13:57Z</time>
      </trkpt>
      <trkpt lat="44.39894" lon="6.22515">
        <ele>1085.946533</ele>
        <time>2011-10-09T08:14:09Z</time>
      </trkpt>
      <trkpt lat="44.39944" lon="6.22553">
        <ele>1086.427246</ele>
        <time>2011-10-09T08:14:31Z</time>
      </trkpt>
      <trkpt lat="44.39996" lon="6.22571">
        <ele>1087.388428</ele>
        <time>2011-10-09T08:14:53Z</time>
      </trkpt>
      <trkpt lat="44.40053" lon="6.2259">
        <ele>1087.388428</ele>
        <time>2011-10-09T08:15:16Z</time>
      </trkpt>
      <trkpt lat="44.40101" lon="6.22576">
        <ele>1088.830566</ele>
        <time>2011-10-09T08:15:36Z</time>
      </trkpt>
      <trkpt lat="44.40151" lon="6.22555">
        <ele>1089.311035</ele>
        <time>2011-10-09T08:15:56Z</time>
      </trkpt>
      <trkpt lat="44.40195" lon="6.22561">
        <ele>1090.272461</ele>
        <time>2011-10-09T08:16:14Z</time>
      </trkpt>
      <trkpt lat="44.40197" lon="6.22606">
        <ele>1091.714355</ele>
        <time>2011-10-09T08:16:27Z</time>
      </trkpt>
      <trkpt lat="44.40181" lon="6.22663">
        <ele>1094.117676</ele>
        <time>2011-10-09T08:16:48Z</time>
      </trkpt>
      <trkpt lat="44.40171" lon="6.22718">
        <ele>1097.001465</ele>
        <time>2011-10-09T08:17:10Z</time>
      </trkpt>
      <trkpt lat="44.40163" lon="6.2277">
        <ele>1099.404785</ele>
        <time>2011-10-09T08:17:31Z</time>
      </trkpt>
      <trkpt lat="44.4017" lon="6.22825">
        <ele>1101.327637</ele>
        <time>2011-10-09T08:17:53Z</time>
      </trkpt>
      <trkpt lat="44.4018" lon="6.22894">
        <ele>1104.21167</ele>
        <time>2011-10-09T08:18:21Z</time>
      </trkpt>
      <trkpt lat="44.40174" lon="6.22942">
        <ele>1105.653564</ele>
        <time>2011-10-09T08:18:40Z</time>
      </trkpt>
      <trkpt lat="44.40148" lon="6.22983">
        <ele>1107.576172</ele>
        <time>2011-10-09T08:19:02Z</time>
      </trkpt>
      <trkpt lat="44.40135" lon="6.22988">
        <ele>1108.537354</ele>
        <time>2011-10-09T08:19:09Z</time>
      </trkpt>
      <trkpt lat="44.40096" lon="6.23009">
        <ele>1111.421387</ele>
        <time>2011-10-09T08:19:31Z</time>
      </trkpt>
      <trkpt lat="44.40089" lon="6.23014">
        <ele>1111.9021</ele>
        <time>2011-10-09T08:19:35Z</time>
      </trkpt>
      <trkpt lat="44.40049" lon="6.23046">
        <ele>1114.785889</ele>
        <time>2011-10-09T08:20:00Z</time>
      </trkpt>
      <trkpt lat="44.40024" lon="6.23066">
        <ele>1116.228027</ele>
        <time>2011-10-09T08:20:16Z</time>
      </trkpt>
      <trkpt lat="44.39986" lon="6.23087">
        <ele>1118.631348</ele>
        <time>2011-10-09T08:20:38Z</time>
      </trkpt>
      <trkpt lat="44.39951" lon="6.23117">
        <ele>1120.073242</ele>
        <time>2011-10-09T08:21:00Z</time>
      </trkpt>
      <trkpt lat="44.39916" lon="6.23152">
        <ele>1122.957275</ele>
        <time>2011-10-09T08:21:22Z</time>
      </trkpt>
      <trkpt lat="44.39884" lon="6.23172">
        <ele>1125.360352</ele>
        <time>2011-10-09T08:21:41Z</time>
      </trkpt>
      <trkpt lat="44.3985" lon="6.23184">
        <ele>1127.283203</ele>
        <time>2011-10-09T08:22:01Z</time>
      </trkpt>
      <trkpt lat="44.3981" lon="6.2321">
        <ele>1129.686279</ele>
        <time>2011-10-09T08:22:25Z</time>
      </trkpt>
      <trkpt lat="44.39767" lon="6.23247">
        <ele>1132.089844</ele>
        <time>2011-10-09T08:22:53Z</time>
      </trkpt>
      <trkpt lat="44.39734" lon="6.23274">
        <ele>1134.973877</ele>
        <time>2011-10-09T08:23:16Z</time>
      </trkpt>
      <trkpt lat="44.3971" lon="6.23304">
        <ele>1136.415771</ele>
        <time>2011-10-09T08:23:35Z</time>
      </trkpt>
      <trkpt lat="44.39672" lon="6.2332">
        <ele>1138.819092</ele>
        <time>2011-10-09T08:23:58Z</time>
      </trkpt>
      <trkpt lat="44.39654" lon="6.23317">
        <ele>1136.89624</ele>
        <time>2011-10-09T08:24:08Z</time>
      </trkpt>
      <trkpt lat="44.39651" lon="6.23316">
        <ele>1140.260986</ele>
        <time>2011-10-09T08:24:10Z</time>
      </trkpt>
      <trkpt lat="44.39621" lon="6.23298">
        <ele>1142.183594</ele>
        <time>2011-10-09T08:24:28Z</time>
      </trkpt>
      <trkpt lat="44.39581" lon="6.23304">
        <ele>1144.58667</ele>
        <time>2011-10-09T08:24:50Z</time>
      </trkpt>
      <trkpt lat="44.3956" lon="6.23333">
        <ele>1146.028809</ele>
        <time>2011-10-09T08:25:10Z</time>
      </trkpt>
      <trkpt lat="44.39563" lon="6.23346">
        <ele>1146.98999</ele>
        <time>2011-10-09T08:25:15Z</time>
      </trkpt>
      <trkpt lat="44.39596" lon="6.23356">
        <ele>1148.432129</ele>
        <time>2011-10-09T08:25:35Z</time>
      </trkpt>
      <trkpt lat="44.39626" lon="6.23372">
        <ele>1149.393555</ele>
        <time>2011-10-09T08:25:52Z</time>
      </trkpt>
      <trkpt lat="44.3965" lon="6.23394">
        <ele>1150.835449</ele>
        <time>2011-10-09T08:26:09Z</time>
      </trkpt>
      <trkpt lat="44.39678" lon="6.23414">
        <ele>1152.758057</ele>
        <time>2011-10-09T08:26:29Z</time>
      </trkpt>
      <trkpt lat="44.3971" lon="6.23427">
        <ele>1154.200195</ele>
        <time>2011-10-09T08:26:49Z</time>
      </trkpt>
      <trkpt lat="44.3972" lon="6.23428">
        <ele>1155.161377</ele>
        <time>2011-10-09T08:26:55Z</time>
      </trkpt>
      <trkpt lat="44.39728" lon="6.2343">
        <ele>1154.680664</ele>
        <time>2011-10-09T08:26:59Z</time>
      </trkpt>
      <trkpt lat="44.39761" lon="6.23422">
        <ele>1157.564697</ele>
        <time>2011-10-09T08:27:19Z</time>
      </trkpt>
      <trkpt lat="44.39792" lon="6.23403">
        <ele>1159.487305</ele>
        <time>2011-10-09T08:27:38Z</time>
      </trkpt>
      <trkpt lat="44.3983" lon="6.23405">
        <ele>1161.890625</ele>
        <time>2011-10-09T08:28:00Z</time>
      </trkpt>
      <trkpt lat="44.39866" lon="6.23389">
        <ele>1163.812988</ele>
        <time>2011-10-09T08:28:22Z</time>
      </trkpt>
      <trkpt lat="44.39898" lon="6.23385">
        <ele>1165.736084</ele>
        <time>2011-10-09T08:28:41Z</time>
      </trkpt>
      <trkpt lat="44.3994" lon="6.23411">
        <ele>1168.13916</ele>
        <time>2011-10-09T08:29:09Z</time>
      </trkpt>
      <trkpt lat="44.39945" lon="6.23422">
        <ele>1169.100586</ele>
        <time>2011-10-09T08:29:14Z</time>
      </trkpt>
      <trkpt lat="44.39963" lon="6.23459">
        <ele>1170.54248</ele>
        <time>2011-10-09T08:29:32Z</time>
      </trkpt>
      <trkpt lat="44.39992" lon="6.23504">
        <ele>1172.465088</ele>
        <time>2011-10-09T08:29:57Z</time>
      </trkpt>
      <trkpt lat="44.39993" lon="6.23553">
        <ele>1174.387695</ele>
        <time>2011-10-09T08:30:17Z</time>
      </trkpt>
      <trkpt lat="44.39981" lon="6.23597">
        <ele>1177.271729</ele>
        <time>2011-10-09T08:30:37Z</time>
      </trkpt>
      <trkpt lat="44.39979" lon="6.2365">
        <ele>1179.194092</ele>
        <time>2011-10-09T08:31:00Z</time>
      </trkpt>
      <trkpt lat="44.3998" lon="6.23668">
        <ele>1180.155762</ele>
        <time>2011-10-09T08:31:08Z</time>
      </trkpt>
      <trkpt lat="44.39987" lon="6.23697">
        <ele>1181.597656</ele>
        <time>2011-10-09T08:31:21Z</time>
      </trkpt>
      <trkpt lat="44.39994" lon="6.23736">
        <ele>1183.039551</ele>
        <time>2011-10-09T08:31:39Z</time>
      </trkpt>
      <trkpt lat="44.39993" lon="6.2378">
        <ele>1184.000977</ele>
        <time>2011-10-09T08:31:57Z</time>
      </trkpt>
      <trkpt lat="44.39986" lon="6.23799">
        <ele>1182.559082</ele>
        <time>2011-10-09T08:32:08Z</time>
      </trkpt>
      <trkpt lat="44.39986" lon="6.23799">
        <ele>1182.078369</ele>
        <time>2011-10-09T08:32:53Z</time>
      </trkpt>
      <trkpt lat="44.39986" lon="6.23799">
        <ele>1183.039551</ele>
        <time>2011-10-09T08:35:43Z</time>
      </trkpt>
      <trkpt lat="44.39986" lon="6.23799">
        <ele>1182.559082</ele>
        <time>2011-10-09T08:36:02Z</time>
      </trkpt>
      <trkpt lat="44.39972" lon="6.23809">
        <ele>1182.078369</ele>
        <time>2011-10-09T08:36:09Z</time>
      </trkpt>
      <trkpt lat="44.39954" lon="6.23815">
        <ele>1181.117188</ele>
        <time>2011-10-09T08:36:13Z</time>
      </trkpt>
      <trkpt lat="44.39931" lon="6.23813">
        <ele>1179.674805</ele>
        <time>2011-10-09T08:36:17Z</time>
      </trkpt>
      <trkpt lat="44.3991" lon="6.238">
        <ele>1177.752197</ele>
        <time>2011-10-09T08:36:21Z</time>
      </trkpt>
      <trkpt lat="44.39902" lon="6.23793">
        <ele>1177.271729</ele>
        <time>2011-10-09T08:36:23Z</time>
      </trkpt>
      <trkpt lat="44.39894" lon="6.23792">
        <ele>1175.82959</ele>
        <time>2011-10-09T08:36:26Z</time>
      </trkpt>
      <trkpt lat="44.39897" lon="6.23803">
        <ele>1175.348877</ele>
        <time>2011-10-09T08:36:29Z</time>
      </trkpt>
      <trkpt lat="44.39904" lon="6.23811">
        <ele>1175.82959</ele>
        <time>2011-10-09T08:36:31Z</time>
      </trkpt>
      <trkpt lat="44.39925" lon="6.23824">
        <ele>1174.387695</ele>
        <time>2011-10-09T08:36:35Z</time>
      </trkpt>
      <trkpt lat="44.39966" lon="6.23832">
        <ele>1171.984375</ele>
        <time>2011-10-09T08:36:41Z</time>
      </trkpt>
      <trkpt lat="44.39983" lon="6.23834">
        <ele>1171.023193</ele>
        <time>2011-10-09T08:36:43Z</time>
      </trkpt>
      <trkpt lat="44.39999" lon="6.23839">
        <ele>1169.581299</ele>
        <time>2011-10-09T08:36:45Z</time>
      </trkpt>
      <trkpt lat="44.40024" lon="6.23855">
        <ele>1168.619873</ele>
        <time>2011-10-09T08:36:48Z</time>
      </trkpt>
      <trkpt lat="44.40067" lon="6.23894">
        <ele>1164.293945</ele>
        <time>2011-10-09T08:36:54Z</time>
      </trkpt>
      <trkpt lat="44.40072" lon="6.23901">
        <ele>1164.293945</ele>
        <time>2011-10-09T08:36:55Z</time>
      </trkpt>
      <trkpt lat="44.40077" lon="6.23909">
        <ele>1164.293945</ele>
        <time>2011-10-09T08:36:56Z</time>
      </trkpt>
      <trkpt lat="44.40092" lon="6.23924">
        <ele>1162.371094</ele>
        <time>2011-10-09T08:36:59Z</time>
      </trkpt>
      <trkpt lat="44.40119" lon="6.23932">
        <ele>1159.487305</ele>
        <time>2011-10-09T08:37:03Z</time>
      </trkpt>
      <trkpt lat="44.40131" lon="6.2395">
        <ele>1157.564697</ele>
        <time>2011-10-09T08:37:07Z</time>
      </trkpt>
      <trkpt lat="44.40131" lon="6.2395">
        <ele>1156.122559</ele>
        <time>2011-10-09T08:37:20Z</time>
      </trkpt>
      <trkpt lat="44.40131" lon="6.2395">
        <ele>1156.122559</ele>
        <time>2011-10-09T08:37:25Z</time>
      </trkpt>
      <trkpt lat="44.40131" lon="6.2395">
        <ele>1156.122559</ele>
        <time>2011-10-09T08:37:29Z</time>
      </trkpt>
      <trkpt lat="44.40131" lon="6.2395">
        <ele>1156.603271</ele>
        <time>2011-10-09T08:37:45Z</time>
      </trkpt>
      <trkpt lat="44.40131" lon="6.2395">
        <ele>1156.603271</ele>
        <time>2011-10-09T08:38:14Z</time>
      </trkpt>
      <trkpt lat="44.40143" lon="6.23963">
        <ele>1156.122559</ele>
        <time>2011-10-09T08:38:25Z</time>
      </trkpt>
      <trkpt lat="44.40127" lon="6.23953">
        <ele>1155.64209</ele>
        <time>2011-10-09T08:38:37Z</time>
      </trkpt>
      <trkpt lat="44.40127" lon="6.23953">
        <ele>1155.64209</ele>
        <time>2011-10-09T08:38:38Z</time>
      </trkpt>
      <trkpt lat="44.40089" lon="6.23938">
        <ele>1154.200195</ele>
        <time>2011-10-09T08:38:48Z</time>
      </trkpt>
      <trkpt lat="44.4006" lon="6.23911">
        <ele>1153.23877</ele>
        <time>2011-10-09T08:38:53Z</time>
      </trkpt>
      <trkpt lat="44.40008" lon="6.2388">
        <ele>1150.35498</ele>
        <time>2011-10-09T08:39:00Z</time>
      </trkpt>
      <trkpt lat="44.39982" lon="6.23873">
        <ele>1147.951416</ele>
        <time>2011-10-09T08:39:03Z</time>
      </trkpt>
      <trkpt lat="44.39973" lon="6.23874">
        <ele>1146.509521</ele>
        <time>2011-10-09T08:39:04Z</time>
      </trkpt>
      <trkpt lat="44.39925" lon="6.23878">
        <ele>1143.144775</ele>
        <time>2011-10-09T08:39:09Z</time>
      </trkpt>
      <trkpt lat="44.39917" lon="6.23878">
        <ele>1143.144775</ele>
        <time>2011-10-09T08:39:10Z</time>
      </trkpt>
      <trkpt lat="44.39909" lon="6.23878">
        <ele>1142.183594</ele>
        <time>2011-10-09T08:39:11Z</time>
      </trkpt>
      <trkpt lat="44.39885" lon="6.23868">
        <ele>1141.702881</ele>
        <time>2011-10-09T08:39:14Z</time>
      </trkpt>
      <trkpt lat="44.39862" lon="6.23866">
        <ele>1139.780273</ele>
        <time>2011-10-09T08:39:17Z</time>
      </trkpt>
      <trkpt lat="44.39847" lon="6.23869">
        <ele>1138.338379</ele>
        <time>2011-10-09T08:39:19Z</time>
      </trkpt>
      <trkpt lat="44.39824" lon="6.23864">
        <ele>1137.376953</ele>
        <time>2011-10-09T08:39:22Z</time>
      </trkpt>
      <trkpt lat="44.39807" lon="6.23864">
        <ele>1136.415771</ele>
        <time>2011-10-09T08:39:24Z</time>
      </trkpt>
      <trkpt lat="44.39715" lon="6.23875">
        <ele>1133.531738</ele>
        <time>2011-10-09T08:39:35Z</time>
      </trkpt>
      <trkpt lat="44.39684" lon="6.2386">
        <ele>1131.608887</ele>
        <time>2011-10-09T08:39:39Z</time>
      </trkpt>
      <trkpt lat="44.39628" lon="6.23864">
        <ele>1128.244385</ele>
        <time>2011-10-09T08:39:46Z</time>
      </trkpt>
      <trkpt lat="44.39621" lon="6.23865">
        <ele>1128.244385</ele>
        <time>2011-10-09T08:39:47Z</time>
      </trkpt>
      <trkpt lat="44.39615" lon="6.23866">
        <ele>1127.283203</ele>
        <time>2011-10-09T08:39:48Z</time>
      </trkpt>
      <trkpt lat="44.39604" lon="6.23876">
        <ele>1126.321777</ele>
        <time>2011-10-09T08:39:51Z</time>
      </trkpt>
      <trkpt lat="44.39614" lon="6.23898">
        <ele>1124.39917</ele>
        <time>2011-10-09T08:39:56Z</time>
      </trkpt>
      <trkpt lat="44.39619" lon="6.239">
        <ele>1123.918457</ele>
        <time>2011-10-09T08:39:57Z</time>
      </trkpt>
      <trkpt lat="44.39642" lon="6.23905">
        <ele>1123.437988</ele>
        <time>2011-10-09T08:40:01Z</time>
      </trkpt>
      <trkpt lat="44.3967" lon="6.23937">
        <ele>1121.515137</ele>
        <time>2011-10-09T08:40:07Z</time>
      </trkpt>
      <trkpt lat="44.39694" lon="6.24004">
        <ele>1118.631348</ele>
        <time>2011-10-09T08:40:16Z</time>
      </trkpt>
      <trkpt lat="44.39719" lon="6.24034">
        <ele>1117.669922</ele>
        <time>2011-10-09T08:40:21Z</time>
      </trkpt>
      <trkpt lat="44.3974" lon="6.24044">
        <ele>1115.747314</ele>
        <time>2011-10-09T08:40:24Z</time>
      </trkpt>
      <trkpt lat="44.39782" lon="6.24086">
        <ele>1113.343994</ele>
        <time>2011-10-09T08:40:31Z</time>
      </trkpt>
      <trkpt lat="44.3981" lon="6.24121">
        <ele>1109.979248</ele>
        <time>2011-10-09T08:40:36Z</time>
      </trkpt>
      <trkpt lat="44.39819" lon="6.24132">
        <ele>1109.018066</ele>
        <time>2011-10-09T08:40:38Z</time>
      </trkpt>
      <trkpt lat="44.3983" lon="6.24137">
        <ele>1108.056885</ele>
        <time>2011-10-09T08:40:40Z</time>
      </trkpt>
      <trkpt lat="44.39903" lon="6.24206">
        <ele>1104.692139</ele>
        <time>2011-10-09T08:40:55Z</time>
      </trkpt>
      <trkpt lat="44.39947" lon="6.24277">
        <ele>1101.80835</ele>
        <time>2011-10-09T08:41:04Z</time>
      </trkpt>
      <trkpt lat="44.39977" lon="6.24376">
        <ele>1098.443359</ele>
        <time>2011-10-09T08:41:14Z</time>
      </trkpt>
      <trkpt lat="44.3999" lon="6.24418">
        <ele>1097.482178</ele>
        <time>2011-10-09T08:41:18Z</time>
      </trkpt>
      <trkpt lat="44.39991" lon="6.24444">
        <ele>1095.55957</ele>
        <time>2011-10-09T08:41:21Z</time>
      </trkpt>
      <trkpt lat="44.39992" lon="6.24494">
        <ele>1093.15625</ele>
        <time>2011-10-09T08:41:28Z</time>
      </trkpt>
      <trkpt lat="44.39998" lon="6.24496">
        <ele>1093.15625</ele>
        <time>2011-10-09T08:41:29Z</time>
      </trkpt>
      <trkpt lat="44.40009" lon="6.24494">
        <ele>1093.15625</ele>
        <time>2011-10-09T08:41:31Z</time>
      </trkpt>
      <trkpt lat="44.40035" lon="6.24484">
        <ele>1092.195068</ele>
        <time>2011-10-09T08:41:36Z</time>
      </trkpt>
      <trkpt lat="44.40055" lon="6.24483">
        <ele>1090.75293</ele>
        <time>2011-10-09T08:41:43Z</time>
      </trkpt>
      <trkpt lat="44.40057" lon="6.24527">
        <ele>1088.830566</ele>
        <time>2011-10-09T08:41:49Z</time>
      </trkpt>
      <trkpt lat="44.40054" lon="6.24544">
        <ele>1088.349854</ele>
        <time>2011-10-09T08:41:51Z</time>
      </trkpt>
      <trkpt lat="44.40065" lon="6.24582">
        <ele>1087.869141</ele>
        <time>2011-10-09T08:41:56Z</time>
      </trkpt>
      <trkpt lat="44.40109" lon="6.2465">
        <ele>1084.023926</ele>
        <time>2011-10-09T08:42:05Z</time>
      </trkpt>
      <trkpt lat="44.40114" lon="6.24657">
        <ele>1084.023926</ele>
        <time>2011-10-09T08:42:06Z</time>
      </trkpt>
      <trkpt lat="44.40142" lon="6.24721">
        <ele>1081.620361</ele>
        <time>2011-10-09T08:42:13Z</time>
      </trkpt>
      <trkpt lat="44.40146" lon="6.24731">
        <ele>1081.139893</ele>
        <time>2011-10-09T08:42:14Z</time>
      </trkpt>
      <trkpt lat="44.40154" lon="6.24773">
        <ele>1079.697754</ele>
        <time>2011-10-09T08:42:18Z</time>
      </trkpt>
      <trkpt lat="44.40194" lon="6.24853">
        <ele>1076.333252</ele>
        <time>2011-10-09T08:42:27Z</time>
      </trkpt>
      <trkpt lat="44.40199" lon="6.24861">
        <ele>1076.333252</ele>
        <time>2011-10-09T08:42:28Z</time>
      </trkpt>
      <trkpt lat="44.40212" lon="6.24892">
        <ele>1074.891357</ele>
        <time>2011-10-09T08:42:31Z</time>
      </trkpt>
      <trkpt lat="44.4023" lon="6.2496">
        <ele>1073.449463</ele>
        <time>2011-10-09T08:42:37Z</time>
      </trkpt>
      <trkpt lat="44.40251" lon="6.25028">
        <ele>1071.046143</ele>
        <time>2011-10-09T08:42:43Z</time>
      </trkpt>
      <trkpt lat="44.40278" lon="6.251">
        <ele>1067.681152</ele>
        <time>2011-10-09T08:42:51Z</time>
      </trkpt>
      <trkpt lat="44.40317" lon="6.25161">
        <ele>1064.797363</ele>
        <time>2011-10-09T08:43:00Z</time>
      </trkpt>
      <trkpt lat="44.40325" lon="6.25172">
        <ele>1063.355469</ele>
        <time>2011-10-09T08:43:03Z</time>
      </trkpt>
      <trkpt lat="44.40322" lon="6.2517">
        <ele>1061.913574</ele>
        <time>2011-10-09T08:43:10Z</time>
      </trkpt>
      <trkpt lat="44.40288" lon="6.25117">
        <ele>1061.432861</ele>
        <time>2011-10-09T08:43:24Z</time>
      </trkpt>
      <trkpt lat="44.40269" lon="6.25081">
        <ele>1061.913574</ele>
        <time>2011-10-09T08:43:36Z</time>
      </trkpt>
      <trkpt lat="44.40254" lon="6.2504">
        <ele>1060.471436</ele>
        <time>2011-10-09T08:43:42Z</time>
      </trkpt>
      <trkpt lat="44.40243" lon="6.25">
        <ele>1060.471436</ele>
        <time>2011-10-09T08:43:46Z</time>
      </trkpt>
      <trkpt lat="44.40273" lon="6.24968">
        <ele>1058.548828</ele>
        <time>2011-10-09T08:43:50Z</time>
      </trkpt>
      <trkpt lat="44.40273" lon="6.24908">
        <ele>1056.626221</ele>
        <time>2011-10-09T08:43:57Z</time>
      </trkpt>
      <trkpt lat="44.40275" lon="6.24862">
        <ele>1052.781006</ele>
        <time>2011-10-09T08:44:03Z</time>
      </trkpt>
      <trkpt lat="44.40275" lon="6.24856">
        <ele>1052.781006</ele>
        <time>2011-10-09T08:44:04Z</time>
      </trkpt>
      <trkpt lat="44.40275" lon="6.24844">
        <ele>1051.338867</ele>
        <time>2011-10-09T08:44:06Z</time>
      </trkpt>
      <trkpt lat="44.40275" lon="6.24833">
        <ele>1050.858154</ele>
        <time>2011-10-09T08:44:08Z</time>
      </trkpt>
      <trkpt lat="44.40284" lon="6.24781">
        <ele>1047.012939</ele>
        <time>2011-10-09T08:44:16Z</time>
      </trkpt>
      <trkpt lat="44.40289" lon="6.24766">
        <ele>1046.051758</ele>
        <time>2011-10-09T08:44:18Z</time>
      </trkpt>
      <trkpt lat="44.40302" lon="6.24745">
        <ele>1044.609619</ele>
        <time>2011-10-09T08:44:21Z</time>
      </trkpt>
      <trkpt lat="44.4032" lon="6.24727">
        <ele>1042.687256</ele>
        <time>2011-10-09T08:44:25Z</time>
      </trkpt>
      <trkpt lat="44.40326" lon="6.24719">
        <ele>1042.206543</ele>
        <time>2011-10-09T08:44:27Z</time>
      </trkpt>
      <trkpt lat="44.40338" lon="6.24685">
        <ele>1041.245117</ele>
        <time>2011-10-09T08:44:33Z</time>
      </trkpt>
      <trkpt lat="44.4035" lon="6.24641">
        <ele>1041.72583</ele>
        <time>2011-10-09T08:44:44Z</time>
      </trkpt>
      <trkpt lat="44.40356" lon="6.24629">
        <ele>1043.167725</ele>
        <time>2011-10-09T08:44:50Z</time>
      </trkpt>
      <trkpt lat="44.40399" lon="6.24614">
        <ele>1044.609619</ele>
        <time>2011-10-09T08:45:10Z</time>
      </trkpt>
      <trkpt lat="44.40443" lon="6.24611">
        <ele>1045.571045</ele>
        <time>2011-10-09T08:45:27Z</time>
      </trkpt>
      <trkpt lat="44.4048" lon="6.24637">
        <ele>1046.532471</ele>
        <time>2011-10-09T08:45:43Z</time>
      </trkpt>
      <trkpt lat="44.40511" lon="6.24672">
        <ele>1047.974365</ele>
        <time>2011-10-09T08:45:59Z</time>
      </trkpt>
      <trkpt lat="44.40561" lon="6.24711">
        <ele>1047.493652</ele>
        <time>2011-10-09T08:46:17Z</time>
      </trkpt>
      <trkpt lat="44.40597" lon="6.24732">
        <ele>1048.935547</ele>
        <time>2011-10-09T08:46:34Z</time>
      </trkpt>
      <trkpt lat="44.40604" lon="6.24733">
        <ele>1049.896973</ele>
        <time>2011-10-09T08:46:37Z</time>
      </trkpt>
      <trkpt lat="44.40624" lon="6.24762">
        <ele>1051.338867</ele>
        <time>2011-10-09T08:46:52Z</time>
      </trkpt>
      <trkpt lat="44.40654" lon="6.24787">
        <ele>1051.338867</ele>
        <time>2011-10-09T08:47:09Z</time>
      </trkpt>
      <trkpt lat="44.40663" lon="6.24787">
        <ele>1050.858154</ele>
        <time>2011-10-09T08:47:11Z</time>
      </trkpt>
      <trkpt lat="44.40674" lon="6.24814">
        <ele>1049.41626</ele>
        <time>2011-10-09T08:47:17Z</time>
      </trkpt>
      <trkpt lat="44.40683" lon="6.24863">
        <ele>1049.41626</ele>
        <time>2011-10-09T08:47:31Z</time>
      </trkpt>
      <trkpt lat="44.407" lon="6.2489">
        <ele>1049.896973</ele>
        <time>2011-10-09T08:47:43Z</time>
      </trkpt>
      <trkpt lat="44.40728" lon="6.24896">
        <ele>1052.300293</ele>
        <time>2011-10-09T08:47:59Z</time>
      </trkpt>
      <trkpt lat="44.40756" lon="6.24873">
        <ele>1052.300293</ele>
        <time>2011-10-09T08:48:18Z</time>
      </trkpt>
      <trkpt lat="44.40758" lon="6.24867">
        <ele>1052.300293</ele>
        <time>2011-10-09T08:48:20Z</time>
      </trkpt>
      <trkpt lat="44.40772" lon="6.24858">
        <ele>1053.261719</ele>
        <time>2011-10-09T08:48:32Z</time>
      </trkpt>
      <trkpt lat="44.40772" lon="6.24858">
        <ele>1053.261719</ele>
        <time>2011-10-09T08:48:33Z</time>
      </trkpt>
      <trkpt lat="44.40776" lon="6.24868">
        <ele>1052.300293</ele>
        <time>2011-10-09T08:48:45Z</time>
      </trkpt>
      <trkpt lat="44.40786" lon="6.24887">
        <ele>1053.261719</ele>
        <time>2011-10-09T08:50:32Z</time>
      </trkpt>
      <trkpt lat="44.40797" lon="6.24895">
        <ele>1053.742432</ele>
        <time>2011-10-09T08:50:41Z</time>
      </trkpt>
      <trkpt lat="44.40798" lon="6.24902">
        <ele>1053.742432</ele>
        <time>2011-10-09T08:50:43Z</time>
      </trkpt>
      <trkpt lat="44.40794" lon="6.2492">
        <ele>1055.184326</ele>
        <time>2011-10-09T08:50:51Z</time>
      </trkpt>
      <trkpt lat="44.40795" lon="6.24926">
        <ele>1055.184326</ele>
        <time>2011-10-09T08:50:55Z</time>
      </trkpt>
      <trkpt lat="44.40797" lon="6.24935">
        <ele>1056.145508</ele>
        <time>2011-10-09T08:51:01Z</time>
      </trkpt>
      <trkpt lat="44.40807" lon="6.24965">
        <ele>1059.990723</ele>
        <time>2011-10-09T08:51:21Z</time>
      </trkpt>
      <trkpt lat="44.40816" lon="6.24983">
        <ele>1061.913574</ele>
        <time>2011-10-09T08:51:34Z</time>
      </trkpt>
      <trkpt lat="44.4083" lon="6.25014">
        <ele>1064.31665</ele>
        <time>2011-10-09T08:51:53Z</time>
      </trkpt>
      <trkpt lat="44.40834" lon="6.2502">
        <ele>1065.278076</ele>
        <time>2011-10-09T08:51:57Z</time>
      </trkpt>
      <trkpt lat="44.40847" lon="6.25051">
        <ele>1068.642822</ele>
        <time>2011-10-09T08:52:16Z</time>
      </trkpt>
      <trkpt lat="44.40864" lon="6.25077">
        <ele>1072.007324</ele>
        <time>2011-10-09T08:52:39Z</time>
      </trkpt>
      <trkpt lat="44.40868" lon="6.25087">
        <ele>1072.488037</ele>
        <time>2011-10-09T08:52:46Z</time>
      </trkpt>
      <trkpt lat="44.40885" lon="6.25113">
        <ele>1076.333252</ele>
        <time>2011-10-09T08:53:10Z</time>
      </trkpt>
      <trkpt lat="44.40896" lon="6.2513">
        <ele>1078.736572</ele>
        <time>2011-10-09T08:53:25Z</time>
      </trkpt>
      <trkpt lat="44.40907" lon="6.25147">
        <ele>1081.139893</ele>
        <time>2011-10-09T08:53:40Z</time>
      </trkpt>
      <trkpt lat="44.40909" lon="6.25151">
        <ele>1081.620361</ele>
        <time>2011-10-09T08:53:44Z</time>
      </trkpt>
      <trkpt lat="44.40916" lon="6.25155">
        <ele>1082.101074</ele>
        <time>2011-10-09T08:53:50Z</time>
      </trkpt>
      <trkpt lat="44.40919" lon="6.25153">
        <ele>1082.581787</ele>
        <time>2011-10-09T08:53:53Z</time>
      </trkpt>
      <trkpt lat="44.40921" lon="6.25146">
        <ele>1082.581787</ele>
        <time>2011-10-09T08:53:58Z</time>
      </trkpt>
      <trkpt lat="44.4092" lon="6.25142">
        <ele>1083.062256</ele>
        <time>2011-10-09T08:54:00Z</time>
      </trkpt>
      <trkpt lat="44.40905" lon="6.25112">
        <ele>1085.946533</ele>
        <time>2011-10-09T08:54:22Z</time>
      </trkpt>
      <trkpt lat="44.40899" lon="6.25081">
        <ele>1087.869141</ele>
        <time>2011-10-09T08:54:42Z</time>
      </trkpt>
      <trkpt lat="44.40896" lon="6.25061">
        <ele>1089.311035</ele>
        <time>2011-10-09T08:54:55Z</time>
      </trkpt>
      <trkpt lat="44.40893" lon="6.25036">
        <ele>1091.233643</ele>
        <time>2011-10-09T08:55:10Z</time>
      </trkpt>
      <trkpt lat="44.40901" lon="6.25011">
        <ele>1093.15625</ele>
        <time>2011-10-09T08:55:27Z</time>
      </trkpt>
      <trkpt lat="44.40903" lon="6.24996">
        <ele>1093.636963</ele>
        <time>2011-10-09T08:55:35Z</time>
      </trkpt>
      <trkpt lat="44.40905" lon="6.24957">
        <ele>1094.598145</ele>
        <time>2011-10-09T08:55:55Z</time>
      </trkpt>
      <trkpt lat="44.40909" lon="6.24941">
        <ele>1095.55957</ele>
        <time>2011-10-09T08:56:06Z</time>
      </trkpt>
      <trkpt lat="44.40913" lon="6.24941">
        <ele>1096.040283</ele>
        <time>2011-10-09T08:56:09Z</time>
      </trkpt>
      <trkpt lat="44.40916" lon="6.2495">
        <ele>1097.001465</ele>
        <time>2011-10-09T08:56:14Z</time>
      </trkpt>
      <trkpt lat="44.40921" lon="6.24993">
        <ele>1099.404785</ele>
        <time>2011-10-09T08:56:39Z</time>
      </trkpt>
      <trkpt lat="44.40922" lon="6.25001">
        <ele>1100.846924</ele>
        <time>2011-10-09T08:56:45Z</time>
      </trkpt>
      <trkpt lat="44.40925" lon="6.25007">
        <ele>1100.846924</ele>
        <time>2011-10-09T08:56:49Z</time>
      </trkpt>
      <trkpt lat="44.4093" lon="6.25025">
        <ele>1103.250244</ele>
        <time>2011-10-09T08:57:03Z</time>
      </trkpt>
      <trkpt lat="44.40933" lon="6.25035">
        <ele>1103.250244</ele>
        <time>2011-10-09T08:57:17Z</time>
      </trkpt>
      <trkpt lat="44.4094" lon="6.25048">
        <ele>1106.614746</ele>
        <time>2011-10-09T08:57:34Z</time>
      </trkpt>
      <trkpt lat="44.40955" lon="6.25058">
        <ele>1108.537354</ele>
        <time>2011-10-09T08:57:56Z</time>
      </trkpt>
      <trkpt lat="44.40966" lon="6.25056">
        <ele>1110.459961</ele>
        <time>2011-10-09T08:58:12Z</time>
      </trkpt>
      <trkpt lat="44.40968" lon="6.25053">
        <ele>1111.421387</ele>
        <time>2011-10-09T08:58:31Z</time>
      </trkpt>
      <trkpt lat="44.40969" lon="6.25052">
        <ele>1111.421387</ele>
        <time>2011-10-09T08:59:10Z</time>
      </trkpt>
      <trkpt lat="44.40974" lon="6.2505">
        <ele>1110.940674</ele>
        <time>2011-10-09T08:59:14Z</time>
      </trkpt>
      <trkpt lat="44.40995" lon="6.2504">
        <ele>1114.785889</ele>
        <time>2011-10-09T08:59:32Z</time>
      </trkpt>
      <trkpt lat="44.41015" lon="6.25028">
        <ele>1118.150635</ele>
        <time>2011-10-09T08:59:51Z</time>
      </trkpt>
      <trkpt lat="44.41035" lon="6.25014">
        <ele>1121.034668</ele>
        <time>2011-10-09T09:00:12Z</time>
      </trkpt>
      <trkpt lat="44.41049" lon="6.25009">
        <ele>1122.476563</ele>
        <time>2011-10-09T09:00:24Z</time>
      </trkpt>
      <trkpt lat="44.41079" lon="6.25017">
        <ele>1123.437988</ele>
        <time>2011-10-09T09:00:44Z</time>
      </trkpt>
      <trkpt lat="44.41109" lon="6.25015">
        <ele>1123.437988</ele>
        <time>2011-10-09T09:01:00Z</time>
      </trkpt>
      <trkpt lat="44.41138" lon="6.25012">
        <ele>1125.841064</ele>
        <time>2011-10-09T09:01:19Z</time>
      </trkpt>
      <trkpt lat="44.41164" lon="6.25023">
        <ele>1128.725098</ele>
        <time>2011-10-09T09:01:39Z</time>
      </trkpt>
      <trkpt lat="44.41189" lon="6.2503">
        <ele>1132.089844</ele>
        <time>2011-10-09T09:02:00Z</time>
      </trkpt>
      <trkpt lat="44.41202" lon="6.25035">
        <ele>1133.051025</ele>
        <time>2011-10-09T09:02:11Z</time>
      </trkpt>
      <trkpt lat="44.41217" lon="6.25034">
        <ele>1134.493164</ele>
        <time>2011-10-09T09:02:24Z</time>
      </trkpt>
      <trkpt lat="44.41221" lon="6.25032">
        <ele>1135.454346</ele>
        <time>2011-10-09T09:02:42Z</time>
      </trkpt>
      <trkpt lat="44.41221" lon="6.25031">
        <ele>1135.454346</ele>
        <time>2011-10-09T09:03:41Z</time>
      </trkpt>
      <trkpt lat="44.41212" lon="6.25007">
        <ele>1137.376953</ele>
        <time>2011-10-09T09:03:55Z</time>
      </trkpt>
      <trkpt lat="44.41202" lon="6.24976">
        <ele>1140.741455</ele>
        <time>2011-10-09T09:04:16Z</time>
      </trkpt>
      <trkpt lat="44.41204" lon="6.2497">
        <ele>1140.741455</ele>
        <time>2011-10-09T09:04:20Z</time>
      </trkpt>
      <trkpt lat="44.41227" lon="6.24958">
        <ele>1143.144775</ele>
        <time>2011-10-09T09:04:41Z</time>
      </trkpt>
      <trkpt lat="44.41248" lon="6.24949">
        <ele>1146.028809</ele>
        <time>2011-10-09T09:04:59Z</time>
      </trkpt>
      <trkpt lat="44.41266" lon="6.24942">
        <ele>1147.470703</ele>
        <time>2011-10-09T09:05:16Z</time>
      </trkpt>
      <trkpt lat="44.41266" lon="6.24935">
        <ele>1148.432129</ele>
        <time>2011-10-09T09:05:20Z</time>
      </trkpt>
      <trkpt lat="44.41252" lon="6.2492">
        <ele>1150.835449</ele>
        <time>2011-10-09T09:05:34Z</time>
      </trkpt>
      <trkpt lat="44.41238" lon="6.24898">
        <ele>1152.277344</ele>
        <time>2011-10-09T09:05:54Z</time>
      </trkpt>
      <trkpt lat="44.41223" lon="6.2487">
        <ele>1154.680664</ele>
        <time>2011-10-09T09:06:16Z</time>
      </trkpt>
      <trkpt lat="44.4121" lon="6.24848">
        <ele>1156.603271</ele>
        <time>2011-10-09T09:06:33Z</time>
      </trkpt>
      <trkpt lat="44.41194" lon="6.24835">
        <ele>1158.04541</ele>
        <time>2011-10-09T09:06:46Z</time>
      </trkpt>
      <trkpt lat="44.41188" lon="6.24821">
        <ele>1159.967773</ele>
        <time>2011-10-09T09:06:56Z</time>
      </trkpt>
      <trkpt lat="44.41193" lon="6.24813">
        <ele>1160.448486</ele>
        <time>2011-10-09T09:07:03Z</time>
      </trkpt>
      <trkpt lat="44.41208" lon="6.24816">
        <ele>1162.851807</ele>
        <time>2011-10-09T09:07:24Z</time>
      </trkpt>
      <trkpt lat="44.41213" lon="6.24817">
        <ele>1162.851807</ele>
        <time>2011-10-09T09:07:52Z</time>
      </trkpt>
      <trkpt lat="44.41219" lon="6.24813">
        <ele>1163.812988</ele>
        <time>2011-10-09T09:07:57Z</time>
      </trkpt>
      <trkpt lat="44.41241" lon="6.24822">
        <ele>1166.697266</ele>
        <time>2011-10-09T09:08:14Z</time>
      </trkpt>
      <trkpt lat="44.41268" lon="6.24816">
        <ele>1169.100586</ele>
        <time>2011-10-09T09:08:35Z</time>
      </trkpt>
      <trkpt lat="44.41296" lon="6.24802">
        <ele>1171.503662</ele>
        <time>2011-10-09T09:08:57Z</time>
      </trkpt>
      <trkpt lat="44.4131" lon="6.24771">
        <ele>1172.465088</ele>
        <time>2011-10-09T09:09:17Z</time>
      </trkpt>
      <trkpt lat="44.41314" lon="6.24758">
        <ele>1172.945801</ele>
        <time>2011-10-09T09:09:25Z</time>
      </trkpt>
      <trkpt lat="44.41323" lon="6.24753">
        <ele>1173.906982</ele>
        <time>2011-10-09T09:09:32Z</time>
      </trkpt>
      <trkpt lat="44.41343" lon="6.2477">
        <ele>1176.791016</ele>
        <time>2011-10-09T09:09:50Z</time>
      </trkpt>
      <trkpt lat="44.4135" lon="6.24771">
        <ele>1177.271729</ele>
        <time>2011-10-09T09:09:56Z</time>
      </trkpt>
      <trkpt lat="44.41375" lon="6.24749">
        <ele>1180.155762</ele>
        <time>2011-10-09T09:10:20Z</time>
      </trkpt>
      <trkpt lat="44.41387" lon="6.24726">
        <ele>1181.597656</ele>
        <time>2011-10-09T09:10:36Z</time>
      </trkpt>
      <trkpt lat="44.4139" lon="6.24723">
        <ele>1181.597656</ele>
        <time>2011-10-09T09:10:38Z</time>
      </trkpt>
      <trkpt lat="44.41408" lon="6.24703">
        <ele>1182.559082</ele>
        <time>2011-10-09T09:10:58Z</time>
      </trkpt>
      <trkpt lat="44.41431" lon="6.24687">
        <ele>1185.442871</ele>
        <time>2011-10-09T09:11:20Z</time>
      </trkpt>
      <trkpt lat="44.41451" lon="6.24677">
        <ele>1187.365479</ele>
        <time>2011-10-09T09:11:40Z</time>
      </trkpt>
      <trkpt lat="44.41459" lon="6.2467">
        <ele>1188.807617</ele>
        <time>2011-10-09T09:11:49Z</time>
      </trkpt>
      <trkpt lat="44.41462" lon="6.24667">
        <ele>1189.288086</ele>
        <time>2011-10-09T09:11:53Z</time>
      </trkpt>
      <trkpt lat="44.41481" lon="6.2465">
        <ele>1191.210693</ele>
        <time>2011-10-09T09:12:13Z</time>
      </trkpt>
      <trkpt lat="44.41493" lon="6.24627">
        <ele>1194.575195</ele>
        <time>2011-10-09T09:12:32Z</time>
      </trkpt>
      <trkpt lat="44.41502" lon="6.24604">
        <ele>1195.536621</ele>
        <time>2011-10-09T09:12:49Z</time>
      </trkpt>
      <trkpt lat="44.4151" lon="6.24578">
        <ele>1197.459473</ele>
        <time>2011-10-09T09:13:06Z</time>
      </trkpt>
      <trkpt lat="44.41516" lon="6.24542">
        <ele>1198.901367</ele>
        <time>2011-10-09T09:13:28Z</time>
      </trkpt>
      <trkpt lat="44.41528" lon="6.24512">
        <ele>1200.343506</ele>
        <time>2011-10-09T09:13:49Z</time>
      </trkpt>
      <trkpt lat="44.41529" lon="6.24509">
        <ele>1200.823975</ele>
        <time>2011-10-09T09:13:51Z</time>
      </trkpt>
      <trkpt lat="44.41538" lon="6.24472">
        <ele>1203.227295</ele>
        <time>2011-10-09T09:14:14Z</time>
      </trkpt>
      <trkpt lat="44.41539" lon="6.24463">
        <ele>1204.188721</ele>
        <time>2011-10-09T09:14:27Z</time>
      </trkpt>
      <trkpt lat="44.41539" lon="6.24459">
        <ele>1203.708008</ele>
        <time>2011-10-09T09:14:42Z</time>
      </trkpt>
      <trkpt lat="44.41538" lon="6.24457">
        <ele>1203.708008</ele>
        <time>2011-10-09T09:14:54Z</time>
      </trkpt>
      <trkpt lat="44.41542" lon="6.24425">
        <ele>1206.111084</ele>
        <time>2011-10-09T09:15:12Z</time>
      </trkpt>
      <trkpt lat="44.41544" lon="6.24422">
        <ele>1206.111084</ele>
        <time>2011-10-09T09:15:14Z</time>
      </trkpt>
      <trkpt lat="44.41558" lon="6.24402">
        <ele>1208.033936</ele>
        <time>2011-10-09T09:15:32Z</time>
      </trkpt>
      <trkpt lat="44.41575" lon="6.2441">
        <ele>1209.956299</ele>
        <time>2011-10-09T09:15:46Z</time>
      </trkpt>
      <trkpt lat="44.41572" lon="6.24382">
        <ele>1212.359863</ele>
        <time>2011-10-09T09:16:04Z</time>
      </trkpt>
      <trkpt lat="44.4157" lon="6.24379">
        <ele>1212.359863</ele>
        <time>2011-10-09T09:16:06Z</time>
      </trkpt>
      <trkpt lat="44.41568" lon="6.24373">
        <ele>1212.359863</ele>
        <time>2011-10-09T09:16:10Z</time>
      </trkpt>
      <trkpt lat="44.4156" lon="6.24357">
        <ele>1214.282471</ele>
        <time>2011-10-09T09:16:22Z</time>
      </trkpt>
      <trkpt lat="44.41552" lon="6.24329">
        <ele>1214.763184</ele>
        <time>2011-10-09T09:16:40Z</time>
      </trkpt>
      <trkpt lat="44.41556" lon="6.24291">
        <ele>1213.801758</ele>
        <time>2011-10-09T09:16:56Z</time>
      </trkpt>
      <trkpt lat="44.41568" lon="6.24266">
        <ele>1214.763184</ele>
        <time>2011-10-09T09:17:09Z</time>
      </trkpt>
      <trkpt lat="44.4157" lon="6.24266">
        <ele>1214.763184</ele>
        <time>2011-10-09T09:17:10Z</time>
      </trkpt>
      <trkpt lat="44.41583" lon="6.24265">
        <ele>1213.801758</ele>
        <time>2011-10-09T09:17:21Z</time>
      </trkpt>
      <trkpt lat="44.41594" lon="6.2426">
        <ele>1213.801758</ele>
        <time>2011-10-09T09:17:41Z</time>
      </trkpt>
      <trkpt lat="44.41622" lon="6.24248">
        <ele>1211.87915</ele>
        <time>2011-10-09T09:17:52Z</time>
      </trkpt>
      <trkpt lat="44.4163" lon="6.24245">
        <ele>1211.398438</ele>
        <time>2011-10-09T09:17:56Z</time>
      </trkpt>
      <trkpt lat="44.41663" lon="6.24269">
        <ele>1212.359863</ele>
        <time>2011-10-09T09:18:12Z</time>
      </trkpt>
      <trkpt lat="44.41675" lon="6.24257">
        <ele>1212.840576</ele>
        <time>2011-10-09T09:18:23Z</time>
      </trkpt>
      <trkpt lat="44.41676" lon="6.24253">
        <ele>1212.359863</ele>
        <time>2011-10-09T09:19:04Z</time>
      </trkpt>
      <trkpt lat="44.41682" lon="6.24215">
        <ele>1210.917725</ele>
        <time>2011-10-09T09:19:16Z</time>
      </trkpt>
      <trkpt lat="44.41686" lon="6.24176">
        <ele>1209.956299</ele>
        <time>2011-10-09T09:19:27Z</time>
      </trkpt>
      <trkpt lat="44.41695" lon="6.24163">
        <ele>1209.47583</ele>
        <time>2011-10-09T09:19:33Z</time>
      </trkpt>
      <trkpt lat="44.41708" lon="6.24167">
        <ele>1206.591797</ele>
        <time>2011-10-09T09:19:40Z</time>
      </trkpt>
      <trkpt lat="44.41709" lon="6.24169">
        <ele>1206.591797</ele>
        <time>2011-10-09T09:19:41Z</time>
      </trkpt>
      <trkpt lat="44.41716" lon="6.2419">
        <ele>1203.227295</ele>
        <time>2011-10-09T09:19:49Z</time>
      </trkpt>
      <trkpt lat="44.41728" lon="6.24221">
        <ele>1199.862793</ele>
        <time>2011-10-09T09:19:59Z</time>
      </trkpt>
      <trkpt lat="44.41738" lon="6.24247">
        <ele>1196.97876</ele>
        <time>2011-10-09T09:20:07Z</time>
      </trkpt>
      <trkpt lat="44.41762" lon="6.24266">
        <ele>1194.094727</ele>
        <time>2011-10-09T09:20:16Z</time>
      </trkpt>
      <trkpt lat="44.41772" lon="6.24258">
        <ele>1194.575195</ele>
        <time>2011-10-09T09:20:20Z</time>
      </trkpt>
      <trkpt lat="44.41792" lon="6.24226">
        <ele>1193.133301</ele>
        <time>2011-10-09T09:20:30Z</time>
      </trkpt>
      <trkpt lat="44.41804" lon="6.24231">
        <ele>1191.691406</ele>
        <time>2011-10-09T09:20:34Z</time>
      </trkpt>
      <trkpt lat="44.41823" lon="6.24246">
        <ele>1191.210693</ele>
        <time>2011-10-09T09:20:42Z</time>
      </trkpt>
      <trkpt lat="44.41844" lon="6.24266">
        <ele>1192.652832</ele>
        <time>2011-10-09T09:20:53Z</time>
      </trkpt>
      <trkpt lat="44.41864" lon="6.24294">
        <ele>1193.614014</ele>
        <time>2011-10-09T09:21:07Z</time>
      </trkpt>
      <trkpt lat="44.41894" lon="6.24332">
        <ele>1195.055908</ele>
        <time>2011-10-09T09:21:25Z</time>
      </trkpt>
      <trkpt lat="44.41932" lon="6.24349">
        <ele>1196.017578</ele>
        <time>2011-10-09T09:21:43Z</time>
      </trkpt>
      <trkpt lat="44.41972" lon="6.24351">
        <ele>1196.017578</ele>
        <time>2011-10-09T09:21:59Z</time>
      </trkpt>
      <trkpt lat="44.41996" lon="6.24302">
        <ele>1192.172119</ele>
        <time>2011-10-09T09:22:13Z</time>
      </trkpt>
      <trkpt lat="44.42004" lon="6.24233">
        <ele>1189.768799</ele>
        <time>2011-10-09T09:22:27Z</time>
      </trkpt>
      <trkpt lat="44.42011" lon="6.2418">
        <ele>1188.326904</ele>
        <time>2011-10-09T09:22:39Z</time>
      </trkpt>
      <trkpt lat="44.42023" lon="6.24139">
        <ele>1187.365479</ele>
        <time>2011-10-09T09:22:51Z</time>
      </trkpt>
      <trkpt lat="44.42023" lon="6.24121">
        <ele>1187.365479</ele>
        <time>2011-10-09T09:22:55Z</time>
      </trkpt>
      <trkpt lat="44.42034" lon="6.24095">
        <ele>1185.923584</ele>
        <time>2011-10-09T09:23:01Z</time>
      </trkpt>
      <trkpt lat="44.42052" lon="6.24085">
        <ele>1185.442871</ele>
        <time>2011-10-09T09:23:11Z</time>
      </trkpt>
      <trkpt lat="44.42052" lon="6.24085">
        <ele>1185.442871</ele>
        <time>2011-10-09T09:23:23Z</time>
      </trkpt>
      <trkpt lat="44.42052" lon="6.24085">
        <ele>1185.442871</ele>
        <time>2011-10-09T09:23:25Z</time>
      </trkpt>
      <trkpt lat="44.42057" lon="6.24081">
        <ele>1185.442871</ele>
        <time>2011-10-09T09:23:28Z</time>
      </trkpt>
      <trkpt lat="44.42073" lon="6.24132">
        <ele>1185.923584</ele>
        <time>2011-10-09T09:23:43Z</time>
      </trkpt>
      <trkpt lat="44.42082" lon="6.24146">
        <ele>1185.442871</ele>
        <time>2011-10-09T09:23:48Z</time>
      </trkpt>
      <trkpt lat="44.42109" lon="6.24142">
        <ele>1184.481689</ele>
        <time>2011-10-09T09:23:57Z</time>
      </trkpt>
      <trkpt lat="44.42129" lon="6.24125">
        <ele>1184.481689</ele>
        <time>2011-10-09T09:24:06Z</time>
      </trkpt>
      <trkpt lat="44.42146" lon="6.24146">
        <ele>1184.962402</ele>
        <time>2011-10-09T09:24:17Z</time>
      </trkpt>
      <trkpt lat="44.42146" lon="6.2415">
        <ele>1185.442871</ele>
        <time>2011-10-09T09:24:18Z</time>
      </trkpt>
      <trkpt lat="44.42151" lon="6.24201">
        <ele>1184.000977</ele>
        <time>2011-10-09T09:24:31Z</time>
      </trkpt>
      <trkpt lat="44.42194" lon="6.2422">
        <ele>1184.481689</ele>
        <time>2011-10-09T09:24:46Z</time>
      </trkpt>
      <trkpt lat="44.42239" lon="6.24203">
        <ele>1183.039551</ele>
        <time>2011-10-09T09:25:01Z</time>
      </trkpt>
      <trkpt lat="44.42254" lon="6.24186">
        <ele>1181.117188</ele>
        <time>2011-10-09T09:25:07Z</time>
      </trkpt>
      <trkpt lat="44.42271" lon="6.24141">
        <ele>1177.271729</ele>
        <time>2011-10-09T09:25:18Z</time>
      </trkpt>
      <trkpt lat="44.42296" lon="6.24107">
        <ele>1174.868408</ele>
        <time>2011-10-09T09:25:28Z</time>
      </trkpt>
      <trkpt lat="44.4231" lon="6.24114">
        <ele>1173.426514</ele>
        <time>2011-10-09T09:25:34Z</time>
      </trkpt>
      <trkpt lat="44.42327" lon="6.24165">
        <ele>1174.387695</ele>
        <time>2011-10-09T09:25:49Z</time>
      </trkpt>
      <trkpt lat="44.42341" lon="6.24209">
        <ele>1174.868408</ele>
        <time>2011-10-09T09:26:05Z</time>
      </trkpt>
      <trkpt lat="44.42343" lon="6.24228">
        <ele>1175.348877</ele>
        <time>2011-10-09T09:26:12Z</time>
      </trkpt>
      <trkpt lat="44.4235" lon="6.24273">
        <ele>1177.752197</ele>
        <time>2011-10-09T09:26:36Z</time>
      </trkpt>
      <trkpt lat="44.42358" lon="6.24304">
        <ele>1179.674805</ele>
        <time>2011-10-09T09:26:59Z</time>
      </trkpt>
      <trkpt lat="44.42357" lon="6.24304">
        <ele>1182.078369</ele>
        <time>2011-10-09T09:29:10Z</time>
      </trkpt>
      <trkpt lat="44.42357" lon="6.24304">
        <ele>1180.636475</ele>
        <time>2011-10-09T09:29:12Z</time>
      </trkpt>
      <trkpt lat="44.42357" lon="6.24304">
        <ele>1180.636475</ele>
        <time>2011-10-09T09:29:44Z</time>
      </trkpt>
      <trkpt lat="44.42364" lon="6.24309">
        <ele>1181.597656</ele>
        <time>2011-10-09T09:29:49Z</time>
      </trkpt>
      <trkpt lat="44.42373" lon="6.24316">
        <ele>1182.078369</ele>
        <time>2011-10-09T09:29:56Z</time>
      </trkpt>
      <trkpt lat="44.42395" lon="6.24352">
        <ele>1184.962402</ele>
        <time>2011-10-09T09:30:23Z</time>
      </trkpt>
      <trkpt lat="44.424" lon="6.24355">
        <ele>1185.442871</ele>
        <time>2011-10-09T09:30:28Z</time>
      </trkpt>
      <trkpt lat="44.42417" lon="6.24367">
        <ele>1187.846191</ele>
        <time>2011-10-09T09:30:45Z</time>
      </trkpt>
      <trkpt lat="44.42437" lon="6.24399">
        <ele>1191.210693</ele>
        <time>2011-10-09T09:31:11Z</time>
      </trkpt>
      <trkpt lat="44.42455" lon="6.2442">
        <ele>1194.094727</ele>
        <time>2011-10-09T09:31:33Z</time>
      </trkpt>
      <trkpt lat="44.42459" lon="6.24424">
        <ele>1194.575195</ele>
        <time>2011-10-09T09:31:38Z</time>
      </trkpt>
      <trkpt lat="44.42465" lon="6.2442">
        <ele>1195.536621</ele>
        <time>2011-10-09T09:31:43Z</time>
      </trkpt>
      <trkpt lat="44.42467" lon="6.24413">
        <ele>1196.498291</ele>
        <time>2011-10-09T09:31:48Z</time>
      </trkpt>
      <trkpt lat="44.42469" lon="6.244">
        <ele>1197.459473</ele>
        <time>2011-10-09T09:32:12Z</time>
      </trkpt>
      <trkpt lat="44.42465" lon="6.24398">
        <ele>1197.940186</ele>
        <time>2011-10-09T09:33:00Z</time>
      </trkpt>
      <trkpt lat="44.4246" lon="6.24378">
        <ele>1198.420654</ele>
        <time>2011-10-09T09:33:13Z</time>
      </trkpt>
      <trkpt lat="44.42452" lon="6.24329">
        <ele>1200.823975</ele>
        <time>2011-10-09T09:33:38Z</time>
      </trkpt>
      <trkpt lat="44.42441" lon="6.24282">
        <ele>1202.746582</ele>
        <time>2011-10-09T09:34:01Z</time>
      </trkpt>
      <trkpt lat="44.42439" lon="6.24277">
        <ele>1202.265869</ele>
        <time>2011-10-09T09:34:04Z</time>
      </trkpt>
      <trkpt lat="44.42435" lon="6.24252">
        <ele>1203.227295</ele>
        <time>2011-10-09T09:34:16Z</time>
      </trkpt>
      <trkpt lat="44.42434" lon="6.24231">
        <ele>1203.708008</ele>
        <time>2011-10-09T09:34:27Z</time>
      </trkpt>
      <trkpt lat="44.42434" lon="6.24225">
        <ele>1204.669189</ele>
        <time>2011-10-09T09:34:30Z</time>
      </trkpt>
      <trkpt lat="44.42426" lon="6.24197">
        <ele>1207.553223</ele>
        <time>2011-10-09T09:34:45Z</time>
      </trkpt>
      <trkpt lat="44.42425" lon="6.24196">
        <ele>1207.553223</ele>
        <time>2011-10-09T09:34:46Z</time>
      </trkpt>
      <trkpt lat="44.42422" lon="6.24189">
        <ele>1208.033936</ele>
        <time>2011-10-09T09:34:51Z</time>
      </trkpt>
      <trkpt lat="44.4242" lon="6.24187">
        <ele>1208.514404</ele>
        <time>2011-10-09T09:34:53Z</time>
      </trkpt>
      <trkpt lat="44.42404" lon="6.24165">
        <ele>1211.398438</ele>
        <time>2011-10-09T09:35:13Z</time>
      </trkpt>
      <trkpt lat="44.42402" lon="6.24163">
        <ele>1211.87915</ele>
        <time>2011-10-09T09:35:15Z</time>
      </trkpt>
      <trkpt lat="44.42401" lon="6.24161">
        <ele>1211.87915</ele>
        <time>2011-10-09T09:35:17Z</time>
      </trkpt>
      <trkpt lat="44.424" lon="6.24158">
        <ele>1211.87915</ele>
        <time>2011-10-09T09:35:19Z</time>
      </trkpt>
      <trkpt lat="44.42398" lon="6.24155">
        <ele>1212.359863</ele>
        <time>2011-10-09T09:35:22Z</time>
      </trkpt>
      <trkpt lat="44.42387" lon="6.24143">
        <ele>1214.282471</ele>
        <time>2011-10-09T09:35:33Z</time>
      </trkpt>
      <trkpt lat="44.42382" lon="6.24141">
        <ele>1214.282471</ele>
        <time>2011-10-09T09:35:37Z</time>
      </trkpt>
      <trkpt lat="44.42377" lon="6.24136">
        <ele>1215.243896</ele>
        <time>2011-10-09T09:35:43Z</time>
      </trkpt>
      <trkpt lat="44.42375" lon="6.24126">
        <ele>1216.685791</ele>
        <time>2011-10-09T09:35:51Z</time>
      </trkpt>
      <trkpt lat="44.42383" lon="6.24116">
        <ele>1217.646973</ele>
        <time>2011-10-09T09:36:00Z</time>
      </trkpt>
      <trkpt lat="44.4239" lon="6.24115">
        <ele>1218.127686</ele>
        <time>2011-10-09T09:36:06Z</time>
      </trkpt>
      <trkpt lat="44.42398" lon="6.24123">
        <ele>1218.127686</ele>
        <time>2011-10-09T09:36:16Z</time>
      </trkpt>
      <trkpt lat="44.42423" lon="6.24137">
        <ele>1221.011719</ele>
        <time>2011-10-09T09:36:37Z</time>
      </trkpt>
      <trkpt lat="44.42425" lon="6.24137">
        <ele>1221.011719</ele>
        <time>2011-10-09T09:36:39Z</time>
      </trkpt>
      <trkpt lat="44.42433" lon="6.24134">
        <ele>1221.9729</ele>
        <time>2011-10-09T09:36:47Z</time>
      </trkpt>
      <trkpt lat="44.4244" lon="6.24107">
        <ele>1225.337402</ele>
        <time>2011-10-09T09:37:08Z</time>
      </trkpt>
      <trkpt lat="44.42444" lon="6.24081">
        <ele>1227.260254</ele>
        <time>2011-10-09T09:37:25Z</time>
      </trkpt>
      <trkpt lat="44.42446" lon="6.24074">
        <ele>1227.260254</ele>
        <time>2011-10-09T09:37:30Z</time>
      </trkpt>
      <trkpt lat="44.42445" lon="6.24061">
        <ele>1228.702393</ele>
        <time>2011-10-09T09:37:44Z</time>
      </trkpt>
      <trkpt lat="44.42443" lon="6.24058">
        <ele>1229.182861</ele>
        <time>2011-10-09T09:38:05Z</time>
      </trkpt>
      <trkpt lat="44.42443" lon="6.24058">
        <ele>1229.182861</ele>
        <time>2011-10-09T09:38:44Z</time>
      </trkpt>
      <trkpt lat="44.42435" lon="6.24068">
        <ele>1230.144287</ele>
        <time>2011-10-09T09:38:52Z</time>
      </trkpt>
      <trkpt lat="44.42412" lon="6.24066">
        <ele>1233.508789</ele>
        <time>2011-10-09T09:39:12Z</time>
      </trkpt>
      <trkpt lat="44.42397" lon="6.24051">
        <ele>1234.950928</ele>
        <time>2011-10-09T09:39:27Z</time>
      </trkpt>
      <trkpt lat="44.42395" lon="6.2405">
        <ele>1234.950928</ele>
        <time>2011-10-09T09:39:29Z</time>
      </trkpt>
      <trkpt lat="44.42389" lon="6.24043">
        <ele>1236.392822</ele>
        <time>2011-10-09T09:39:35Z</time>
      </trkpt>
      <trkpt lat="44.42386" lon="6.24035">
        <ele>1236.873291</ele>
        <time>2011-10-09T09:39:40Z</time>
      </trkpt>
      <trkpt lat="44.42385" lon="6.24029">
        <ele>1237.834717</ele>
        <time>2011-10-09T09:39:45Z</time>
      </trkpt>
      <trkpt lat="44.42389" lon="6.24026">
        <ele>1237.834717</ele>
        <time>2011-10-09T09:39:49Z</time>
      </trkpt>
      <trkpt lat="44.42412" lon="6.24026">
        <ele>1240.718506</ele>
        <time>2011-10-09T09:40:10Z</time>
      </trkpt>
      <trkpt lat="44.42416" lon="6.24021">
        <ele>1241.199219</ele>
        <time>2011-10-09T09:40:15Z</time>
      </trkpt>
      <trkpt lat="44.42419" lon="6.24015">
        <ele>1241.679932</ele>
        <time>2011-10-09T09:40:21Z</time>
      </trkpt>
      <trkpt lat="44.42424" lon="6.24003">
        <ele>1242.641357</ele>
        <time>2011-10-09T09:40:29Z</time>
      </trkpt>
      <trkpt lat="44.42438" lon="6.23974">
        <ele>1244.083496</ele>
        <time>2011-10-09T09:40:49Z</time>
      </trkpt>
      <trkpt lat="44.42463" lon="6.2393">
        <ele>1245.044678</ele>
        <time>2011-10-09T09:41:18Z</time>
      </trkpt>
      <trkpt lat="44.42498" lon="6.2391">
        <ele>1245.525391</ele>
        <time>2011-10-09T09:41:37Z</time>
      </trkpt>
      <trkpt lat="44.42521" lon="6.23885">
        <ele>1246.486816</ele>
        <time>2011-10-09T09:41:55Z</time>
      </trkpt>
      <trkpt lat="44.42511" lon="6.23835">
        <ele>1245.525391</ele>
        <time>2011-10-09T09:42:11Z</time>
      </trkpt>
      <trkpt lat="44.4252" lon="6.23799">
        <ele>1246.967285</ele>
        <time>2011-10-09T09:42:25Z</time>
      </trkpt>
      <trkpt lat="44.42522" lon="6.23793">
        <ele>1247.447998</ele>
        <time>2011-10-09T09:42:28Z</time>
      </trkpt>
      <trkpt lat="44.4254" lon="6.23765">
        <ele>1249.370605</ele>
        <time>2011-10-09T09:42:46Z</time>
      </trkpt>
      <trkpt lat="44.42564" lon="6.23739">
        <ele>1250.8125</ele>
        <time>2011-10-09T09:43:06Z</time>
      </trkpt>
      <trkpt lat="44.42569" lon="6.23733">
        <ele>1251.773926</ele>
        <time>2011-10-09T09:43:12Z</time>
      </trkpt>
      <trkpt lat="44.42587" lon="6.23714">
        <ele>1254.657715</ele>
        <time>2011-10-09T09:43:32Z</time>
      </trkpt>
      <trkpt lat="44.42593" lon="6.23681">
        <ele>1257.061035</ele>
        <time>2011-10-09T09:43:51Z</time>
      </trkpt>
      <trkpt lat="44.426" lon="6.23643">
        <ele>1258.022461</ele>
        <time>2011-10-09T09:44:10Z</time>
      </trkpt>
      <trkpt lat="44.42611" lon="6.23598">
        <ele>1259.464355</ele>
        <time>2011-10-09T09:44:32Z</time>
      </trkpt>
      <trkpt lat="44.42622" lon="6.23572">
        <ele>1261.387207</ele>
        <time>2011-10-09T09:44:47Z</time>
      </trkpt>
      <trkpt lat="44.42642" lon="6.2355">
        <ele>1264.270996</ele>
        <time>2011-10-09T09:45:05Z</time>
      </trkpt>
      <trkpt lat="44.42654" lon="6.23534">
        <ele>1265.232422</ele>
        <time>2011-10-09T09:45:20Z</time>
      </trkpt>
      <trkpt lat="44.42657" lon="6.23519">
        <ele>1267.155029</ele>
        <time>2011-10-09T09:45:30Z</time>
      </trkpt>
      <trkpt lat="44.42659" lon="6.23511">
        <ele>1267.155029</ele>
        <time>2011-10-09T09:45:35Z</time>
      </trkpt>
      <trkpt lat="44.4266" lon="6.23504">
        <ele>1267.635498</ele>
        <time>2011-10-09T09:45:54Z</time>
      </trkpt>
      <trkpt lat="44.42664" lon="6.23498">
        <ele>1267.635498</ele>
        <time>2011-10-09T09:46:19Z</time>
      </trkpt>
      <trkpt lat="44.42668" lon="6.23494">
        <ele>1267.635498</ele>
        <time>2011-10-09T09:46:38Z</time>
      </trkpt>
      <trkpt lat="44.42668" lon="6.23496">
        <ele>1268.116211</ele>
        <time>2011-10-09T09:47:33Z</time>
      </trkpt>
      <trkpt lat="44.42669" lon="6.23497">
        <ele>1267.635498</ele>
        <time>2011-10-09T09:48:18Z</time>
      </trkpt>
      <trkpt lat="44.42669" lon="6.23497">
        <ele>1268.596924</ele>
        <time>2011-10-09T09:48:24Z</time>
      </trkpt>
      <trkpt lat="44.42676" lon="6.23504">
        <ele>1267.635498</ele>
        <time>2011-10-09T09:48:30Z</time>
      </trkpt>
      <trkpt lat="44.42729" lon="6.23525">
        <ele>1267.155029</ele>
        <time>2011-10-09T09:48:48Z</time>
      </trkpt>
      <trkpt lat="44.42757" lon="6.2353">
        <ele>1268.596924</ele>
        <time>2011-10-09T09:49:04Z</time>
      </trkpt>
      <trkpt lat="44.42778" lon="6.23531">
        <ele>1270.038818</ele>
        <time>2011-10-09T09:49:20Z</time>
      </trkpt>
      <trkpt lat="44.42808" lon="6.23535">
        <ele>1271.000244</ele>
        <time>2011-10-09T09:49:39Z</time>
      </trkpt>
      <trkpt lat="44.42836" lon="6.23535">
        <ele>1273.403564</ele>
        <time>2011-10-09T09:50:03Z</time>
      </trkpt>
      <trkpt lat="44.42858" lon="6.23539">
        <ele>1276.768311</ele>
        <time>2011-10-09T09:50:23Z</time>
      </trkpt>
      <trkpt lat="44.42873" lon="6.23542">
        <ele>1279.6521</ele>
        <time>2011-10-09T09:50:39Z</time>
      </trkpt>
      <trkpt lat="44.42901" lon="6.23546">
        <ele>1279.6521</ele>
        <time>2011-10-09T09:50:58Z</time>
      </trkpt>
      <trkpt lat="44.42943" lon="6.23556">
        <ele>1276.768311</ele>
        <time>2011-10-09T09:51:13Z</time>
      </trkpt>
      <trkpt lat="44.42973" lon="6.23567">
        <ele>1273.884033</ele>
        <time>2011-10-09T09:51:28Z</time>
      </trkpt>
      <trkpt lat="44.42991" lon="6.23569">
        <ele>1271.000244</ele>
        <time>2011-10-09T09:51:36Z</time>
      </trkpt>
      <trkpt lat="44.43007" lon="6.23575">
        <ele>1270.038818</ele>
        <time>2011-10-09T09:51:40Z</time>
      </trkpt>
      <trkpt lat="44.43031" lon="6.23573">
        <ele>1270.038818</ele>
        <time>2011-10-09T09:51:51Z</time>
      </trkpt>
      <trkpt lat="44.43051" lon="6.23564">
        <ele>1272.922852</ele>
        <time>2011-10-09T09:52:13Z</time>
      </trkpt>
      <trkpt lat="44.43051" lon="6.23564">
        <ele>1276.287598</ele>
        <time>2011-10-09T09:52:34Z</time>
      </trkpt>
      <trkpt lat="44.4311" lon="6.2354">
        <ele>1278.690918</ele>
        <time>2011-10-09T09:53:02Z</time>
      </trkpt>
      <trkpt lat="44.4311" lon="6.2354">
        <ele>1282.05542</ele>
        <time>2011-10-09T09:53:28Z</time>
      </trkpt>
      <trkpt lat="44.4311" lon="6.2354">
        <ele>1283.016602</ele>
        <time>2011-10-09T09:53:38Z</time>
      </trkpt>
      <trkpt lat="44.4311" lon="6.2354">
        <ele>1285.419922</ele>
        <time>2011-10-09T09:54:32Z</time>
      </trkpt>
      <trkpt lat="44.4311" lon="6.2354">
        <ele>1288.303955</ele>
        <time>2011-10-09T09:54:55Z</time>
      </trkpt>
      <trkpt lat="44.4311" lon="6.2354">
        <ele>1291.187744</ele>
        <time>2011-10-09T09:55:14Z</time>
      </trkpt>
      <trkpt lat="44.4311" lon="6.2354">
        <ele>1294.55249</ele>
        <time>2011-10-09T09:55:31Z</time>
      </trkpt>
      <trkpt lat="44.43197" lon="6.23507">
        <ele>1297.436523</ele>
        <time>2011-10-09T09:56:01Z</time>
      </trkpt>
      <trkpt lat="44.43197" lon="6.23507">
        <ele>1300.320557</ele>
        <time>2011-10-09T09:56:27Z</time>
      </trkpt>
      <trkpt lat="44.43197" lon="6.23507">
        <ele>1303.685059</ele>
        <time>2011-10-09T09:56:49Z</time>
      </trkpt>
      <trkpt lat="44.43197" lon="6.23507">
        <ele>1306.568848</ele>
        <time>2011-10-09T09:57:16Z</time>
      </trkpt>
      <trkpt lat="44.43281" lon="6.23473">
        <ele>1309.453125</ele>
        <time>2011-10-09T09:57:46Z</time>
      </trkpt>
      <trkpt lat="44.43281" lon="6.23473">
        <ele>1310.414307</ele>
        <time>2011-10-09T09:57:53Z</time>
      </trkpt>
      <trkpt lat="44.43281" lon="6.23473">
        <ele>1313.29834</ele>
        <time>2011-10-09T09:58:17Z</time>
      </trkpt>
      <trkpt lat="44.43281" lon="6.23473">
        <ele>1316.182129</ele>
        <time>2011-10-09T09:58:44Z</time>
      </trkpt>
      <trkpt lat="44.43281" lon="6.23473">
        <ele>1317.143555</ele>
        <time>2011-10-09T09:58:56Z</time>
      </trkpt>
      <trkpt lat="44.43344" lon="6.23512">
        <ele>1319.066162</ele>
        <time>2011-10-09T09:59:18Z</time>
      </trkpt>
      <trkpt lat="44.43362" lon="6.23534">
        <ele>1321.949951</ele>
        <time>2011-10-09T09:59:39Z</time>
      </trkpt>
      <trkpt lat="44.43391" lon="6.23547">
        <ele>1322.911377</ele>
        <time>2011-10-09T09:59:54Z</time>
      </trkpt>
      <trkpt lat="44.43428" lon="6.23548">
        <ele>1323.39209</ele>
        <time>2011-10-09T10:00:10Z</time>
      </trkpt>
      <trkpt lat="44.43447" lon="6.23548">
        <ele>1323.872559</ele>
        <time>2011-10-09T10:00:24Z</time>
      </trkpt>
      <trkpt lat="44.43456" lon="6.23544">
        <ele>1325.314697</ele>
        <time>2011-10-09T10:00:39Z</time>
      </trkpt>
      <trkpt lat="44.43456" lon="6.23544">
        <ele>1326.756836</ele>
        <time>2011-10-09T10:00:57Z</time>
      </trkpt>
      <trkpt lat="44.43456" lon="6.23544">
        <ele>1329.159912</ele>
        <time>2011-10-09T10:01:20Z</time>
      </trkpt>
      <trkpt lat="44.43456" lon="6.23544">
        <ele>1332.043945</ele>
        <time>2011-10-09T10:01:43Z</time>
      </trkpt>
      <trkpt lat="44.43456" lon="6.23544">
        <ele>1334.927979</ele>
        <time>2011-10-09T10:02:07Z</time>
      </trkpt>
      <trkpt lat="44.43456" lon="6.23544">
        <ele>1337.331055</ele>
        <time>2011-10-09T10:02:32Z</time>
      </trkpt>
      <trkpt lat="44.43537" lon="6.23489">
        <ele>1341.176514</ele>
        <time>2011-10-09T10:02:55Z</time>
      </trkpt>
      <trkpt lat="44.43537" lon="6.23489">
        <ele>1343.579834</ele>
        <time>2011-10-09T10:03:16Z</time>
      </trkpt>
      <trkpt lat="44.43537" lon="6.23489">
        <ele>1345.983154</ele>
        <time>2011-10-09T10:03:39Z</time>
      </trkpt>
      <trkpt lat="44.43537" lon="6.23489">
        <ele>1347.905762</ele>
        <time>2011-10-09T10:04:03Z</time>
      </trkpt>
      <trkpt lat="44.43537" lon="6.23489">
        <ele>1347.905762</ele>
        <time>2011-10-09T10:04:12Z</time>
      </trkpt>
      <trkpt lat="44.43613" lon="6.23444">
        <ele>1347.905762</ele>
        <time>2011-10-09T10:04:14Z</time>
      </trkpt>
      <trkpt lat="44.43645" lon="6.23425">
        <ele>1348.866943</ele>
        <time>2011-10-09T10:04:34Z</time>
      </trkpt>
      <trkpt lat="44.43693" lon="6.23395">
        <ele>1346.944336</ele>
        <time>2011-10-09T10:04:49Z</time>
      </trkpt>
      <trkpt lat="44.4375" lon="6.23347">
        <ele>1345.983154</ele>
        <time>2011-10-09T10:05:11Z</time>
      </trkpt>
      <trkpt lat="44.43774" lon="6.23337">
        <ele>1347.425049</ele>
        <time>2011-10-09T10:05:27Z</time>
      </trkpt>
      <trkpt lat="44.4378" lon="6.23335">
        <ele>1348.38623</ele>
        <time>2011-10-09T10:05:42Z</time>
      </trkpt>
      <trkpt lat="44.4378" lon="6.23335">
        <ele>1350.789551</ele>
        <time>2011-10-09T10:06:05Z</time>
      </trkpt>
      <trkpt lat="44.4378" lon="6.23335">
        <ele>1354.154297</ele>
        <time>2011-10-09T10:06:19Z</time>
      </trkpt>
      <trkpt lat="44.4378" lon="6.23335">
        <ele>1357.03833</ele>
        <time>2011-10-09T10:06:38Z</time>
      </trkpt>
      <trkpt lat="44.4378" lon="6.23335">
        <ele>1359.44165</ele>
        <time>2011-10-09T10:06:56Z</time>
      </trkpt>
      <trkpt lat="44.4378" lon="6.23335">
        <ele>1361.364258</ele>
        <time>2011-10-09T10:07:20Z</time>
      </trkpt>
      <trkpt lat="44.43866" lon="6.23295">
        <ele>1362.325439</ele>
        <time>2011-10-09T10:07:44Z</time>
      </trkpt>
      <trkpt lat="44.43892" lon="6.2329">
        <ele>1363.286865</ele>
        <time>2011-10-09T10:08:00Z</time>
      </trkpt>
      <trkpt lat="44.43921" lon="6.23274">
        <ele>1358.960938</ele>
        <time>2011-10-09T10:08:13Z</time>
      </trkpt>
      <trkpt lat="44.43952" lon="6.23262">
        <ele>1355.596191</ele>
        <time>2011-10-09T10:08:28Z</time>
      </trkpt>
      <trkpt lat="44.43963" lon="6.23249">
        <ele>1353.192871</ele>
        <time>2011-10-09T10:08:33Z</time>
      </trkpt>
      <trkpt lat="44.43993" lon="6.23198">
        <ele>1349.828369</ele>
        <time>2011-10-09T10:08:46Z</time>
      </trkpt>
      <trkpt lat="44.43998" lon="6.2319">
        <ele>1347.905762</ele>
        <time>2011-10-09T10:08:49Z</time>
      </trkpt>
      <trkpt lat="44.44002" lon="6.23187">
        <ele>1346.944336</ele>
        <time>2011-10-09T10:08:51Z</time>
      </trkpt>
      <trkpt lat="44.44007" lon="6.23181">
        <ele>1345.502441</ele>
        <time>2011-10-09T10:08:54Z</time>
      </trkpt>
      <trkpt lat="44.44011" lon="6.23176">
        <ele>1344.060547</ele>
        <time>2011-10-09T10:08:56Z</time>
      </trkpt>
      <trkpt lat="44.44028" lon="6.23152">
        <ele>1340.695801</ele>
        <time>2011-10-09T10:09:06Z</time>
      </trkpt>
      <trkpt lat="44.44039" lon="6.23141">
        <ele>1338.773193</ele>
        <time>2011-10-09T10:09:12Z</time>
      </trkpt>
      <trkpt lat="44.44045" lon="6.23133">
        <ele>1336.850342</ele>
        <time>2011-10-09T10:09:15Z</time>
      </trkpt>
      <trkpt lat="44.44056" lon="6.2312">
        <ele>1335.88916</ele>
        <time>2011-10-09T10:09:19Z</time>
      </trkpt>
      <trkpt lat="44.44074" lon="6.23078">
        <ele>1334.927979</ele>
        <time>2011-10-09T10:09:31Z</time>
      </trkpt>
      <trkpt lat="44.44098" lon="6.23053">
        <ele>1333.48584</ele>
        <time>2011-10-09T10:09:44Z</time>
      </trkpt>
      <trkpt lat="44.44145" lon="6.22983">
        <ele>1333.005127</ele>
        <time>2011-10-09T10:10:00Z</time>
      </trkpt>
      <trkpt lat="44.44166" lon="6.22965">
        <ele>1333.005127</ele>
        <time>2011-10-09T10:10:13Z</time>
      </trkpt>
      <trkpt lat="44.44195" lon="6.22937">
        <ele>1335.408447</ele>
        <time>2011-10-09T10:10:36Z</time>
      </trkpt>
      <trkpt lat="44.44212" lon="6.22925">
        <ele>1336.850342</ele>
        <time>2011-10-09T10:10:49Z</time>
      </trkpt>
      <trkpt lat="44.44241" lon="6.22893">
        <ele>1339.734375</ele>
        <time>2011-10-09T10:11:15Z</time>
      </trkpt>
      <trkpt lat="44.44267" lon="6.22857">
        <ele>1340.695801</ele>
        <time>2011-10-09T10:11:36Z</time>
      </trkpt>
      <trkpt lat="44.44278" lon="6.22829">
        <ele>1338.29248</ele>
        <time>2011-10-09T10:11:51Z</time>
      </trkpt>
      <trkpt lat="44.44278" lon="6.22829">
        <ele>1338.773193</ele>
        <time>2011-10-09T10:12:13Z</time>
      </trkpt>
      <trkpt lat="44.44278" lon="6.22829">
        <ele>1338.29248</ele>
        <time>2011-10-09T10:12:15Z</time>
      </trkpt>
      <trkpt lat="44.44278" lon="6.22829">
        <ele>1335.408447</ele>
        <time>2011-10-09T10:12:36Z</time>
      </trkpt>
      <trkpt lat="44.44311" lon="6.22781">
        <ele>1334.447266</ele>
        <time>2011-10-09T10:12:55Z</time>
      </trkpt>
      <trkpt lat="44.44311" lon="6.22781">
        <ele>1337.811768</ele>
        <time>2011-10-09T10:13:07Z</time>
      </trkpt>
      <trkpt lat="44.44311" lon="6.22781">
        <ele>1340.215332</ele>
        <time>2011-10-09T10:13:23Z</time>
      </trkpt>
      <trkpt lat="44.44311" lon="6.22781">
        <ele>1340.695801</ele>
        <time>2011-10-09T10:13:25Z</time>
      </trkpt>
      <trkpt lat="44.44311" lon="6.22781">
        <ele>1340.695801</ele>
        <time>2011-10-09T10:13:27Z</time>
      </trkpt>
      <trkpt lat="44.44346" lon="6.22755">
        <ele>1342.618652</ele>
        <time>2011-10-09T10:13:42Z</time>
      </trkpt>
      <trkpt lat="44.44346" lon="6.22755">
        <ele>1339.734375</ele>
        <time>2011-10-09T10:13:51Z</time>
      </trkpt>
      <trkpt lat="44.44379" lon="6.22715">
        <ele>1343.579834</ele>
        <time>2011-10-09T10:14:15Z</time>
      </trkpt>
      <trkpt lat="44.44379" lon="6.22715">
        <ele>1345.983154</ele>
        <time>2011-10-09T10:14:24Z</time>
      </trkpt>
      <trkpt lat="44.44379" lon="6.22715">
        <ele>1344.060547</ele>
        <time>2011-10-09T10:14:37Z</time>
      </trkpt>
      <trkpt lat="44.44379" lon="6.22715">
        <ele>1342.618652</ele>
        <time>2011-10-09T10:14:51Z</time>
      </trkpt>
      <trkpt lat="44.44379" lon="6.22715">
        <ele>1342.137939</ele>
        <time>2011-10-09T10:15:28Z</time>
      </trkpt>
      <trkpt lat="44.44379" lon="6.22715">
        <ele>1343.579834</ele>
        <time>2011-10-09T10:15:30Z</time>
      </trkpt>
      <trkpt lat="44.44379" lon="6.22715">
        <ele>1343.579834</ele>
        <time>2011-10-09T10:25:31Z</time>
      </trkpt>
      <trkpt lat="44.44379" lon="6.22715">
        <ele>1343.579834</ele>
        <time>2011-10-09T10:25:48Z</time>
      </trkpt>
      <trkpt lat="44.44379" lon="6.22715">
        <ele>1343.579834</ele>
        <time>2011-10-09T10:26:06Z</time>
      </trkpt>
      <trkpt lat="44.44379" lon="6.22715">
        <ele>1343.579834</ele>
        <time>2011-10-09T10:26:08Z</time>
      </trkpt>
      <trkpt lat="44.44379" lon="6.22715">
        <ele>1341.657227</ele>
        <time>2011-10-09T10:26:35Z</time>
      </trkpt>
      <trkpt lat="44.44379" lon="6.22715">
        <ele>1341.176514</ele>
        <time>2011-10-09T10:26:58Z</time>
      </trkpt>
      <trkpt lat="44.44379" lon="6.22715">
        <ele>1338.773193</ele>
        <time>2011-10-09T10:27:24Z</time>
      </trkpt>
      <trkpt lat="44.44311" lon="6.22781">
        <ele>1335.408447</ele>
        <time>2011-10-09T10:27:48Z</time>
      </trkpt>
      <trkpt lat="44.44305" lon="6.22785">
        <ele>1334.927979</ele>
        <time>2011-10-09T10:28:05Z</time>
      </trkpt>
      <trkpt lat="44.44305" lon="6.22785">
        <ele>1336.369873</ele>
        <time>2011-10-09T10:28:22Z</time>
      </trkpt>
      <trkpt lat="44.44305" lon="6.22785">
        <ele>1337.811768</ele>
        <time>2011-10-09T10:28:38Z</time>
      </trkpt>
      <trkpt lat="44.44305" lon="6.22785">
        <ele>1339.253662</ele>
        <time>2011-10-09T10:28:59Z</time>
      </trkpt>
      <trkpt lat="44.44305" lon="6.22785">
        <ele>1341.176514</ele>
        <time>2011-10-09T10:29:25Z</time>
      </trkpt>
      <trkpt lat="44.44305" lon="6.22785">
        <ele>1341.176514</ele>
        <time>2011-10-09T10:29:30Z</time>
      </trkpt>
      <trkpt lat="44.44236" lon="6.22902">
        <ele>1340.695801</ele>
        <time>2011-10-09T10:29:45Z</time>
      </trkpt>
      <trkpt lat="44.44201" lon="6.22932">
        <ele>1337.811768</ele>
        <time>2011-10-09T10:29:59Z</time>
      </trkpt>
      <trkpt lat="44.44166" lon="6.22965">
        <ele>1334.447266</ele>
        <time>2011-10-09T10:30:10Z</time>
      </trkpt>
      <trkpt lat="44.44163" lon="6.22968">
        <ele>1334.447266</ele>
        <time>2011-10-09T10:30:11Z</time>
      </trkpt>
      <trkpt lat="44.44143" lon="6.22985">
        <ele>1333.005127</ele>
        <time>2011-10-09T10:30:16Z</time>
      </trkpt>
      <trkpt lat="44.44113" lon="6.23026">
        <ele>1333.005127</ele>
        <time>2011-10-09T10:30:30Z</time>
      </trkpt>
      <trkpt lat="44.44089" lon="6.23063">
        <ele>1335.88916</ele>
        <time>2011-10-09T10:30:54Z</time>
      </trkpt>
      <trkpt lat="44.44065" lon="6.231">
        <ele>1336.850342</ele>
        <time>2011-10-09T10:31:16Z</time>
      </trkpt>
      <trkpt lat="44.44054" lon="6.23122">
        <ele>1336.850342</ele>
        <time>2011-10-09T10:31:30Z</time>
      </trkpt>
      <trkpt lat="44.44054" lon="6.23122">
        <ele>1338.29248</ele>
        <time>2011-10-09T10:32:32Z</time>
      </trkpt>
      <trkpt lat="44.44054" lon="6.23122">
        <ele>1338.29248</ele>
        <time>2011-10-09T10:32:36Z</time>
      </trkpt>
      <trkpt lat="44.44054" lon="6.23122">
        <ele>1341.176514</ele>
        <time>2011-10-09T10:32:55Z</time>
      </trkpt>
      <trkpt lat="44.44054" lon="6.23122">
        <ele>1344.060547</ele>
        <time>2011-10-09T10:33:16Z</time>
      </trkpt>
      <trkpt lat="44.44054" lon="6.23122">
        <ele>1346.463867</ele>
        <time>2011-10-09T10:33:37Z</time>
      </trkpt>
      <trkpt lat="44.44054" lon="6.23122">
        <ele>1349.828369</ele>
        <time>2011-10-09T10:34:02Z</time>
      </trkpt>
      <trkpt lat="44.44054" lon="6.23122">
        <ele>1351.270264</ele>
        <time>2011-10-09T10:34:14Z</time>
      </trkpt>
      <trkpt lat="44.43987" lon="6.23205">
        <ele>1351.750977</ele>
        <time>2011-10-09T10:34:22Z</time>
      </trkpt>
      <trkpt lat="44.43987" lon="6.23205">
        <ele>1353.673584</ele>
        <time>2011-10-09T10:34:52Z</time>
      </trkpt>
      <trkpt lat="44.43987" lon="6.23205">
        <ele>1356.557617</ele>
        <time>2011-10-09T10:35:16Z</time>
      </trkpt>
      <trkpt lat="44.43987" lon="6.23205">
        <ele>1359.922119</ele>
        <time>2011-10-09T10:35:35Z</time>
      </trkpt>
      <trkpt lat="44.43987" lon="6.23205">
        <ele>1363.286865</ele>
        <time>2011-10-09T10:35:58Z</time>
      </trkpt>
      <trkpt lat="44.43912" lon="6.23278">
        <ele>1365.209473</ele>
        <time>2011-10-09T10:36:19Z</time>
      </trkpt>
      <trkpt lat="44.43912" lon="6.23278">
        <ele>1365.209473</ele>
        <time>2011-10-09T10:36:27Z</time>
      </trkpt>
      <trkpt lat="44.43861" lon="6.23298">
        <ele>1364.72876</ele>
        <time>2011-10-09T10:36:43Z</time>
      </trkpt>
      <trkpt lat="44.43836" lon="6.23316">
        <ele>1360.883545</ele>
        <time>2011-10-09T10:36:52Z</time>
      </trkpt>
      <trkpt lat="44.43824" lon="6.23323">
        <ele>1359.44165</ele>
        <time>2011-10-09T10:36:56Z</time>
      </trkpt>
      <trkpt lat="44.43811" lon="6.23328">
        <ele>1357.519043</ele>
        <time>2011-10-09T10:37:00Z</time>
      </trkpt>
      <trkpt lat="44.43804" lon="6.2333">
        <ele>1356.076904</ele>
        <time>2011-10-09T10:37:02Z</time>
      </trkpt>
      <trkpt lat="44.43776" lon="6.23336">
        <ele>1352.712158</ele>
        <time>2011-10-09T10:37:09Z</time>
      </trkpt>
      <trkpt lat="44.43767" lon="6.23339">
        <ele>1352.231445</ele>
        <time>2011-10-09T10:37:11Z</time>
      </trkpt>
      <trkpt lat="44.43707" lon="6.23381">
        <ele>1350.309082</ele>
        <time>2011-10-09T10:37:25Z</time>
      </trkpt>
      <trkpt lat="44.43668" lon="6.23413">
        <ele>1351.270264</ele>
        <time>2011-10-09T10:37:42Z</time>
      </trkpt>
      <trkpt lat="44.43634" lon="6.23434">
        <ele>1352.231445</ele>
        <time>2011-10-09T10:37:59Z</time>
      </trkpt>
      <trkpt lat="44.43621" lon="6.23442">
        <ele>1352.712158</ele>
        <time>2011-10-09T10:38:06Z</time>
      </trkpt>
      <trkpt lat="44.43574" lon="6.23465">
        <ele>1349.828369</ele>
        <time>2011-10-09T10:38:21Z</time>
      </trkpt>
      <trkpt lat="44.43563" lon="6.23474">
        <ele>1348.38623</ele>
        <time>2011-10-09T10:38:25Z</time>
      </trkpt>
      <trkpt lat="44.43546" lon="6.23484">
        <ele>1345.021729</ele>
        <time>2011-10-09T10:38:33Z</time>
      </trkpt>
      <trkpt lat="44.43527" lon="6.23494">
        <ele>1341.176514</ele>
        <time>2011-10-09T10:38:40Z</time>
      </trkpt>
      <trkpt lat="44.43525" lon="6.23496">
        <ele>1341.176514</ele>
        <time>2011-10-09T10:38:41Z</time>
      </trkpt>
      <trkpt lat="44.4352" lon="6.23501">
        <ele>1340.215332</ele>
        <time>2011-10-09T10:38:43Z</time>
      </trkpt>
      <trkpt lat="44.43504" lon="6.23513">
        <ele>1337.331055</ele>
        <time>2011-10-09T10:38:48Z</time>
      </trkpt>
      <trkpt lat="44.43497" lon="6.23518">
        <ele>1336.369873</ele>
        <time>2011-10-09T10:38:50Z</time>
      </trkpt>
      <trkpt lat="44.43477" lon="6.2353">
        <ele>1332.524658</ele>
        <time>2011-10-09T10:38:56Z</time>
      </trkpt>
      <trkpt lat="44.43468" lon="6.23536">
        <ele>1331.082764</ele>
        <time>2011-10-09T10:38:59Z</time>
      </trkpt>
      <trkpt lat="44.4346" lon="6.23541">
        <ele>1329.640625</ele>
        <time>2011-10-09T10:39:01Z</time>
      </trkpt>
      <trkpt lat="44.43443" lon="6.23549">
        <ele>1328.19873</ele>
        <time>2011-10-09T10:39:05Z</time>
      </trkpt>
      <trkpt lat="44.43432" lon="6.23548">
        <ele>1327.237549</ele>
        <time>2011-10-09T10:39:07Z</time>
      </trkpt>
      <trkpt lat="44.43373" lon="6.23542">
        <ele>1326.756836</ele>
        <time>2011-10-09T10:39:24Z</time>
      </trkpt>
      <trkpt lat="44.43338" lon="6.23502">
        <ele>1325.314697</ele>
        <time>2011-10-09T10:39:38Z</time>
      </trkpt>
      <trkpt lat="44.43322" lon="6.2347">
        <ele>1321.949951</ele>
        <time>2011-10-09T10:39:46Z</time>
      </trkpt>
      <trkpt lat="44.43312" lon="6.23455">
        <ele>1320.508057</ele>
        <time>2011-10-09T10:39:51Z</time>
      </trkpt>
      <trkpt lat="44.43302" lon="6.23453">
        <ele>1319.066162</ele>
        <time>2011-10-09T10:39:55Z</time>
      </trkpt>
      <trkpt lat="44.43282" lon="6.23471">
        <ele>1315.70166</ele>
        <time>2011-10-09T10:40:05Z</time>
      </trkpt>
      <trkpt lat="44.43279" lon="6.23477">
        <ele>1315.220947</ele>
        <time>2011-10-09T10:40:07Z</time>
      </trkpt>
      <trkpt lat="44.43261" lon="6.23491">
        <ele>1312.336914</ele>
        <time>2011-10-09T10:40:13Z</time>
      </trkpt>
      <trkpt lat="44.43236" lon="6.23496">
        <ele>1308.972412</ele>
        <time>2011-10-09T10:40:20Z</time>
      </trkpt>
      <trkpt lat="44.43229" lon="6.23499">
        <ele>1308.01123</ele>
        <time>2011-10-09T10:40:22Z</time>
      </trkpt>
      <trkpt lat="44.43206" lon="6.23504">
        <ele>1305.607666</ele>
        <time>2011-10-09T10:40:29Z</time>
      </trkpt>
      <trkpt lat="44.43188" lon="6.23512">
        <ele>1302.24292</ele>
        <time>2011-10-09T10:40:35Z</time>
      </trkpt>
      <trkpt lat="44.43186" lon="6.23513">
        <ele>1302.24292</ele>
        <time>2011-10-09T10:40:36Z</time>
      </trkpt>
      <trkpt lat="44.43172" lon="6.23518">
        <ele>1298.878418</ele>
        <time>2011-10-09T10:40:42Z</time>
      </trkpt>
      <trkpt lat="44.43171" lon="6.23519">
        <ele>1298.878418</ele>
        <time>2011-10-09T10:40:43Z</time>
      </trkpt>
      <trkpt lat="44.43166" lon="6.2352">
        <ele>1297.436523</ele>
        <time>2011-10-09T10:40:45Z</time>
      </trkpt>
      <trkpt lat="44.4315" lon="6.2352">
        <ele>1294.072021</ele>
        <time>2011-10-09T10:40:50Z</time>
      </trkpt>
      <trkpt lat="44.43147" lon="6.2352">
        <ele>1294.072021</ele>
        <time>2011-10-09T10:40:51Z</time>
      </trkpt>
      <trkpt lat="44.43143" lon="6.23521">
        <ele>1293.110596</ele>
        <time>2011-10-09T10:40:52Z</time>
      </trkpt>
      <trkpt lat="44.4312" lon="6.23534">
        <ele>1289.74585</ele>
        <time>2011-10-09T10:40:57Z</time>
      </trkpt>
      <trkpt lat="44.43115" lon="6.23537">
        <ele>1289.74585</ele>
        <time>2011-10-09T10:40:58Z</time>
      </trkpt>
      <trkpt lat="44.43083" lon="6.23549">
        <ele>1286.861816</ele>
        <time>2011-10-09T10:41:04Z</time>
      </trkpt>
      <trkpt lat="44.43078" lon="6.23552">
        <ele>1286.861816</ele>
        <time>2011-10-09T10:41:05Z</time>
      </trkpt>
      <trkpt lat="44.43066" lon="6.23558">
        <ele>1285.419922</ele>
        <time>2011-10-09T10:41:07Z</time>
      </trkpt>
      <trkpt lat="44.43055" lon="6.23563">
        <ele>1283.978027</ele>
        <time>2011-10-09T10:41:09Z</time>
      </trkpt>
      <trkpt lat="44.43037" lon="6.23571">
        <ele>1281.094238</ele>
        <time>2011-10-09T10:41:12Z</time>
      </trkpt>
      <trkpt lat="44.43027" lon="6.23574">
        <ele>1279.6521</ele>
        <time>2011-10-09T10:41:14Z</time>
      </trkpt>
      <trkpt lat="44.43012" lon="6.23575">
        <ele>1279.171387</ele>
        <time>2011-10-09T10:41:17Z</time>
      </trkpt>
      <trkpt lat="44.42985" lon="6.23574">
        <ele>1279.171387</ele>
        <time>2011-10-09T10:41:25Z</time>
      </trkpt>
      <trkpt lat="44.42985" lon="6.23574">
        <ele>1281.094238</ele>
        <time>2011-10-09T10:41:40Z</time>
      </trkpt>
      <trkpt lat="44.42985" lon="6.23574">
        <ele>1284.45874</ele>
        <time>2011-10-09T10:42:01Z</time>
      </trkpt>
      <trkpt lat="44.42985" lon="6.23574">
        <ele>1284.939453</ele>
        <time>2011-10-09T10:42:22Z</time>
      </trkpt>
      <trkpt lat="44.42985" lon="6.23574">
        <ele>1286.381348</ele>
        <time>2011-10-09T10:42:39Z</time>
      </trkpt>
      <trkpt lat="44.42985" lon="6.23574">
        <ele>1287.342529</ele>
        <time>2011-10-09T10:42:59Z</time>
      </trkpt>
      <trkpt lat="44.42914" lon="6.23554">
        <ele>1287.342529</ele>
        <time>2011-10-09T10:43:02Z</time>
      </trkpt>
      <trkpt lat="44.42875" lon="6.23546">
        <ele>1289.265137</ele>
        <time>2011-10-09T10:43:23Z</time>
      </trkpt>
      <trkpt lat="44.42849" lon="6.23542">
        <ele>1286.381348</ele>
        <time>2011-10-09T10:43:32Z</time>
      </trkpt>
      <trkpt lat="44.42829" lon="6.23541">
        <ele>1282.536133</ele>
        <time>2011-10-09T10:43:39Z</time>
      </trkpt>
      <trkpt lat="44.42826" lon="6.23541">
        <ele>1282.536133</ele>
        <time>2011-10-09T10:43:40Z</time>
      </trkpt>
      <trkpt lat="44.42794" lon="6.23541">
        <ele>1281.574707</ele>
        <time>2011-10-09T10:43:46Z</time>
      </trkpt>
      <trkpt lat="44.42724" lon="6.23528">
        <ele>1278.210205</ele>
        <time>2011-10-09T10:44:01Z</time>
      </trkpt>
      <trkpt lat="44.42672" lon="6.2351">
        <ele>1277.729492</ele>
        <time>2011-10-09T10:44:16Z</time>
      </trkpt>
      <trkpt lat="44.42668" lon="6.23509">
        <ele>1278.210205</ele>
        <time>2011-10-09T10:44:19Z</time>
      </trkpt>
      <trkpt lat="44.42672" lon="6.23451">
        <ele>1275.806641</ele>
        <time>2011-10-09T10:44:32Z</time>
      </trkpt>
      <trkpt lat="44.42674" lon="6.23439">
        <ele>1274.364746</ele>
        <time>2011-10-09T10:44:37Z</time>
      </trkpt>
      <trkpt lat="44.42676" lon="6.23429">
        <ele>1273.403564</ele>
        <time>2011-10-09T10:44:40Z</time>
      </trkpt>
      <trkpt lat="44.42675" lon="6.23415">
        <ele>1271.480713</ele>
        <time>2011-10-09T10:44:44Z</time>
      </trkpt>
      <trkpt lat="44.42672" lon="6.23405">
        <ele>1270.038818</ele>
        <time>2011-10-09T10:44:47Z</time>
      </trkpt>
      <trkpt lat="44.42667" lon="6.23392">
        <ele>1268.116211</ele>
        <time>2011-10-09T10:44:51Z</time>
      </trkpt>
      <trkpt lat="44.42661" lon="6.23383">
        <ele>1266.674316</ele>
        <time>2011-10-09T10:44:54Z</time>
      </trkpt>
      <trkpt lat="44.42654" lon="6.23359">
        <ele>1262.829102</ele>
        <time>2011-10-09T10:45:00Z</time>
      </trkpt>
      <trkpt lat="44.42653" lon="6.23356">
        <ele>1262.829102</ele>
        <time>2011-10-09T10:45:01Z</time>
      </trkpt>
      <trkpt lat="44.4265" lon="6.23328">
        <ele>1259.944824</ele>
        <time>2011-10-09T10:45:08Z</time>
      </trkpt>
      <trkpt lat="44.42649" lon="6.23318">
        <ele>1258.50293</ele>
        <time>2011-10-09T10:45:10Z</time>
      </trkpt>
      <trkpt lat="44.42648" lon="6.23295">
        <ele>1255.619141</ele>
        <time>2011-10-09T10:45:15Z</time>
      </trkpt>
      <trkpt lat="44.42647" lon="6.23286">
        <ele>1254.657715</ele>
        <time>2011-10-09T10:45:17Z</time>
      </trkpt>
      <trkpt lat="44.42646" lon="6.23275">
        <ele>1252.735107</ele>
        <time>2011-10-09T10:45:19Z</time>
      </trkpt>
      <trkpt lat="44.42644" lon="6.23254">
        <ele>1249.851318</ele>
        <time>2011-10-09T10:45:23Z</time>
      </trkpt>
      <trkpt lat="44.42641" lon="6.23232">
        <ele>1247.447998</ele>
        <time>2011-10-09T10:45:28Z</time>
      </trkpt>
      <trkpt lat="44.42645" lon="6.2322">
        <ele>1246.006104</ele>
        <time>2011-10-09T10:45:31Z</time>
      </trkpt>
      <trkpt lat="44.42647" lon="6.23216">
        <ele>1245.044678</ele>
        <time>2011-10-09T10:45:32Z</time>
      </trkpt>
      <trkpt lat="44.4266" lon="6.23196">
        <ele>1241.679932</ele>
        <time>2011-10-09T10:45:38Z</time>
      </trkpt>
      <trkpt lat="44.42663" lon="6.23188">
        <ele>1241.199219</ele>
        <time>2011-10-09T10:45:40Z</time>
      </trkpt>
      <trkpt lat="44.42668" lon="6.23168">
        <ele>1238.31543</ele>
        <time>2011-10-09T10:45:44Z</time>
      </trkpt>
      <trkpt lat="44.42673" lon="6.23155">
        <ele>1235.912109</ele>
        <time>2011-10-09T10:45:48Z</time>
      </trkpt>
      <trkpt lat="44.42687" lon="6.23131">
        <ele>1231.586182</ele>
        <time>2011-10-09T10:45:55Z</time>
      </trkpt>
      <trkpt lat="44.42689" lon="6.23127">
        <ele>1232.066895</ele>
        <time>2011-10-09T10:45:56Z</time>
      </trkpt>
      <trkpt lat="44.42702" lon="6.23104">
        <ele>1228.702393</ele>
        <time>2011-10-09T10:46:02Z</time>
      </trkpt>
      <trkpt lat="44.42703" lon="6.231">
        <ele>1228.702393</ele>
        <time>2011-10-09T10:46:03Z</time>
      </trkpt>
      <trkpt lat="44.42719" lon="6.23081">
        <ele>1225.818115</ele>
        <time>2011-10-09T10:46:10Z</time>
      </trkpt>
      <trkpt lat="44.42723" lon="6.23074">
        <ele>1224.376221</ele>
        <time>2011-10-09T10:46:12Z</time>
      </trkpt>
      <trkpt lat="44.42725" lon="6.23069">
        <ele>1223.415039</ele>
        <time>2011-10-09T10:46:13Z</time>
      </trkpt>
      <trkpt lat="44.42729" lon="6.2305">
        <ele>1221.011719</ele>
        <time>2011-10-09T10:46:17Z</time>
      </trkpt>
      <trkpt lat="44.42721" lon="6.23028">
        <ele>1217.646973</ele>
        <time>2011-10-09T10:46:24Z</time>
      </trkpt>
      <trkpt lat="44.42716" lon="6.2302">
        <ele>1216.205078</ele>
        <time>2011-10-09T10:46:26Z</time>
      </trkpt>
      <trkpt lat="44.4271" lon="6.23012">
        <ele>1214.763184</ele>
        <time>2011-10-09T10:46:28Z</time>
      </trkpt>
      <trkpt lat="44.42704" lon="6.23006">
        <ele>1213.321289</ele>
        <time>2011-10-09T10:46:30Z</time>
      </trkpt>
      <trkpt lat="44.42696" lon="6.22997">
        <ele>1211.398438</ele>
        <time>2011-10-09T10:46:33Z</time>
      </trkpt>
      <trkpt lat="44.42686" lon="6.22984">
        <ele>1208.995117</ele>
        <time>2011-10-09T10:46:37Z</time>
      </trkpt>
      <trkpt lat="44.42678" lon="6.2297">
        <ele>1207.553223</ele>
        <time>2011-10-09T10:46:40Z</time>
      </trkpt>
      <trkpt lat="44.42674" lon="6.22954">
        <ele>1205.149902</ele>
        <time>2011-10-09T10:46:44Z</time>
      </trkpt>
      <trkpt lat="44.42672" lon="6.22946">
        <ele>1203.708008</ele>
        <time>2011-10-09T10:46:46Z</time>
      </trkpt>
      <trkpt lat="44.42664" lon="6.22915">
        <ele>1200.823975</ele>
        <time>2011-10-09T10:46:53Z</time>
      </trkpt>
      <trkpt lat="44.4266" lon="6.22882">
        <ele>1197.940186</ele>
        <time>2011-10-09T10:47:01Z</time>
      </trkpt>
      <trkpt lat="44.42659" lon="6.22863">
        <ele>1196.498291</ele>
        <time>2011-10-09T10:47:05Z</time>
      </trkpt>
      <trkpt lat="44.42655" lon="6.22851">
        <ele>1193.614014</ele>
        <time>2011-10-09T10:47:13Z</time>
      </trkpt>
      <trkpt lat="44.42651" lon="6.22846">
        <ele>1192.172119</ele>
        <time>2011-10-09T10:47:17Z</time>
      </trkpt>
      <trkpt lat="44.42658" lon="6.22863">
        <ele>1191.691406</ele>
        <time>2011-10-09T10:47:18Z</time>
      </trkpt>
      <trkpt lat="44.42654" lon="6.22823">
        <ele>1189.768799</ele>
        <time>2011-10-09T10:47:21Z</time>
      </trkpt>
      <trkpt lat="44.42654" lon="6.22819">
        <ele>1188.807617</ele>
        <time>2011-10-09T10:47:22Z</time>
      </trkpt>
      <trkpt lat="44.42658" lon="6.22808">
        <ele>1187.365479</ele>
        <time>2011-10-09T10:47:25Z</time>
      </trkpt>
      <trkpt lat="44.4265" lon="6.2279">
        <ele>1185.442871</ele>
        <time>2011-10-09T10:47:31Z</time>
      </trkpt>
      <trkpt lat="44.42679" lon="6.22766">
        <ele>1184.000977</ele>
        <time>2011-10-09T10:47:36Z</time>
      </trkpt>
      <trkpt lat="44.42676" lon="6.22759">
        <ele>1182.559082</ele>
        <time>2011-10-09T10:47:38Z</time>
      </trkpt>
      <trkpt lat="44.42675" lon="6.22756">
        <ele>1181.597656</ele>
        <time>2011-10-09T10:47:39Z</time>
      </trkpt>
      <trkpt lat="44.42669" lon="6.2275">
        <ele>1180.636475</ele>
        <time>2011-10-09T10:47:41Z</time>
      </trkpt>
      <trkpt lat="44.42657" lon="6.22742">
        <ele>1178.713623</ele>
        <time>2011-10-09T10:47:45Z</time>
      </trkpt>
      <trkpt lat="44.42641" lon="6.22732">
        <ele>1174.868408</ele>
        <time>2011-10-09T10:47:51Z</time>
      </trkpt>
      <trkpt lat="44.42622" lon="6.22724">
        <ele>1172.465088</ele>
        <time>2011-10-09T10:47:59Z</time>
      </trkpt>
      <trkpt lat="44.42622" lon="6.22724">
        <ele>1172.465088</ele>
        <time>2011-10-09T10:48:05Z</time>
      </trkpt>
      <trkpt lat="44.42612" lon="6.22705">
        <ele>1170.061768</ele>
        <time>2011-10-09T10:48:12Z</time>
      </trkpt>
      <trkpt lat="44.42606" lon="6.22688">
        <ele>1168.13916</ele>
        <time>2011-10-09T10:48:17Z</time>
      </trkpt>
      <trkpt lat="44.42596" lon="6.22667">
        <ele>1164.293945</ele>
        <time>2011-10-09T10:48:23Z</time>
      </trkpt>
      <trkpt lat="44.42582" lon="6.22635">
        <ele>1160.929199</ele>
        <time>2011-10-09T10:48:33Z</time>
      </trkpt>
      <trkpt lat="44.42579" lon="6.22614">
        <ele>1158.525879</ele>
        <time>2011-10-09T10:48:38Z</time>
      </trkpt>
      <trkpt lat="44.42569" lon="6.22598">
        <ele>1156.603271</ele>
        <time>2011-10-09T10:48:43Z</time>
      </trkpt>
      <trkpt lat="44.42563" lon="6.22588">
        <ele>1153.719482</ele>
        <time>2011-10-09T10:48:46Z</time>
      </trkpt>
      <trkpt lat="44.42553" lon="6.22565">
        <ele>1149.874268</ele>
        <time>2011-10-09T10:48:52Z</time>
      </trkpt>
      <trkpt lat="44.42552" lon="6.22559">
        <ele>1149.874268</ele>
        <time>2011-10-09T10:48:53Z</time>
      </trkpt>
      <trkpt lat="44.42549" lon="6.2255">
        <ele>1148.432129</ele>
        <time>2011-10-09T10:48:55Z</time>
      </trkpt>
      <trkpt lat="44.42536" lon="6.22531">
        <ele>1145.548096</ele>
        <time>2011-10-09T10:49:01Z</time>
      </trkpt>
      <trkpt lat="44.42534" lon="6.22528">
        <ele>1145.548096</ele>
        <time>2011-10-09T10:49:02Z</time>
      </trkpt>
      <trkpt lat="44.42511" lon="6.22494">
        <ele>1141.702881</ele>
        <time>2011-10-09T10:49:12Z</time>
      </trkpt>
      <trkpt lat="44.4251" lon="6.22491">
        <ele>1141.702881</ele>
        <time>2011-10-09T10:49:13Z</time>
      </trkpt>
      <trkpt lat="44.42498" lon="6.22462">
        <ele>1137.857666</ele>
        <time>2011-10-09T10:49:22Z</time>
      </trkpt>
      <trkpt lat="44.42497" lon="6.22438">
        <ele>1134.493164</ele>
        <time>2011-10-09T10:49:28Z</time>
      </trkpt>
      <trkpt lat="44.42496" lon="6.22433">
        <ele>1134.493164</ele>
        <time>2011-10-09T10:49:29Z</time>
      </trkpt>
      <trkpt lat="44.42493" lon="6.22416">
        <ele>1131.128418</ele>
        <time>2011-10-09T10:49:33Z</time>
      </trkpt>
      <trkpt lat="44.42492" lon="6.22413">
        <ele>1131.128418</ele>
        <time>2011-10-09T10:49:34Z</time>
      </trkpt>
      <trkpt lat="44.42489" lon="6.22367">
        <ele>1127.763672</ele>
        <time>2011-10-09T10:49:43Z</time>
      </trkpt>
      <trkpt lat="44.42489" lon="6.22362">
        <ele>1127.763672</ele>
        <time>2011-10-09T10:49:44Z</time>
      </trkpt>
      <trkpt lat="44.4249" lon="6.2235">
        <ele>1124.39917</ele>
        <time>2011-10-09T10:49:46Z</time>
      </trkpt>
      <trkpt lat="44.42491" lon="6.22345">
        <ele>1124.39917</ele>
        <time>2011-10-09T10:49:47Z</time>
      </trkpt>
      <trkpt lat="44.42493" lon="6.22335">
        <ele>1122.476563</ele>
        <time>2011-10-09T10:49:49Z</time>
      </trkpt>
      <trkpt lat="44.42495" lon="6.22314">
        <ele>1120.073242</ele>
        <time>2011-10-09T10:49:54Z</time>
      </trkpt>
      <trkpt lat="44.42494" lon="6.22307">
        <ele>1118.631348</ele>
        <time>2011-10-09T10:49:56Z</time>
      </trkpt>
      <trkpt lat="44.42493" lon="6.223">
        <ele>1116.70874</ele>
        <time>2011-10-09T10:50:01Z</time>
      </trkpt>
      <trkpt lat="44.42488" lon="6.22279">
        <ele>1115.266602</ele>
        <time>2011-10-09T10:50:06Z</time>
      </trkpt>
      <trkpt lat="44.42493" lon="6.223">
        <ele>1113.343994</ele>
        <time>2011-10-09T10:50:10Z</time>
      </trkpt>
      <trkpt lat="44.42493" lon="6.223">
        <ele>1109.979248</ele>
        <time>2011-10-09T10:50:16Z</time>
      </trkpt>
      <trkpt lat="44.42493" lon="6.223">
        <ele>1109.979248</ele>
        <time>2011-10-09T10:50:17Z</time>
      </trkpt>
      <trkpt lat="44.42447" lon="6.22242">
        <ele>1107.095459</ele>
        <time>2011-10-09T10:50:22Z</time>
      </trkpt>
      <trkpt lat="44.42441" lon="6.2224">
        <ele>1106.134033</ele>
        <time>2011-10-09T10:50:24Z</time>
      </trkpt>
      <trkpt lat="44.42428" lon="6.22235">
        <ele>1105.172852</ele>
        <time>2011-10-09T10:50:28Z</time>
      </trkpt>
      <trkpt lat="44.42425" lon="6.22226">
        <ele>1103.250244</ele>
        <time>2011-10-09T10:50:31Z</time>
      </trkpt>
      <trkpt lat="44.42429" lon="6.22209">
        <ele>1100.846924</ele>
        <time>2011-10-09T10:50:36Z</time>
      </trkpt>
      <trkpt lat="44.42432" lon="6.22201">
        <ele>1100.366455</ele>
        <time>2011-10-09T10:50:38Z</time>
      </trkpt>
      <trkpt lat="44.42433" lon="6.22198">
        <ele>1099.404785</ele>
        <time>2011-10-09T10:50:39Z</time>
      </trkpt>
      <trkpt lat="44.42448" lon="6.22164">
        <ele>1096.520996</ele>
        <time>2011-10-09T10:50:47Z</time>
      </trkpt>
      <trkpt lat="44.4245" lon="6.2216">
        <ele>1095.078857</ele>
        <time>2011-10-09T10:50:49Z</time>
      </trkpt>
      <trkpt lat="44.42466" lon="6.22148">
        <ele>1092.675781</ele>
        <time>2011-10-09T10:50:54Z</time>
      </trkpt>
      <trkpt lat="44.42471" lon="6.22142">
        <ele>1091.233643</ele>
        <time>2011-10-09T10:50:56Z</time>
      </trkpt>
      <trkpt lat="44.42477" lon="6.22132">
        <ele>1090.272461</ele>
        <time>2011-10-09T10:50:59Z</time>
      </trkpt>
      <trkpt lat="44.42486" lon="6.22119">
        <ele>1087.388428</ele>
        <time>2011-10-09T10:51:03Z</time>
      </trkpt>
      <trkpt lat="44.42501" lon="6.221">
        <ele>1085.46582</ele>
        <time>2011-10-09T10:51:08Z</time>
      </trkpt>
      <trkpt lat="44.42512" lon="6.22079">
        <ele>1082.101074</ele>
        <time>2011-10-09T10:51:13Z</time>
      </trkpt>
      <trkpt lat="44.42528" lon="6.22056">
        <ele>1079.217041</ele>
        <time>2011-10-09T10:51:20Z</time>
      </trkpt>
      <trkpt lat="44.42535" lon="6.22051">
        <ele>1078.255859</ele>
        <time>2011-10-09T10:51:22Z</time>
      </trkpt>
      <trkpt lat="44.42552" lon="6.22048">
        <ele>1074.891357</ele>
        <time>2011-10-09T10:51:27Z</time>
      </trkpt>
      <trkpt lat="44.4256" lon="6.22047">
        <ele>1073.929932</ele>
        <time>2011-10-09T10:51:30Z</time>
      </trkpt>
      <trkpt lat="44.42583" lon="6.22046">
        <ele>1070.084717</ele>
        <time>2011-10-09T10:51:37Z</time>
      </trkpt>
      <trkpt lat="44.42587" lon="6.22046">
        <ele>1070.084717</ele>
        <time>2011-10-09T10:51:38Z</time>
      </trkpt>
      <trkpt lat="44.42598" lon="6.22045">
        <ele>1068.642822</ele>
        <time>2011-10-09T10:51:41Z</time>
      </trkpt>
      <trkpt lat="44.42611" lon="6.2204">
        <ele>1066.239258</ele>
        <time>2011-10-09T10:51:45Z</time>
      </trkpt>
      <trkpt lat="44.42616" lon="6.22027">
        <ele>1063.355469</ele>
        <time>2011-10-09T10:51:50Z</time>
      </trkpt>
      <trkpt lat="44.42616" lon="6.22017">
        <ele>1062.394043</ele>
        <time>2011-10-09T10:51:53Z</time>
      </trkpt>
      <trkpt lat="44.42616" lon="6.21992">
        <ele>1059.029541</ele>
        <time>2011-10-09T10:51:59Z</time>
      </trkpt>
      <trkpt lat="44.42618" lon="6.21981">
        <ele>1057.587646</ele>
        <time>2011-10-09T10:52:02Z</time>
      </trkpt>
      <trkpt lat="44.4262" lon="6.2196">
        <ele>1054.223145</ele>
        <time>2011-10-09T10:52:07Z</time>
      </trkpt>
      <trkpt lat="44.4262" lon="6.21956">
        <ele>1054.223145</ele>
        <time>2011-10-09T10:52:08Z</time>
      </trkpt>
      <trkpt lat="44.4263" lon="6.21928">
        <ele>1050.858154</ele>
        <time>2011-10-09T10:52:15Z</time>
      </trkpt>
      <trkpt lat="44.42632" lon="6.21903">
        <ele>1048.454834</ele>
        <time>2011-10-09T10:52:21Z</time>
      </trkpt>
      <trkpt lat="44.42629" lon="6.21884">
        <ele>1046.532471</ele>
        <time>2011-10-09T10:52:26Z</time>
      </trkpt>
      <trkpt lat="44.42628" lon="6.21877">
        <ele>1045.090332</ele>
        <time>2011-10-09T10:52:29Z</time>
      </trkpt>
      <trkpt lat="44.42636" lon="6.21866">
        <ele>1041.245117</ele>
        <time>2011-10-09T10:52:38Z</time>
      </trkpt>
      <trkpt lat="44.42637" lon="6.21867">
        <ele>1041.245117</ele>
        <time>2011-10-09T10:52:39Z</time>
      </trkpt>
      <trkpt lat="44.42638" lon="6.21869">
        <ele>1041.245117</ele>
        <time>2011-10-09T10:52:41Z</time>
      </trkpt>
      <trkpt lat="44.42642" lon="6.21875">
        <ele>1039.803223</ele>
        <time>2011-10-09T10:52:44Z</time>
      </trkpt>
      <trkpt lat="44.42648" lon="6.21884">
        <ele>1038.361328</ele>
        <time>2011-10-09T10:52:48Z</time>
      </trkpt>
      <trkpt lat="44.42667" lon="6.21912">
        <ele>1034.515869</ele>
        <time>2011-10-09T10:52:57Z</time>
      </trkpt>
      <trkpt lat="44.42682" lon="6.21937">
        <ele>1031.151367</ele>
        <time>2011-10-09T10:53:04Z</time>
      </trkpt>
      <trkpt lat="44.42682" lon="6.21942">
        <ele>1031.151367</ele>
        <time>2011-10-09T10:53:05Z</time>
      </trkpt>
      <trkpt lat="44.42692" lon="6.21988">
        <ele>1027.786621</ele>
        <time>2011-10-09T10:53:16Z</time>
      </trkpt>
      <trkpt lat="44.42697" lon="6.21993">
        <ele>1027.306152</ele>
        <time>2011-10-09T10:53:18Z</time>
      </trkpt>
      <trkpt lat="44.42712" lon="6.21992">
        <ele>1025.864014</ele>
        <time>2011-10-09T10:53:25Z</time>
      </trkpt>
      <trkpt lat="44.42717" lon="6.21952">
        <ele>1022.499512</ele>
        <time>2011-10-09T10:53:39Z</time>
      </trkpt>
      <trkpt lat="44.42719" lon="6.21936">
        <ele>1019.615479</ele>
        <time>2011-10-09T10:53:44Z</time>
      </trkpt>
      <trkpt lat="44.42722" lon="6.21931">
        <ele>1019.134766</ele>
        <time>2011-10-09T10:53:46Z</time>
      </trkpt>
      <trkpt lat="44.42729" lon="6.21929">
        <ele>1018.17334</ele>
        <time>2011-10-09T10:53:49Z</time>
      </trkpt>
      <trkpt lat="44.42744" lon="6.21935">
        <ele>1015.289551</ele>
        <time>2011-10-09T10:53:55Z</time>
      </trkpt>
      <trkpt lat="44.4276" lon="6.21937">
        <ele>1011.925049</ele>
        <time>2011-10-09T10:54:02Z</time>
      </trkpt>
      <trkpt lat="44.42771" lon="6.21934">
        <ele>1009.521729</ele>
        <time>2011-10-09T10:54:08Z</time>
      </trkpt>
      <trkpt lat="44.42792" lon="6.21917">
        <ele>1007.118408</ele>
        <time>2011-10-09T10:54:18Z</time>
      </trkpt>
      <trkpt lat="44.42798" lon="6.2191">
        <ele>1005.195801</ele>
        <time>2011-10-09T10:54:22Z</time>
      </trkpt>
      <trkpt lat="44.42817" lon="6.21898">
        <ele>1001.831055</ele>
        <time>2011-10-09T10:54:30Z</time>
      </trkpt>
      <trkpt lat="44.4282" lon="6.21895">
        <ele>1001.831055</ele>
        <time>2011-10-09T10:54:31Z</time>
      </trkpt>
      <trkpt lat="44.42833" lon="6.21878">
        <ele>999.427734</ele>
        <time>2011-10-09T10:54:38Z</time>
      </trkpt>
      <trkpt lat="44.42832" lon="6.21865">
        <ele>997.98584</ele>
        <time>2011-10-09T10:54:42Z</time>
      </trkpt>
      <trkpt lat="44.4283" lon="6.21843">
        <ele>995.101807</ele>
        <time>2011-10-09T10:54:48Z</time>
      </trkpt>
      <trkpt lat="44.42829" lon="6.21839">
        <ele>995.101807</ele>
        <time>2011-10-09T10:54:49Z</time>
      </trkpt>
      <trkpt lat="44.42821" lon="6.21821">
        <ele>993.179199</ele>
        <time>2011-10-09T10:54:54Z</time>
      </trkpt>
      <trkpt lat="44.42806" lon="6.21801">
        <ele>989.814697</ele>
        <time>2011-10-09T10:55:01Z</time>
      </trkpt>
      <trkpt lat="44.42803" lon="6.21799">
        <ele>989.814697</ele>
        <time>2011-10-09T10:55:02Z</time>
      </trkpt>
      <trkpt lat="44.42789" lon="6.21783">
        <ele>986.93042</ele>
        <time>2011-10-09T10:55:08Z</time>
      </trkpt>
      <trkpt lat="44.42771" lon="6.21749">
        <ele>983.085205</ele>
        <time>2011-10-09T10:55:17Z</time>
      </trkpt>
      <trkpt lat="44.42779" lon="6.21714">
        <ele>979.23999</ele>
        <time>2011-10-09T10:55:28Z</time>
      </trkpt>
      <trkpt lat="44.42786" lon="6.2169">
        <ele>976.356201</ele>
        <time>2011-10-09T10:55:34Z</time>
      </trkpt>
      <trkpt lat="44.42786" lon="6.21686">
        <ele>976.356201</ele>
        <time>2011-10-09T10:55:35Z</time>
      </trkpt>
      <trkpt lat="44.4279" lon="6.2166">
        <ele>973.472412</ele>
        <time>2011-10-09T10:55:42Z</time>
      </trkpt>
      <trkpt lat="44.42793" lon="6.21648">
        <ele>972.030273</ele>
        <time>2011-10-09T10:55:45Z</time>
      </trkpt>
      <trkpt lat="44.42785" lon="6.21616">
        <ele>969.14624</ele>
        <time>2011-10-09T10:55:55Z</time>
      </trkpt>
      <trkpt lat="44.42775" lon="6.21592">
        <ele>965.781738</ele>
        <time>2011-10-09T10:56:03Z</time>
      </trkpt>
      <trkpt lat="44.42772" lon="6.21587">
        <ele>964.820313</ele>
        <time>2011-10-09T10:56:05Z</time>
      </trkpt>
      <trkpt lat="44.42755" lon="6.21556">
        <ele>961.455811</ele>
        <time>2011-10-09T10:56:14Z</time>
      </trkpt>
      <trkpt lat="44.42735" lon="6.21526">
        <ele>958.571777</ele>
        <time>2011-10-09T10:56:23Z</time>
      </trkpt>
      <trkpt lat="44.42723" lon="6.21493">
        <ele>954.726318</ele>
        <time>2011-10-09T10:56:31Z</time>
      </trkpt>
      <trkpt lat="44.42692" lon="6.21452">
        <ele>951.361816</ele>
        <time>2011-10-09T10:56:42Z</time>
      </trkpt>
      <trkpt lat="44.42691" lon="6.21409">
        <ele>948.477783</ele>
        <time>2011-10-09T10:56:50Z</time>
      </trkpt>
      <trkpt lat="44.42693" lon="6.21382">
        <ele>945.593994</ele>
        <time>2011-10-09T10:56:56Z</time>
      </trkpt>
      <trkpt lat="44.42695" lon="6.21368">
        <ele>944.1521</ele>
        <time>2011-10-09T10:56:59Z</time>
      </trkpt>
      <trkpt lat="44.42692" lon="6.21342">
        <ele>942.229492</ele>
        <time>2011-10-09T10:57:05Z</time>
      </trkpt>
      <trkpt lat="44.42686" lon="6.21288">
        <ele>938.384033</ele>
        <time>2011-10-09T10:57:16Z</time>
      </trkpt>
      <trkpt lat="44.42681" lon="6.2127">
        <ele>935.5</ele>
        <time>2011-10-09T10:57:20Z</time>
      </trkpt>
      <trkpt lat="44.4267" lon="6.21239">
        <ele>932.616211</ele>
        <time>2011-10-09T10:57:27Z</time>
      </trkpt>
      <trkpt lat="44.42665" lon="6.21225">
        <ele>931.654785</ele>
        <time>2011-10-09T10:57:30Z</time>
      </trkpt>
      <trkpt lat="44.42652" lon="6.21209">
        <ele>930.212891</ele>
        <time>2011-10-09T10:57:34Z</time>
      </trkpt>
      <trkpt lat="44.42633" lon="6.21184">
        <ele>926.848389</ele>
        <time>2011-10-09T10:57:42Z</time>
      </trkpt>
      <trkpt lat="44.42612" lon="6.21165">
        <ele>923.483643</ele>
        <time>2011-10-09T10:57:49Z</time>
      </trkpt>
      <trkpt lat="44.42609" lon="6.21163">
        <ele>923.483643</ele>
        <time>2011-10-09T10:57:50Z</time>
      </trkpt>
      <trkpt lat="44.42592" lon="6.21147">
        <ele>921.080322</ele>
        <time>2011-10-09T10:57:56Z</time>
      </trkpt>
      <trkpt lat="44.4259" lon="6.21137">
        <ele>919.638428</ele>
        <time>2011-10-09T10:58:07Z</time>
      </trkpt>
      <trkpt lat="44.4259" lon="6.21137">
        <ele>919.638428</ele>
        <time>2011-10-09T10:58:53Z</time>
      </trkpt>
      <trkpt lat="44.4259" lon="6.21137">
        <ele>918.196289</ele>
        <time>2011-10-09T10:59:14Z</time>
      </trkpt>
      <trkpt lat="44.4259" lon="6.21137">
        <ele>920.599609</ele>
        <time>2011-10-09T10:59:17Z</time>
      </trkpt>
      <trkpt lat="44.4259" lon="6.21137">
        <ele>918.677002</ele>
        <time>2011-10-09T10:59:19Z</time>
      </trkpt>
      <trkpt lat="44.4259" lon="6.21137">
        <ele>918.196289</ele>
        <time>2011-10-09T10:59:56Z</time>
      </trkpt>
      <trkpt lat="44.4259" lon="6.21137">
        <ele>918.196289</ele>
        <time>2011-10-09T11:00:12Z</time>
      </trkpt>
      <trkpt lat="44.42593" lon="6.21114">
        <ele>917.235107</ele>
        <time>2011-10-09T11:00:17Z</time>
      </trkpt>
      <trkpt lat="44.42594" lon="6.21112">
        <ele>917.235107</ele>
        <time>2011-10-09T11:00:27Z</time>
      </trkpt>
      <trkpt lat="44.42594" lon="6.21112">
        <ele>917.715576</ele>
        <time>2011-10-09T11:00:28Z</time>
      </trkpt>
      <trkpt lat="44.4258" lon="6.21135">
        <ele>919.638428</ele>
        <time>2011-10-09T11:00:47Z</time>
      </trkpt>
      <trkpt lat="44.42568" lon="6.21139">
        <ele>923.00293</ele>
        <time>2011-10-09T11:01:06Z</time>
      </trkpt>
      <trkpt lat="44.42554" lon="6.21143">
        <ele>923.964111</ele>
        <time>2011-10-09T11:01:13Z</time>
      </trkpt>
      <trkpt lat="44.42554" lon="6.21143">
        <ele>926.367676</ele>
        <time>2011-10-09T11:01:34Z</time>
      </trkpt>
      <trkpt lat="44.42554" lon="6.21143">
        <ele>929.251465</ele>
        <time>2011-10-09T11:01:50Z</time>
      </trkpt>
      <trkpt lat="44.42554" lon="6.21143">
        <ele>929.732178</ele>
        <time>2011-10-09T11:01:54Z</time>
      </trkpt>
      <trkpt lat="44.42554" lon="6.21143">
        <ele>930.693604</ele>
        <time>2011-10-09T11:02:02Z</time>
      </trkpt>
      <trkpt lat="44.42503" lon="6.21174">
        <ele>931.654785</ele>
        <time>2011-10-09T11:02:07Z</time>
      </trkpt>
      <trkpt lat="44.42503" lon="6.21174">
        <ele>934.058105</ele>
        <time>2011-10-09T11:02:25Z</time>
      </trkpt>
      <trkpt lat="44.42503" lon="6.21174">
        <ele>934.538818</ele>
        <time>2011-10-09T11:02:32Z</time>
      </trkpt>
      <trkpt lat="44.42503" lon="6.21174">
        <ele>935.019531</ele>
        <time>2011-10-09T11:02:35Z</time>
      </trkpt>
      <trkpt lat="44.42503" lon="6.21174">
        <ele>935.019531</ele>
        <time>2011-10-09T11:02:37Z</time>
      </trkpt>
      <trkpt lat="44.42503" lon="6.21174">
        <ele>935.980713</ele>
        <time>2011-10-09T11:02:39Z</time>
      </trkpt>
      <trkpt lat="44.42503" lon="6.21174">
        <ele>937.422607</ele>
        <time>2011-10-09T11:02:50Z</time>
      </trkpt>
      <trkpt lat="44.42445" lon="6.2121">
        <ele>939.345215</ele>
        <time>2011-10-09T11:03:07Z</time>
      </trkpt>
      <trkpt lat="44.42423" lon="6.21228">
        <ele>940.787354</ele>
        <time>2011-10-09T11:03:26Z</time>
      </trkpt>
      <trkpt lat="44.42404" lon="6.21214">
        <ele>942.229492</ele>
        <time>2011-10-09T11:03:41Z</time>
      </trkpt>
      <trkpt lat="44.4237" lon="6.21211">
        <ele>945.113281</ele>
        <time>2011-10-09T11:04:05Z</time>
      </trkpt>
      <trkpt lat="44.42324" lon="6.21221">
        <ele>946.55542</ele>
        <time>2011-10-09T11:04:35Z</time>
      </trkpt>
      <trkpt lat="44.42296" lon="6.21244">
        <ele>945.593994</ele>
        <time>2011-10-09T11:04:47Z</time>
      </trkpt>
      <trkpt lat="44.42278" lon="6.21232">
        <ele>945.113281</ele>
        <time>2011-10-09T11:04:53Z</time>
      </trkpt>
      <trkpt lat="44.42243" lon="6.21194">
        <ele>943.190674</ele>
        <time>2011-10-09T11:05:09Z</time>
      </trkpt>
      <trkpt lat="44.4223" lon="6.21192">
        <ele>940.787354</ele>
        <time>2011-10-09T11:05:12Z</time>
      </trkpt>
      <trkpt lat="44.42179" lon="6.21179">
        <ele>941.748779</ele>
        <time>2011-10-09T11:05:26Z</time>
      </trkpt>
      <trkpt lat="44.4216" lon="6.21204">
        <ele>940.787354</ele>
        <time>2011-10-09T11:05:36Z</time>
      </trkpt>
      <trkpt lat="44.42156" lon="6.21211">
        <ele>939.825928</ele>
        <time>2011-10-09T11:05:38Z</time>
      </trkpt>
      <trkpt lat="44.42138" lon="6.21204">
        <ele>938.864746</ele>
        <time>2011-10-09T11:05:44Z</time>
      </trkpt>
      <trkpt lat="44.42108" lon="6.21165">
        <ele>937.90332</ele>
        <time>2011-10-09T11:05:57Z</time>
      </trkpt>
      <trkpt lat="44.42103" lon="6.21165">
        <ele>937.422607</ele>
        <time>2011-10-09T11:05:59Z</time>
      </trkpt>
      <trkpt lat="44.4209" lon="6.21155">
        <ele>936.941895</ele>
        <time>2011-10-09T11:06:03Z</time>
      </trkpt>
      <trkpt lat="44.42058" lon="6.21123">
        <ele>935.5</ele>
        <time>2011-10-09T11:06:14Z</time>
      </trkpt>
      <trkpt lat="44.42037" lon="6.21102">
        <ele>935.019531</ele>
        <time>2011-10-09T11:06:19Z</time>
      </trkpt>
      <trkpt lat="44.41983" lon="6.21068">
        <ele>930.693604</ele>
        <time>2011-10-09T11:06:34Z</time>
      </trkpt>
      <trkpt lat="44.41977" lon="6.2106">
        <ele>930.212891</ele>
        <time>2011-10-09T11:06:37Z</time>
      </trkpt>
      <trkpt lat="44.4197" lon="6.21049">
        <ele>927.80957</ele>
        <time>2011-10-09T11:06:40Z</time>
      </trkpt>
      <trkpt lat="44.41939" lon="6.2101">
        <ele>924.925781</ele>
        <time>2011-10-09T11:06:53Z</time>
      </trkpt>
      <trkpt lat="44.41924" lon="6.21007">
        <ele>923.00293</ele>
        <time>2011-10-09T11:07:01Z</time>
      </trkpt>
      <trkpt lat="44.41921" lon="6.21013">
        <ele>922.041504</ele>
        <time>2011-10-09T11:07:03Z</time>
      </trkpt>
      <trkpt lat="44.41906" lon="6.21041">
        <ele>917.715576</ele>
        <time>2011-10-09T11:07:12Z</time>
      </trkpt>
      <trkpt lat="44.41905" lon="6.21043">
        <ele>917.715576</ele>
        <time>2011-10-09T11:07:13Z</time>
      </trkpt>
      <trkpt lat="44.419" lon="6.21049">
        <ele>917.235107</ele>
        <time>2011-10-09T11:07:17Z</time>
      </trkpt>
      <trkpt lat="44.41891" lon="6.21038">
        <ele>917.235107</ele>
        <time>2011-10-09T11:07:23Z</time>
      </trkpt>
      <trkpt lat="44.4189" lon="6.21021">
        <ele>916.273682</ele>
        <time>2011-10-09T11:07:27Z</time>
      </trkpt>
      <trkpt lat="44.41886" lon="6.21">
        <ele>916.754395</ele>
        <time>2011-10-09T11:07:31Z</time>
      </trkpt>
      <trkpt lat="44.41868" lon="6.20975">
        <ele>917.715576</ele>
        <time>2011-10-09T11:07:47Z</time>
      </trkpt>
      <trkpt lat="44.41861" lon="6.20969">
        <ele>920.118896</ele>
        <time>2011-10-09T11:07:54Z</time>
      </trkpt>
      <trkpt lat="44.4186" lon="6.20967">
        <ele>919.638428</ele>
        <time>2011-10-09T11:07:55Z</time>
      </trkpt>
      <trkpt lat="44.41846" lon="6.2096">
        <ele>923.00293</ele>
        <time>2011-10-09T11:08:07Z</time>
      </trkpt>
      <trkpt lat="44.41819" lon="6.20955">
        <ele>924.445068</ele>
        <time>2011-10-09T11:08:29Z</time>
      </trkpt>
      <trkpt lat="44.41784" lon="6.2096">
        <ele>925.886963</ele>
        <time>2011-10-09T11:08:52Z</time>
      </trkpt>
      <trkpt lat="44.41741" lon="6.20982">
        <ele>927.329102</ele>
        <time>2011-10-09T11:09:16Z</time>
      </trkpt>
      <trkpt lat="44.41721" lon="6.21017">
        <ele>927.80957</ele>
        <time>2011-10-09T11:09:33Z</time>
      </trkpt>
      <trkpt lat="44.41721" lon="6.21035">
        <ele>929.732178</ele>
        <time>2011-10-09T11:09:43Z</time>
      </trkpt>
      <trkpt lat="44.41718" lon="6.21042">
        <ele>929.732178</ele>
        <time>2011-10-09T11:09:47Z</time>
      </trkpt>
      <trkpt lat="44.41709" lon="6.2105">
        <ele>931.654785</ele>
        <time>2011-10-09T11:09:54Z</time>
      </trkpt>
      <trkpt lat="44.41704" lon="6.2105">
        <ele>931.654785</ele>
        <time>2011-10-09T11:09:57Z</time>
      </trkpt>
      <trkpt lat="44.41662" lon="6.21059">
        <ele>934.538818</ele>
        <time>2011-10-09T11:10:24Z</time>
      </trkpt>
      <trkpt lat="44.4162" lon="6.21074">
        <ele>936.461426</ele>
        <time>2011-10-09T11:10:50Z</time>
      </trkpt>
      <trkpt lat="44.41581" lon="6.21085">
        <ele>938.384033</ele>
        <time>2011-10-09T11:11:14Z</time>
      </trkpt>
      <trkpt lat="44.41542" lon="6.21093">
        <ele>938.864746</ele>
        <time>2011-10-09T11:11:32Z</time>
      </trkpt>
      <trkpt lat="44.41534" lon="6.21095">
        <ele>937.90332</ele>
        <time>2011-10-09T11:11:34Z</time>
      </trkpt>
      <trkpt lat="44.41515" lon="6.21086">
        <ele>937.422607</ele>
        <time>2011-10-09T11:11:39Z</time>
      </trkpt>
      <trkpt lat="44.41509" lon="6.2108">
        <ele>938.384033</ele>
        <time>2011-10-09T11:11:41Z</time>
      </trkpt>
      <trkpt lat="44.415" lon="6.21078">
        <ele>938.384033</ele>
        <time>2011-10-09T11:11:46Z</time>
      </trkpt>
      <trkpt lat="44.41466" lon="6.21101">
        <ele>940.306885</ele>
        <time>2011-10-09T11:12:08Z</time>
      </trkpt>
      <trkpt lat="44.41463" lon="6.21102">
        <ele>940.306885</ele>
        <time>2011-10-09T11:12:10Z</time>
      </trkpt>
      <trkpt lat="44.41455" lon="6.21088">
        <ele>939.345215</ele>
        <time>2011-10-09T11:12:14Z</time>
      </trkpt>
      <trkpt lat="44.41457" lon="6.21069">
        <ele>936.941895</ele>
        <time>2011-10-09T11:12:18Z</time>
      </trkpt>
      <trkpt lat="44.41465" lon="6.21014">
        <ele>933.577393</ele>
        <time>2011-10-09T11:12:25Z</time>
      </trkpt>
      <trkpt lat="44.41463" lon="6.20979">
        <ele>931.654785</ele>
        <time>2011-10-09T11:12:29Z</time>
      </trkpt>
      <trkpt lat="44.4146" lon="6.20963">
        <ele>929.732178</ele>
        <time>2011-10-09T11:12:32Z</time>
      </trkpt>
      <trkpt lat="44.4145" lon="6.20969">
        <ele>927.329102</ele>
        <time>2011-10-09T11:12:37Z</time>
      </trkpt>
      <trkpt lat="44.41439" lon="6.2099">
        <ele>926.848389</ele>
        <time>2011-10-09T11:12:40Z</time>
      </trkpt>
      <trkpt lat="44.41429" lon="6.21">
        <ele>924.925781</ele>
        <time>2011-10-09T11:12:42Z</time>
      </trkpt>
      <trkpt lat="44.41425" lon="6.21006">
        <ele>924.445068</ele>
        <time>2011-10-09T11:12:43Z</time>
      </trkpt>
      <trkpt lat="44.41345" lon="6.21065">
        <ele>923.00293</ele>
        <time>2011-10-09T11:12:56Z</time>
      </trkpt>
      <trkpt lat="44.41324" lon="6.21074">
        <ele>923.964111</ele>
        <time>2011-10-09T11:13:00Z</time>
      </trkpt>
      <trkpt lat="44.41315" lon="6.21078">
        <ele>923.00293</ele>
        <time>2011-10-09T11:13:02Z</time>
      </trkpt>
      <trkpt lat="44.41283" lon="6.2109">
        <ele>922.041504</ele>
        <time>2011-10-09T11:13:10Z</time>
      </trkpt>
      <trkpt lat="44.4127" lon="6.21095">
        <ele>923.00293</ele>
        <time>2011-10-09T11:13:13Z</time>
      </trkpt>
      <trkpt lat="44.41226" lon="6.2111">
        <ele>922.522217</ele>
        <time>2011-10-09T11:13:23Z</time>
      </trkpt>
      <trkpt lat="44.41191" lon="6.21127">
        <ele>921.560791</ele>
        <time>2011-10-09T11:13:33Z</time>
      </trkpt>
      <trkpt lat="44.41177" lon="6.21094">
        <ele>923.483643</ele>
        <time>2011-10-09T11:13:42Z</time>
      </trkpt>
      <trkpt lat="44.41167" lon="6.21045">
        <ele>923.00293</ele>
        <time>2011-10-09T11:13:57Z</time>
      </trkpt>
      <trkpt lat="44.41162" lon="6.21051">
        <ele>924.925781</ele>
        <time>2011-10-09T11:13:59Z</time>
      </trkpt>
      <trkpt lat="44.41161" lon="6.21049">
        <ele>924.925781</ele>
        <time>2011-10-09T11:14:02Z</time>
      </trkpt>
      <trkpt lat="44.4116" lon="6.21017">
        <ele>926.367676</ele>
        <time>2011-10-09T11:14:09Z</time>
      </trkpt>
      <trkpt lat="44.41161" lon="6.20983">
        <ele>928.770996</ele>
        <time>2011-10-09T11:14:27Z</time>
      </trkpt>
      <trkpt lat="44.41159" lon="6.20979">
        <ele>929.732178</ele>
        <time>2011-10-09T11:14:31Z</time>
      </trkpt>
      <trkpt lat="44.41152" lon="6.20974">
        <ele>930.212891</ele>
        <time>2011-10-09T11:14:39Z</time>
      </trkpt>
      <trkpt lat="44.4113" lon="6.20982">
        <ele>932.616211</ele>
        <time>2011-10-09T11:14:53Z</time>
      </trkpt>
      <trkpt lat="44.41105" lon="6.2098">
        <ele>936.461426</ele>
        <time>2011-10-09T11:15:13Z</time>
      </trkpt>
      <trkpt lat="44.41094" lon="6.20985">
        <ele>936.941895</ele>
        <time>2011-10-09T11:15:21Z</time>
      </trkpt>
      <trkpt lat="44.41085" lon="6.20989">
        <ele>938.384033</ele>
        <time>2011-10-09T11:15:28Z</time>
      </trkpt>
      <trkpt lat="44.41069" lon="6.20998">
        <ele>939.825928</ele>
        <time>2011-10-09T11:15:40Z</time>
      </trkpt>
      <trkpt lat="44.41041" lon="6.21017">
        <ele>942.710205</ele>
        <time>2011-10-09T11:16:02Z</time>
      </trkpt>
      <trkpt lat="44.41017" lon="6.21033">
        <ele>944.1521</ele>
        <time>2011-10-09T11:16:20Z</time>
      </trkpt>
      <trkpt lat="44.41009" lon="6.21038">
        <ele>945.593994</ele>
        <time>2011-10-09T11:16:27Z</time>
      </trkpt>
      <trkpt lat="44.40975" lon="6.21049">
        <ele>948.477783</ele>
        <time>2011-10-09T11:16:51Z</time>
      </trkpt>
      <trkpt lat="44.40972" lon="6.21049">
        <ele>948.958496</ele>
        <time>2011-10-09T11:16:54Z</time>
      </trkpt>
      <trkpt lat="44.40968" lon="6.21058">
        <ele>949.439209</ele>
        <time>2011-10-09T11:16:58Z</time>
      </trkpt>
      <trkpt lat="44.40974" lon="6.21072">
        <ele>950.400635</ele>
        <time>2011-10-09T11:17:04Z</time>
      </trkpt>
      <trkpt lat="44.41" lon="6.21067">
        <ele>952.803711</ele>
        <time>2011-10-09T11:17:20Z</time>
      </trkpt>
      <trkpt lat="44.4103" lon="6.21058">
        <ele>954.24585</ele>
        <time>2011-10-09T11:17:40Z</time>
      </trkpt>
      <trkpt lat="44.41041" lon="6.2108">
        <ele>955.687744</ele>
        <time>2011-10-09T11:17:52Z</time>
      </trkpt>
      <trkpt lat="44.41026" lon="6.21103">
        <ele>956.64917</ele>
        <time>2011-10-09T11:18:04Z</time>
      </trkpt>
      <trkpt lat="44.41004" lon="6.21108">
        <ele>959.05249</ele>
        <time>2011-10-09T11:18:18Z</time>
      </trkpt>
      <trkpt lat="44.40999" lon="6.21106">
        <ele>960.013672</ele>
        <time>2011-10-09T11:18:22Z</time>
      </trkpt>
      <trkpt lat="44.40974" lon="6.21108">
        <ele>961.455811</ele>
        <time>2011-10-09T11:18:40Z</time>
      </trkpt>
      <trkpt lat="44.40942" lon="6.21114">
        <ele>963.858887</ele>
        <time>2011-10-09T11:19:01Z</time>
      </trkpt>
      <trkpt lat="44.40905" lon="6.21112">
        <ele>966.74292</ele>
        <time>2011-10-09T11:19:25Z</time>
      </trkpt>
      <trkpt lat="44.40877" lon="6.21127">
        <ele>969.14624</ele>
        <time>2011-10-09T11:19:47Z</time>
      </trkpt>
      <trkpt lat="44.40857" lon="6.21158">
        <ele>972.030273</ele>
        <time>2011-10-09T11:20:07Z</time>
      </trkpt>
      <trkpt lat="44.40834" lon="6.21188">
        <ele>974.433594</ele>
        <time>2011-10-09T11:20:28Z</time>
      </trkpt>
      <trkpt lat="44.408" lon="6.21208">
        <ele>974.914307</ele>
        <time>2011-10-09T11:20:49Z</time>
      </trkpt>
      <trkpt lat="44.40759" lon="6.21215">
        <ele>975.394775</ele>
        <time>2011-10-09T11:21:08Z</time>
      </trkpt>
      <trkpt lat="44.40718" lon="6.21221">
        <ele>976.356201</ele>
        <time>2011-10-09T11:21:27Z</time>
      </trkpt>
      <trkpt lat="44.40674" lon="6.21227">
        <ele>978.759521</ele>
        <time>2011-10-09T11:21:51Z</time>
      </trkpt>
      <trkpt lat="44.40646" lon="6.21248">
        <ele>981.643311</ele>
        <time>2011-10-09T11:22:12Z</time>
      </trkpt>
      <trkpt lat="44.40624" lon="6.21276">
        <ele>984.046631</ele>
        <time>2011-10-09T11:22:32Z</time>
      </trkpt>
      <trkpt lat="44.40604" lon="6.21329">
        <ele>986.93042</ele>
        <time>2011-10-09T11:22:57Z</time>
      </trkpt>
      <trkpt lat="44.40603" lon="6.21342">
        <ele>988.853516</ele>
        <time>2011-10-09T11:23:03Z</time>
      </trkpt>
      <trkpt lat="44.40598" lon="6.21394">
        <ele>990.29541</ele>
        <time>2011-10-09T11:23:27Z</time>
      </trkpt>
      <trkpt lat="44.40597" lon="6.21396">
        <ele>989.814697</ele>
        <time>2011-10-09T11:23:28Z</time>
      </trkpt>
      <trkpt lat="44.40595" lon="6.21423">
        <ele>991.256592</ele>
        <time>2011-10-09T11:23:40Z</time>
      </trkpt>
      <trkpt lat="44.40593" lon="6.21473">
        <ele>993.179199</ele>
        <time>2011-10-09T11:24:02Z</time>
      </trkpt>
      <trkpt lat="44.4061" lon="6.21519">
        <ele>995.58252</ele>
        <time>2011-10-09T11:24:24Z</time>
      </trkpt>
      <trkpt lat="44.40614" lon="6.21526">
        <ele>996.063232</ele>
        <time>2011-10-09T11:24:28Z</time>
      </trkpt>
      <trkpt lat="44.40626" lon="6.2154">
        <ele>997.024414</ele>
        <time>2011-10-09T11:24:38Z</time>
      </trkpt>
      <trkpt lat="44.40659" lon="6.21556">
        <ele>998.947021</ele>
        <time>2011-10-09T11:24:58Z</time>
      </trkpt>
      <trkpt lat="44.40685" lon="6.21576">
        <ele>1000.38916</ele>
        <time>2011-10-09T11:25:16Z</time>
      </trkpt>
      <trkpt lat="44.4068" lon="6.21597">
        <ele>1002.792236</ele>
        <time>2011-10-09T11:25:27Z</time>
      </trkpt>
      <trkpt lat="44.4066" lon="6.2161">
        <ele>1004.234619</ele>
        <time>2011-10-09T11:25:41Z</time>
      </trkpt>
      <trkpt lat="44.40653" lon="6.21616">
        <ele>1005.195801</ele>
        <time>2011-10-09T11:25:46Z</time>
      </trkpt>
      <trkpt lat="44.40633" lon="6.21641">
        <ele>1006.637695</ele>
        <time>2011-10-09T11:26:03Z</time>
      </trkpt>
      <trkpt lat="44.40632" lon="6.21642">
        <ele>1007.599121</ele>
        <time>2011-10-09T11:26:04Z</time>
      </trkpt>
      <trkpt lat="44.40596" lon="6.21672">
        <ele>1008.560303</ele>
        <time>2011-10-09T11:26:26Z</time>
      </trkpt>
      <trkpt lat="44.4057" lon="6.21694">
        <ele>1009.521729</ele>
        <time>2011-10-09T11:26:43Z</time>
      </trkpt>
      <trkpt lat="44.40548" lon="6.21713">
        <ele>1010.963623</ele>
        <time>2011-10-09T11:26:57Z</time>
      </trkpt>
      <trkpt lat="44.40517" lon="6.21741">
        <ele>1011.925049</ele>
        <time>2011-10-09T11:27:17Z</time>
      </trkpt>
      <trkpt lat="44.4049" lon="6.21763">
        <ele>1017.212158</ele>
        <time>2011-10-09T11:27:36Z</time>
      </trkpt>
      <trkpt lat="44.40489" lon="6.21764">
        <ele>1017.212158</ele>
        <time>2011-10-09T11:27:37Z</time>
      </trkpt>
      <trkpt lat="44.40486" lon="6.21766">
        <ele>1015.289551</ele>
        <time>2011-10-09T11:27:39Z</time>
      </trkpt>
      <trkpt lat="44.4046" lon="6.21783">
        <ele>1018.17334</ele>
        <time>2011-10-09T11:27:57Z</time>
      </trkpt>
      <trkpt lat="44.40423" lon="6.21783">
        <ele>1020.096191</ele>
        <time>2011-10-09T11:28:19Z</time>
      </trkpt>
      <trkpt lat="44.40388" lon="6.21796">
        <ele>1023.460938</ele>
        <time>2011-10-09T11:28:41Z</time>
      </trkpt>
      <trkpt lat="44.40367" lon="6.21807">
        <ele>1023.941406</ele>
        <time>2011-10-09T11:29:00Z</time>
      </trkpt>
      <trkpt lat="44.40315" lon="6.21788">
        <ele>1026.344727</ele>
        <time>2011-10-09T11:29:19Z</time>
      </trkpt>
      <trkpt lat="44.40308" lon="6.21791">
        <ele>1026.825439</ele>
        <time>2011-10-09T11:29:23Z</time>
      </trkpt>
      <trkpt lat="44.4027" lon="6.21803">
        <ele>1029.228516</ele>
        <time>2011-10-09T11:29:45Z</time>
      </trkpt>
      <trkpt lat="44.40241" lon="6.21821">
        <ele>1030.189941</ele>
        <time>2011-10-09T11:30:02Z</time>
      </trkpt>
      <trkpt lat="44.402" lon="6.21847">
        <ele>1032.112549</ele>
        <time>2011-10-09T11:30:25Z</time>
      </trkpt>
      <trkpt lat="44.40174" lon="6.21893">
        <ele>1033.07373</ele>
        <time>2011-10-09T11:30:46Z</time>
      </trkpt>
      <trkpt lat="44.40172" lon="6.21947">
        <ele>1034.515869</ele>
        <time>2011-10-09T11:31:02Z</time>
      </trkpt>
      <trkpt lat="44.40167" lon="6.22019">
        <ele>1035.477051</ele>
        <time>2011-10-09T11:31:24Z</time>
      </trkpt>
      <trkpt lat="44.40144" lon="6.22039">
        <ele>1035.477051</ele>
        <time>2011-10-09T11:31:35Z</time>
      </trkpt>
      <trkpt lat="44.4012" lon="6.22002">
        <ele>1036.919189</ele>
        <time>2011-10-09T11:31:49Z</time>
      </trkpt>
      <trkpt lat="44.40086" lon="6.22">
        <ele>1037.880615</ele>
        <time>2011-10-09T11:32:04Z</time>
      </trkpt>
      <trkpt lat="44.40066" lon="6.22045">
        <ele>1038.842041</ele>
        <time>2011-10-09T11:32:18Z</time>
      </trkpt>
      <trkpt lat="44.40031" lon="6.22099">
        <ele>1039.803223</ele>
        <time>2011-10-09T11:32:37Z</time>
      </trkpt>
      <trkpt lat="44.39987" lon="6.22153">
        <ele>1040.764404</ele>
        <time>2011-10-09T11:32:58Z</time>
      </trkpt>
      <trkpt lat="44.39958" lon="6.22141">
        <ele>1041.245117</ele>
        <time>2011-10-09T11:33:09Z</time>
      </trkpt>
      <trkpt lat="44.39938" lon="6.22089">
        <ele>1042.687256</ele>
        <time>2011-10-09T11:33:27Z</time>
      </trkpt>
      <trkpt lat="44.3991" lon="6.22065">
        <ele>1045.571045</ele>
        <time>2011-10-09T11:33:46Z</time>
      </trkpt>
      <trkpt lat="44.39888" lon="6.22037">
        <ele>1047.974365</ele>
        <time>2011-10-09T11:34:03Z</time>
      </trkpt>
      <trkpt lat="44.39873" lon="6.22019">
        <ele>1050.377686</ele>
        <time>2011-10-09T11:34:15Z</time>
      </trkpt>
      <trkpt lat="44.39872" lon="6.22019">
        <ele>1049.896973</ele>
        <time>2011-10-09T11:34:16Z</time>
      </trkpt>
      <trkpt lat="44.39844" lon="6.22009">
        <ele>1052.300293</ele>
        <time>2011-10-09T11:34:36Z</time>
      </trkpt>
      <trkpt lat="44.39805" lon="6.21998">
        <ele>1055.665039</ele>
        <time>2011-10-09T11:35:02Z</time>
      </trkpt>
      <trkpt lat="44.39776" lon="6.21975">
        <ele>1058.548828</ele>
        <time>2011-10-09T11:35:23Z</time>
      </trkpt>
      <trkpt lat="44.39773" lon="6.21972">
        <ele>1059.029541</ele>
        <time>2011-10-09T11:35:25Z</time>
      </trkpt>
      <trkpt lat="44.39746" lon="6.21947">
        <ele>1060.952148</ele>
        <time>2011-10-09T11:35:47Z</time>
      </trkpt>
      <trkpt lat="44.39722" lon="6.21922">
        <ele>1062.874756</ele>
        <time>2011-10-09T11:36:06Z</time>
      </trkpt>
      <trkpt lat="44.39717" lon="6.21917">
        <ele>1063.355469</ele>
        <time>2011-10-09T11:36:10Z</time>
      </trkpt>
      <trkpt lat="44.39709" lon="6.2191">
        <ele>1064.31665</ele>
        <time>2011-10-09T11:36:15Z</time>
      </trkpt>
      <trkpt lat="44.39705" lon="6.21906">
        <ele>1063.835938</ele>
        <time>2011-10-09T11:36:18Z</time>
      </trkpt>
      <trkpt lat="44.39702" lon="6.21903">
        <ele>1063.835938</ele>
        <time>2011-10-09T11:36:21Z</time>
      </trkpt>
      <trkpt lat="44.39698" lon="6.21899">
        <ele>1064.31665</ele>
        <time>2011-10-09T11:36:24Z</time>
      </trkpt>
      <trkpt lat="44.39667" lon="6.21852">
        <ele>1063.355469</ele>
        <time>2011-10-09T11:36:45Z</time>
      </trkpt>
      <trkpt lat="44.39659" lon="6.21842">
        <ele>1063.355469</ele>
        <time>2011-10-09T11:36:48Z</time>
      </trkpt>
      <trkpt lat="44.39644" lon="6.2183">
        <ele>1063.355469</ele>
        <time>2011-10-09T11:36:52Z</time>
      </trkpt>
      <trkpt lat="44.39633" lon="6.21828">
        <ele>1061.913574</ele>
        <time>2011-10-09T11:36:54Z</time>
      </trkpt>
      <trkpt lat="44.39611" lon="6.21825">
        <ele>1061.913574</ele>
        <time>2011-10-09T11:36:58Z</time>
      </trkpt>
      <trkpt lat="44.39579" lon="6.21832">
        <ele>1061.432861</ele>
        <time>2011-10-09T11:37:03Z</time>
      </trkpt>
      <trkpt lat="44.39551" lon="6.21827">
        <ele>1059.029541</ele>
        <time>2011-10-09T11:37:07Z</time>
      </trkpt>
      <trkpt lat="44.39545" lon="6.21821">
        <ele>1058.548828</ele>
        <time>2011-10-09T11:37:08Z</time>
      </trkpt>
      <trkpt lat="44.39535" lon="6.21808">
        <ele>1058.068359</ele>
        <time>2011-10-09T11:37:10Z</time>
      </trkpt>
      <trkpt lat="44.395" lon="6.21796">
        <ele>1056.626221</ele>
        <time>2011-10-09T11:37:15Z</time>
      </trkpt>
      <trkpt lat="44.39485" lon="6.21767">
        <ele>1055.184326</ele>
        <time>2011-10-09T11:37:19Z</time>
      </trkpt>
      <trkpt lat="44.39496" lon="6.21732">
        <ele>1055.184326</ele>
        <time>2011-10-09T11:37:25Z</time>
      </trkpt>
      <trkpt lat="44.39508" lon="6.21732">
        <ele>1056.145508</ele>
        <time>2011-10-09T11:37:28Z</time>
      </trkpt>
      <trkpt lat="44.39556" lon="6.21745">
        <ele>1057.106934</ele>
        <time>2011-10-09T11:37:43Z</time>
      </trkpt>
      <trkpt lat="44.39613" lon="6.21716">
        <ele>1056.145508</ele>
        <time>2011-10-09T11:37:59Z</time>
      </trkpt>
      <trkpt lat="44.39648" lon="6.21655">
        <ele>1057.106934</ele>
        <time>2011-10-09T11:38:15Z</time>
      </trkpt>
      <trkpt lat="44.39649" lon="6.21557">
        <ele>1055.665039</ele>
        <time>2011-10-09T11:38:35Z</time>
      </trkpt>
      <trkpt lat="44.39636" lon="6.21471">
        <ele>1055.665039</ele>
        <time>2011-10-09T11:38:51Z</time>
      </trkpt>
      <trkpt lat="44.39619" lon="6.21377">
        <ele>1055.184326</ele>
        <time>2011-10-09T11:39:09Z</time>
      </trkpt>
      <trkpt lat="44.3961" lon="6.2136">
        <ele>1053.742432</ele>
        <time>2011-10-09T11:39:13Z</time>
      </trkpt>
      <trkpt lat="44.39598" lon="6.21343">
        <ele>1054.223145</ele>
        <time>2011-10-09T11:39:17Z</time>
      </trkpt>
      <trkpt lat="44.39589" lon="6.21331">
        <ele>1054.223145</ele>
        <time>2011-10-09T11:39:20Z</time>
      </trkpt>
      <trkpt lat="44.3958" lon="6.21312">
        <ele>1054.223145</ele>
        <time>2011-10-09T11:39:24Z</time>
      </trkpt>
      <trkpt lat="44.39567" lon="6.2128">
        <ele>1054.703613</ele>
        <time>2011-10-09T11:39:30Z</time>
      </trkpt>
      <trkpt lat="44.39564" lon="6.21254">
        <ele>1054.223145</ele>
        <time>2011-10-09T11:39:34Z</time>
      </trkpt>
      <trkpt lat="44.39565" lon="6.21184">
        <ele>1054.703613</ele>
        <time>2011-10-09T11:39:47Z</time>
      </trkpt>
      <trkpt lat="44.39562" lon="6.21179">
        <ele>1054.703613</ele>
        <time>2011-10-09T11:39:48Z</time>
      </trkpt>
      <trkpt lat="44.39522" lon="6.21095">
        <ele>1052.781006</ele>
        <time>2011-10-09T11:40:05Z</time>
      </trkpt>
      <trkpt lat="44.3951" lon="6.21076">
        <ele>1052.781006</ele>
        <time>2011-10-09T11:40:09Z</time>
      </trkpt>
      <trkpt lat="44.39466" lon="6.21032">
        <ele>1052.300293</ele>
        <time>2011-10-09T11:40:19Z</time>
      </trkpt>
      <trkpt lat="44.39409" lon="6.21003">
        <ele>1052.781006</ele>
        <time>2011-10-09T11:40:35Z</time>
      </trkpt>
      <trkpt lat="44.39384" lon="6.20966">
        <ele>1053.261719</ele>
        <time>2011-10-09T11:40:46Z</time>
      </trkpt>
      <trkpt lat="44.39364" lon="6.20958">
        <ele>1053.261719</ele>
        <time>2011-10-09T11:40:52Z</time>
      </trkpt>
      <trkpt lat="44.39343" lon="6.20914">
        <ele>1053.261719</ele>
        <time>2011-10-09T11:41:01Z</time>
      </trkpt>
      <trkpt lat="44.3934" lon="6.20906">
        <ele>1053.261719</ele>
        <time>2011-10-09T11:41:03Z</time>
      </trkpt>
      <trkpt lat="44.39331" lon="6.20893">
        <ele>1053.261719</ele>
        <time>2011-10-09T11:41:07Z</time>
      </trkpt>
      <trkpt lat="44.39293" lon="6.20847">
        <ele>1053.742432</ele>
        <time>2011-10-09T11:41:21Z</time>
      </trkpt>
      <trkpt lat="44.3931" lon="6.20824">
        <ele>1053.261719</ele>
        <time>2011-10-09T11:41:28Z</time>
      </trkpt>
      <trkpt lat="44.39332" lon="6.2082">
        <ele>1054.223145</ele>
        <time>2011-10-09T11:41:34Z</time>
      </trkpt>
      <trkpt lat="44.39386" lon="6.20844">
        <ele>1055.184326</ele>
        <time>2011-10-09T11:41:51Z</time>
      </trkpt>
      <trkpt lat="44.39412" lon="6.20853">
        <ele>1055.184326</ele>
        <time>2011-10-09T11:41:58Z</time>
      </trkpt>
      <trkpt lat="44.39432" lon="6.20831">
        <ele>1055.665039</ele>
        <time>2011-10-09T11:42:06Z</time>
      </trkpt>
      <trkpt lat="44.39451" lon="6.20752">
        <ele>1055.665039</ele>
        <time>2011-10-09T11:42:22Z</time>
      </trkpt>
      <trkpt lat="44.39484" lon="6.20651">
        <ele>1056.145508</ele>
        <time>2011-10-09T11:42:43Z</time>
      </trkpt>
      <trkpt lat="44.39526" lon="6.20571">
        <ele>1056.145508</ele>
        <time>2011-10-09T11:43:02Z</time>
      </trkpt>
      <trkpt lat="44.39584" lon="6.20536">
        <ele>1056.626221</ele>
        <time>2011-10-09T11:43:19Z</time>
      </trkpt>
      <trkpt lat="44.39651" lon="6.20492">
        <ele>1058.068359</ele>
        <time>2011-10-09T11:43:39Z</time>
      </trkpt>
      <trkpt lat="44.39655" lon="6.20438">
        <ele>1058.548828</ele>
        <time>2011-10-09T11:43:51Z</time>
      </trkpt>
      <trkpt lat="44.3965" lon="6.20406">
        <ele>1058.068359</ele>
        <time>2011-10-09T11:43:57Z</time>
      </trkpt>
      <trkpt lat="44.39649" lon="6.20381">
        <ele>1058.548828</ele>
        <time>2011-10-09T11:44:01Z</time>
      </trkpt>
      <trkpt lat="44.39658" lon="6.20347">
        <ele>1058.548828</ele>
        <time>2011-10-09T11:44:07Z</time>
      </trkpt>
      <trkpt lat="44.39695" lon="6.20266">
        <ele>1059.029541</ele>
        <time>2011-10-09T11:44:23Z</time>
      </trkpt>
      <trkpt lat="44.39756" lon="6.20199">
        <ele>1059.029541</ele>
        <time>2011-10-09T11:44:41Z</time>
      </trkpt>
      <trkpt lat="44.39791" lon="6.20124">
        <ele>1059.029541</ele>
        <time>2011-10-09T11:44:58Z</time>
      </trkpt>
      <trkpt lat="44.39805" lon="6.20018">
        <ele>1059.029541</ele>
        <time>2011-10-09T11:45:17Z</time>
      </trkpt>
      <trkpt lat="44.39804" lon="6.19984">
        <ele>1059.510254</ele>
        <time>2011-10-09T11:45:23Z</time>
      </trkpt>
      <trkpt lat="44.39812" lon="6.19961">
        <ele>1059.029541</ele>
        <time>2011-10-09T11:45:27Z</time>
      </trkpt>
      <trkpt lat="44.39833" lon="6.19866">
        <ele>1059.990723</ele>
        <time>2011-10-09T11:45:45Z</time>
      </trkpt>
      <trkpt lat="44.39828" lon="6.19764">
        <ele>1060.471436</ele>
        <time>2011-10-09T11:46:02Z</time>
      </trkpt>
      <trkpt lat="44.39831" lon="6.19648">
        <ele>1060.952148</ele>
        <time>2011-10-09T11:46:22Z</time>
      </trkpt>
      <trkpt lat="44.3984" lon="6.19557">
        <ele>1061.432861</ele>
        <time>2011-10-09T11:46:40Z</time>
      </trkpt>
      <trkpt lat="44.39835" lon="6.19481">
        <ele>1061.913574</ele>
        <time>2011-10-09T11:46:56Z</time>
      </trkpt>
      <trkpt lat="44.39839" lon="6.19425">
        <ele>1062.394043</ele>
        <time>2011-10-09T11:47:07Z</time>
      </trkpt>
      <trkpt lat="44.39837" lon="6.19354">
        <ele>1063.355469</ele>
        <time>2011-10-09T11:47:23Z</time>
      </trkpt>
      <trkpt lat="44.39853" lon="6.19267">
        <ele>1064.797363</ele>
        <time>2011-10-09T11:47:42Z</time>
      </trkpt>
      <trkpt lat="44.39838" lon="6.19207">
        <ele>1065.278076</ele>
        <time>2011-10-09T11:47:56Z</time>
      </trkpt>
      <trkpt lat="44.3979" lon="6.19134">
        <ele>1065.278076</ele>
        <time>2011-10-09T11:48:14Z</time>
      </trkpt>
      <trkpt lat="44.39739" lon="6.1906">
        <ele>1065.758789</ele>
        <time>2011-10-09T11:48:34Z</time>
      </trkpt>
      <trkpt lat="44.39702" lon="6.19047">
        <ele>1064.797363</ele>
        <time>2011-10-09T11:48:44Z</time>
      </trkpt>
      <trkpt lat="44.39682" lon="6.19031">
        <ele>1063.835938</ele>
        <time>2011-10-09T11:48:48Z</time>
      </trkpt>
      <trkpt lat="44.39653" lon="6.18987">
        <ele>1063.355469</ele>
        <time>2011-10-09T11:48:54Z</time>
      </trkpt>
      <trkpt lat="44.39647" lon="6.18924">
        <ele>1059.029541</ele>
        <time>2011-10-09T11:49:00Z</time>
      </trkpt>
      <trkpt lat="44.39667" lon="6.18846">
        <ele>1057.587646</ele>
        <time>2011-10-09T11:49:07Z</time>
      </trkpt>
      <trkpt lat="44.39683" lon="6.18794">
        <ele>1055.665039</ele>
        <time>2011-10-09T11:49:12Z</time>
      </trkpt>
      <trkpt lat="44.39709" lon="6.18735">
        <ele>1052.300293</ele>
        <time>2011-10-09T11:49:18Z</time>
      </trkpt>
      <trkpt lat="44.39713" lon="6.18725">
        <ele>1052.300293</ele>
        <time>2011-10-09T11:49:19Z</time>
      </trkpt>
      <trkpt lat="44.39717" lon="6.18681">
        <ele>1050.377686</ele>
        <time>2011-10-09T11:49:23Z</time>
      </trkpt>
      <trkpt lat="44.39707" lon="6.1865">
        <ele>1048.935547</ele>
        <time>2011-10-09T11:49:26Z</time>
      </trkpt>
      <trkpt lat="44.39692" lon="6.18613">
        <ele>1047.012939</ele>
        <time>2011-10-09T11:49:29Z</time>
      </trkpt>
      <trkpt lat="44.39687" lon="6.18583">
        <ele>1044.609619</ele>
        <time>2011-10-09T11:49:31Z</time>
      </trkpt>
      <trkpt lat="44.39686" lon="6.18529">
        <ele>1042.206543</ele>
        <time>2011-10-09T11:49:35Z</time>
      </trkpt>
      <trkpt lat="44.39685" lon="6.18518">
        <ele>1040.283936</ele>
        <time>2011-10-09T11:49:36Z</time>
      </trkpt>
      <trkpt lat="44.3968" lon="6.18502">
        <ele>1038.361328</ele>
        <time>2011-10-09T11:49:38Z</time>
      </trkpt>
      <trkpt lat="44.3967" lon="6.18491">
        <ele>1036.919189</ele>
        <time>2011-10-09T11:49:40Z</time>
      </trkpt>
      <trkpt lat="44.39655" lon="6.18483">
        <ele>1034.996582</ele>
        <time>2011-10-09T11:49:42Z</time>
      </trkpt>
      <trkpt lat="44.39569" lon="6.18439">
        <ele>1032.593262</ele>
        <time>2011-10-09T11:49:53Z</time>
      </trkpt>
      <trkpt lat="44.3954" lon="6.18408">
        <ele>1031.631836</ele>
        <time>2011-10-09T11:49:58Z</time>
      </trkpt>
      <trkpt lat="44.39519" lon="6.18352">
        <ele>1031.631836</ele>
        <time>2011-10-09T11:50:05Z</time>
      </trkpt>
      <trkpt lat="44.39513" lon="6.18318">
        <ele>1030.670654</ele>
        <time>2011-10-09T11:50:10Z</time>
      </trkpt>
      <trkpt lat="44.39519" lon="6.18298">
        <ele>1029.709229</ele>
        <time>2011-10-09T11:50:13Z</time>
      </trkpt>
      <trkpt lat="44.39536" lon="6.18275">
        <ele>1030.189941</ele>
        <time>2011-10-09T11:50:18Z</time>
      </trkpt>
      <trkpt lat="44.39571" lon="6.18237">
        <ele>1029.709229</ele>
        <time>2011-10-09T11:50:28Z</time>
      </trkpt>
      <trkpt lat="44.39584" lon="6.18204">
        <ele>1029.709229</ele>
        <time>2011-10-09T11:50:34Z</time>
      </trkpt>
      <trkpt lat="44.39586" lon="6.1816">
        <ele>1028.748047</ele>
        <time>2011-10-09T11:50:40Z</time>
      </trkpt>
      <trkpt lat="44.3959" lon="6.18138">
        <ele>1028.748047</ele>
        <time>2011-10-09T11:50:43Z</time>
      </trkpt>
      <trkpt lat="44.39592" lon="6.18109">
        <ele>1027.786621</ele>
        <time>2011-10-09T11:50:47Z</time>
      </trkpt>
      <trkpt lat="44.39586" lon="6.18077">
        <ele>1028.267334</ele>
        <time>2011-10-09T11:50:52Z</time>
      </trkpt>
      <trkpt lat="44.39531" lon="6.1794">
        <ele>1025.383301</ele>
        <time>2011-10-09T11:51:13Z</time>
      </trkpt>
      <trkpt lat="44.39501" lon="6.17858">
        <ele>1023.941406</ele>
        <time>2011-10-09T11:51:25Z</time>
      </trkpt>
      <trkpt lat="44.39488" lon="6.17788">
        <ele>1022.980225</ele>
        <time>2011-10-09T11:51:34Z</time>
      </trkpt>
      <trkpt lat="44.39483" lon="6.17751">
        <ele>1022.499512</ele>
        <time>2011-10-09T11:51:38Z</time>
      </trkpt>
      <trkpt lat="44.39479" lon="6.17726">
        <ele>1022.018799</ele>
        <time>2011-10-09T11:51:41Z</time>
      </trkpt>
      <trkpt lat="44.39472" lon="6.17674">
        <ele>1021.538086</ele>
        <time>2011-10-09T11:51:48Z</time>
      </trkpt>
      <trkpt lat="44.39441" lon="6.17595">
        <ele>1021.057617</ele>
        <time>2011-10-09T11:52:00Z</time>
      </trkpt>
      <trkpt lat="44.39421" lon="6.17574">
        <ele>1020.576904</ele>
        <time>2011-10-09T11:52:05Z</time>
      </trkpt>
      <trkpt lat="44.39389" lon="6.17555">
        <ele>1021.538086</ele>
        <time>2011-10-09T11:52:11Z</time>
      </trkpt>
      <trkpt lat="44.3937" lon="6.17505">
        <ele>1020.576904</ele>
        <time>2011-10-09T11:52:18Z</time>
      </trkpt>
      <trkpt lat="44.39373" lon="6.17498">
        <ele>1019.134766</ele>
        <time>2011-10-09T11:52:19Z</time>
      </trkpt>
      <trkpt lat="44.39382" lon="6.17485">
        <ele>1018.654053</ele>
        <time>2011-10-09T11:52:21Z</time>
      </trkpt>
      <trkpt lat="44.39395" lon="6.17466">
        <ele>1019.134766</ele>
        <time>2011-10-09T11:52:24Z</time>
      </trkpt>
      <trkpt lat="44.39409" lon="6.17448">
        <ele>1017.692627</ele>
        <time>2011-10-09T11:52:27Z</time>
      </trkpt>
      <trkpt lat="44.39427" lon="6.17439">
        <ele>1016.731445</ele>
        <time>2011-10-09T11:52:30Z</time>
      </trkpt>
      <trkpt lat="44.39464" lon="6.17422">
        <ele>1014.328125</ele>
        <time>2011-10-09T11:52:36Z</time>
      </trkpt>
      <trkpt lat="44.39475" lon="6.17413">
        <ele>1015.289551</ele>
        <time>2011-10-09T11:52:38Z</time>
      </trkpt>
      <trkpt lat="44.39519" lon="6.17366">
        <ele>1013.847412</ele>
        <time>2011-10-09T11:52:47Z</time>
      </trkpt>
      <trkpt lat="44.3953" lon="6.17349">
        <ele>1012.88623</ele>
        <time>2011-10-09T11:52:50Z</time>
      </trkpt>
      <trkpt lat="44.39545" lon="6.17325">
        <ele>1010.963623</ele>
        <time>2011-10-09T11:52:55Z</time>
      </trkpt>
      <trkpt lat="44.39547" lon="6.1732">
        <ele>1010.002197</ele>
        <time>2011-10-09T11:52:57Z</time>
      </trkpt>
      <trkpt lat="44.39551" lon="6.1731">
        <ele>1007.599121</ele>
        <time>2011-10-09T11:52:59Z</time>
      </trkpt>
      <trkpt lat="44.39553" lon="6.17301">
        <ele>1005.195801</ele>
        <time>2011-10-09T11:53:02Z</time>
      </trkpt>
      <trkpt lat="44.39602" lon="6.17322">
        <ele>1002.311523</ele>
        <time>2011-10-09T11:53:06Z</time>
      </trkpt>
      <trkpt lat="44.39608" lon="6.17328">
        <ele>1003.272949</ele>
        <time>2011-10-09T11:53:08Z</time>
      </trkpt>
      <trkpt lat="44.39619" lon="6.17345">
        <ele>1001.831055</ele>
        <time>2011-10-09T11:53:11Z</time>
      </trkpt>
      <trkpt lat="44.39661" lon="6.17352">
        <ele>999.427734</ele>
        <time>2011-10-09T11:53:19Z</time>
      </trkpt>
      <trkpt lat="44.39663" lon="6.17347">
        <ele>999.427734</ele>
        <time>2011-10-09T11:53:20Z</time>
      </trkpt>
      <trkpt lat="44.39697" lon="6.17297">
        <ele>1001.350342</ele>
        <time>2011-10-09T11:53:37Z</time>
      </trkpt>
      <trkpt lat="44.39726" lon="6.17271">
        <ele>1004.715088</ele>
        <time>2011-10-09T11:53:53Z</time>
      </trkpt>
      <trkpt lat="44.39746" lon="6.17227">
        <ele>1006.637695</ele>
        <time>2011-10-09T11:54:12Z</time>
      </trkpt>
      <trkpt lat="44.39762" lon="6.17184">
        <ele>1009.041016</ele>
        <time>2011-10-09T11:54:31Z</time>
      </trkpt>
      <trkpt lat="44.39772" lon="6.17159">
        <ele>1010.48291</ele>
        <time>2011-10-09T11:54:42Z</time>
      </trkpt>
      <trkpt lat="44.3979" lon="6.17118">
        <ele>1012.88623</ele>
        <time>2011-10-09T11:55:02Z</time>
      </trkpt>
      <trkpt lat="44.3979" lon="6.17118">
        <ele>1013.366943</ele>
        <time>2011-10-09T11:55:43Z</time>
      </trkpt>
    </trkseg>
  </trk>
</gpx>